Provisional Data: Conodoguinet Creek near Schlusser, PA


Please select a monitoring station.
Please select start date.
Please select start date.

Toggle Unit: C/F Toggle Unit: C/F
Sample Time Temperature (C) Temperature (F) Specific Conductivity (mS/cm) pH   Turbidity (NTU+) DO (mg/L)
10/17/2022 12:00:00 AM 13.47 56.246 0.436 7.95 1.15 9.03
10/17/2022 12:15:00 AM 13.43 56.174 0.436 7.95 1.68 9.05
10/17/2022 12:30:00 AM 13.39 56.102 0.436 7.95 1.03 9.04
10/17/2022 12:45:00 AM 13.35 56.03 0.437 7.95 1.33 9.05
10/17/2022 1:00:00 AM 13.32 55.976 0.437 7.94 1.17 9.03
10/17/2022 1:15:00 AM 13.29 55.922 0.437 7.94 1.1 9.06
10/17/2022 1:30:00 AM 13.26 55.868 0.437 7.94 1.77 9.05
10/17/2022 1:45:00 AM 13.22 55.796 0.437 7.94 1.84 9.07
10/17/2022 2:00:00 AM 13.18 55.724 0.438 7.94 1.34 9.08
10/17/2022 2:15:00 AM 13.14 55.652 0.438 7.94 4.13 9.08
10/17/2022 2:30:00 AM 13.1 55.58 0.438 7.94 1.9 9.08
10/17/2022 2:45:00 AM 13.06 55.508 0.438 7.94 1.53 9.09
10/17/2022 3:00:00 AM 13.03 55.454 0.438 7.94 1.28 9.08
10/17/2022 3:15:00 AM 13 55.4 0.438 7.94 1.33 9.1
10/17/2022 3:30:00 AM 12.96 55.328 0.438 7.94 1.11 9.1
10/17/2022 3:45:00 AM 12.92 55.256 0.438 7.94 1.39 9.13
10/17/2022 4:00:00 AM 12.89 55.202 0.438 7.94 1.47 9.14
10/17/2022 4:15:00 AM 12.86 55.148 0.438 7.94 1.48 9.13
10/17/2022 4:30:00 AM 12.82 55.076 0.438 7.94 1.45 9.16
10/17/2022 4:45:00 AM 12.8 55.04 0.438 7.94 1.59 9.13
10/17/2022 5:00:00 AM 12.78 55.004 0.438 7.94 1.31 9.14
10/17/2022 5:15:00 AM 12.76 54.968 0.438 7.94 1.18 9.13
10/17/2022 5:30:00 AM 12.76 54.968 0.438 7.94 1.4 9.14
10/17/2022 5:45:00 AM 12.77 54.986 0.439 7.94 1.64 9.16
10/17/2022 6:00:00 AM 12.77 54.986 0.439 7.94 1.21 9.17
10/17/2022 6:15:00 AM 12.78 55.004 0.439 7.94 0.98 9.17
10/17/2022 6:30:00 AM 12.79 55.022 0.439 7.94 1.19 9.17
10/17/2022 6:45:00 AM 12.8 55.04 0.439 7.93 1.18 9.16
10/17/2022 7:00:00 AM 12.81 55.058 0.439 7.93 1.2 9.16
10/17/2022 7:15:00 AM 12.82 55.076 0.439 7.93 1.85 9.18
10/17/2022 7:30:00 AM 12.84 55.112 0.439 7.93 1.05 9.2
10/17/2022 7:45:00 AM 12.85 55.13 0.439 7.94 1.02 9.21
10/17/2022 8:00:00 AM 12.87 55.166 0.439 7.94 1.1 9.25
10/17/2022 8:15:00 AM 12.9 55.22 0.439 7.94 1.82 9.29
10/17/2022 8:30:00 AM 12.95 55.31 0.439 7.95 1.23 9.35
10/17/2022 8:45:00 AM 12.98 55.364 0.439 7.95 1.03 9.46
10/17/2022 9:00:00 AM 13.03 55.454 0.439 7.96 1.47 9.6
10/17/2022 9:15:00 AM 13.09 55.562 0.438 7.97 1.1 9.78
10/17/2022 9:30:00 AM 13.14 55.652 0.438 7.98 2.51 9.97
10/17/2022 9:45:00 AM 13.19 55.742 0.438 8 1.89 10.14
10/17/2022 10:00:00 AM 13.25 55.85 0.438 8.01 1.91 10.25
10/17/2022 10:15:00 AM 13.32 55.976 0.438 8.02 2 10.47
10/17/2022 10:30:00 AM 13.41 56.138 0.438 8.04 1.53 10.74
10/17/2022 10:45:00 AM 13.53 56.354 0.437 8.07 1.34 11
10/17/2022 11:00:00 AM 13.65 56.57 0.437 8.09 0.97 11.32
10/17/2022 11:15:00 AM 13.78 56.804 0.436 8.11 0.92 11.63
10/17/2022 11:30:00 AM 13.89 57.002 0.436 8.14 0.99 11.85
10/17/2022 11:45:00 AM 14.04 57.272 0.435 8.16 0.92 12.12
10/17/2022 12:00:00 PM 14.18 57.524 0.435 8.18 1 12.37
10/17/2022 12:15:00 PM 14.3 57.74 0.435 8.2 0.86 12.58
10/17/2022 12:30:00 PM 14.4 57.92 0.435 8.23 1.04 12.81
10/17/2022 12:45:00 PM 14.54 58.172 0.434 8.26 0.71 13.04
10/17/2022 1:00:00 PM 14.65 58.37 0.433 8.28 1.03 13.23
10/17/2022 1:15:00 PM 14.73 58.514 0.433 8.31 0.85 13.4
10/17/2022 1:30:00 PM 14.76 58.568 0.433 8.33 1.09 13.48
10/17/2022 1:45:00 PM 14.82 58.676 0.433 8.34 0.77 13.59
10/17/2022 2:00:00 PM 14.88 58.784 0.433 8.35 1.53 13.65
10/17/2022 2:15:00 PM 14.87 58.766 0.433 8.36 0.7 13.63
10/17/2022 2:30:00 PM 14.84 58.712 0.433 8.37 1.22 13.59
10/17/2022 2:45:00 PM 14.82 58.676 0.433 8.38 0.92 13.59
10/17/2022 3:00:00 PM 14.79 58.622 0.433 8.38 0.79 13.56
10/17/2022 3:15:00 PM 14.78 58.604 0.433 8.39 0.75 13.55
10/17/2022 3:30:00 PM 14.76 58.568 0.434 8.39 0.89 13.48
10/17/2022 3:45:00 PM 14.77 58.586 0.433 8.39 0.76 13.49
10/17/2022 4:00:00 PM 14.97 58.946 0.433 8.38 0.86 13.5
10/17/2022 4:15:00 PM 15.13 59.234 0.433 8.36 0.78 13.54
10/17/2022 4:30:00 PM 15.11 59.198 0.434 8.36 0.69 13.48
10/17/2022 4:45:00 PM 14.97 58.946 0.435 8.37 0.81 13.35
10/17/2022 5:00:00 PM 14.84 58.712 0.435 8.37 0.71 13.21
10/17/2022 5:15:00 PM 14.75 58.55 0.435 8.36 0.9 12.98
10/17/2022 5:30:00 PM 14.67 58.406 0.436 8.35 0.75 12.77
10/17/2022 5:45:00 PM 14.56 58.208 0.437 8.34 1.13 12.57
10/17/2022 6:00:00 PM 14.44 57.992 0.437 8.34 0.7 12.29
10/17/2022 6:15:00 PM 14.35 57.83 0.437 8.33 0.91 12.07
10/17/2022 6:30:00 PM 14.24 57.632 0.438 8.31 0.92 11.8
10/17/2022 6:45:00 PM 14.12 57.416 0.439 8.29 0.78 11.5
10/17/2022 7:00:00 PM 13.99 57.182 0.44 8.26 0.7 11.18
10/17/2022 7:15:00 PM 13.87 56.966 0.44 8.24 0.9 10.87
10/17/2022 7:30:00 PM 13.78 56.804 0.441 8.21 1.21 10.61
10/17/2022 7:45:00 PM 13.69 56.642 0.442 8.18 0.93 10.36
10/17/2022 8:00:00 PM 13.59 56.462 0.442 8.16 1.1 10.13
10/17/2022 8:15:00 PM 13.5 56.3 0.443 8.14 1.26 9.98
10/17/2022 8:30:00 PM 13.42 56.156 0.443 8.12 1.05 9.79
10/17/2022 8:45:00 PM 13.35 56.03 0.443 8.09 0.79 9.67
10/17/2022 9:00:00 PM 13.28 55.904 0.444 8.08 0.95 9.56
10/17/2022 9:15:00 PM 13.22 55.796 0.444 8.07 0.74 9.46
10/17/2022 9:30:00 PM 13.16 55.688 0.444 8.06 0.98 9.42
10/17/2022 9:45:00 PM 13.11 55.598 0.444 8.05 0.96 9.37
10/17/2022 10:00:00 PM 13.03 55.454 0.445 8.04 0.79 9.34
10/17/2022 10:15:00 PM 12.96 55.328 0.445 8.02 0.86 9.31
10/17/2022 10:30:00 PM 12.88 55.184 0.445 8.03 0.89 9.3
10/17/2022 10:45:00 PM 12.83 55.094 0.445 8.03 1.27 9.31
10/17/2022 11:00:00 PM 12.79 55.022 0.444 8.02 1.21 9.26
10/17/2022 11:15:00 PM 12.75 54.95 0.444 8.02 1.26 9.25
10/17/2022 11:30:00 PM 12.72 54.896 0.444 8.02 1.27 9.24
10/17/2022 11:45:00 PM 12.68 54.824 0.445 8.01 1.13 9.24
10/18/2022 12:00:00 AM 12.64 54.752 0.445 8.01 1.36 9.25
10/18/2022 12:15:00 AM 12.59 54.662 0.445 8.01 1.12 9.26
10/18/2022 12:30:00 AM 12.51 54.518 0.445 8.01 1.27 9.25
10/18/2022 12:45:00 AM 12.48 54.464 0.445 8.01 0.87 9.24
10/18/2022 1:00:00 AM 12.43 54.374 0.445 8 1.5 9.2
10/18/2022 1:15:00 AM 12.37 54.266 0.445 8 1.05 9.25
10/18/2022 1:30:00 AM 12.32 54.176 0.445 8 0.85 9.28
10/18/2022 1:45:00 AM 12.29 54.122 0.445 8 1.27 9.27
10/18/2022 2:00:00 AM 12.24 54.032 0.445 8 1.04 9.28
10/18/2022 2:15:00 AM 12.21 53.978 0.445 8 1 9.26
10/18/2022 2:30:00 AM 12.18 53.924 0.445 8 1.04 9.29
10/18/2022 2:45:00 AM 12.13 53.834 0.445 8 0.93 9.29
10/18/2022 3:00:00 AM 12.08 53.744 0.445 8 1.36 9.28
10/18/2022 3:15:00 AM 12.04 53.672 0.445 8 1.35 9.26
10/18/2022 3:30:00 AM 12.02 53.636 0.445 7.99 1.18 9.27
10/18/2022 3:45:00 AM 12 53.6 0.444 7.99 2.15 9.28
10/18/2022 4:00:00 AM 11.98 53.564 0.445 7.99 1.91 9.31
10/18/2022 4:15:00 AM 11.95 53.51 0.445 7.98 11.6 9.24
10/18/2022 4:30:00 AM 11.91 53.438 0.445 7.98 5.67 9.24
10/18/2022 4:45:00 AM 11.87 53.366 0.445 7.98 1.75 9.27
10/18/2022 5:00:00 AM 11.82 53.276 0.445 7.98 1.52 9.27
10/18/2022 5:15:00 AM 11.77 53.186 0.445 7.98 1.59 9.27
10/18/2022 5:30:00 AM 11.74 53.132 0.445 7.98 1.09 9.28
10/18/2022 5:45:00 AM 11.67 53.006 0.445 7.98 1.1 9.26
10/18/2022 6:00:00 AM 11.63 52.934 0.445 7.98 1.16 9.33
10/18/2022 6:15:00 AM 11.59 52.862 0.445 7.98 1.32 9.33
10/18/2022 6:30:00 AM 11.54 52.772 0.445 7.98 1.1 9.32
10/18/2022 6:45:00 AM 11.48 52.664 0.445 7.98 0.89 9.33
10/18/2022 7:00:00 AM 11.42 52.556 0.446 7.98 1.44 9.37
10/18/2022 7:15:00 AM 11.38 52.484 0.446 7.98 1.17 9.36
10/18/2022 7:30:00 AM 11.33 52.394 0.445 7.99 1.11 9.39
10/18/2022 7:45:00 AM 11.28 52.304 0.446 7.99 1.3 9.42
10/18/2022 8:00:00 AM 11.24 52.232 0.446 7.99 1.49 9.47
10/18/2022 8:15:00 AM 11.22 52.196 0.446 7.99 0.88 9.56
10/18/2022 8:30:00 AM 11.21 52.178 0.446 8 1.29 9.6
10/18/2022 8:45:00 AM 11.23 52.214 0.446 8 1.22 9.67
10/18/2022 9:00:00 AM 11.24 52.232 0.446 8 1.05 9.74
10/18/2022 9:15:00 AM 11.26 52.268 0.446 8.01 0.74 9.9
10/18/2022 9:30:00 AM 11.28 52.304 0.446 8.02 1.18 10.01
10/18/2022 9:45:00 AM 11.32 52.376 0.446 8.02 0.98 10.14
10/18/2022 10:00:00 AM 11.35 52.43 0.446 8.03 0.75 10.29
10/18/2022 10:15:00 AM 11.36 52.448 0.446 8.04 0.75 10.45
10/18/2022 10:30:00 AM 11.4 52.52 0.446 8.05 0.92 10.56
10/18/2022 10:45:00 AM 11.46 52.628 0.445 8.07 0.79 10.75
10/18/2022 11:00:00 AM 11.52 52.736 0.445 8.07 1.37 10.91
10/18/2022 11:15:00 AM 11.62 52.916 0.445 8.1 0.75 11.13
10/18/2022 11:30:00 AM 11.73 53.114 0.445 8.11 0.82 11.35
10/18/2022 11:45:00 AM 11.88 53.384 0.444 8.13 0.73 11.64
10/18/2022 12:00:00 PM 12.09 53.762 0.443 8.15 0.88 11.99
10/18/2022 12:15:00 PM 12.27 54.086 0.443 8.18 1 12.34
10/18/2022 12:30:00 PM 12.47 54.446 0.442 8.21 3.83 12.61
10/18/2022 12:45:00 PM 12.62 54.716 0.442 8.23 0.93 12.93
10/18/2022 1:00:00 PM 12.97 55.346 0.441 8.26 0.79 13.21
10/18/2022 1:15:00 PM 13.34 56.012 0.44 8.27 5.72 13.43
10/18/2022 1:30:00 PM 13.39 56.102 0.44 8.3 0.88 13.65
10/18/2022 1:45:00 PM 13.43 56.174 0.44 8.32 0.68 13.79
10/18/2022 2:00:00 PM 13.53 56.354 0.44 8.33 0.85 13.94
10/18/2022 2:15:00 PM 13.53 56.354 0.439 8.35 0.83 13.99
10/18/2022 2:30:00 PM 13.44 56.192 0.439 8.37 1.04 14.03
10/18/2022 2:45:00 PM 13.37 56.066 0.439 8.37 0.95 13.92
10/18/2022 3:00:00 PM 13.31 55.958 0.439 8.38 0.88 13.89
10/18/2022 3:15:00 PM 13.26 55.868 0.439 8.38 1.48 13.8
10/18/2022 3:30:00 PM 13.21 55.778 0.439 8.38 0.59 13.74
10/18/2022 3:45:00 PM 13.14 55.652 0.439 8.38 0.72 13.67
10/18/2022 4:00:00 PM 13.14 55.652 0.44 8.38 0.73 13.62
10/18/2022 4:15:00 PM 13.07 55.526 0.44 8.38 0.83 13.6
10/18/2022 4:30:00 PM 12.99 55.382 0.44 8.38 0.61 13.48
10/18/2022 4:45:00 PM 12.9 55.22 0.441 8.37 0.75 13.31
10/18/2022 5:00:00 PM 12.79 55.022 0.441 8.36 0.84 13.02
10/18/2022 5:15:00 PM 12.72 54.896 0.442 8.35 0.81 12.91
10/18/2022 5:30:00 PM 12.64 54.752 0.442 8.34 0.51 12.76
10/18/2022 5:45:00 PM 12.55 54.59 0.442 8.33 0.59 12.56
10/18/2022 6:00:00 PM 12.45 54.41 0.443 8.32 0.66 12.32
10/18/2022 6:15:00 PM 12.38 54.284 0.444 8.31 0.67 12.06
10/18/2022 6:30:00 PM 12.3 54.14 0.444 8.3 0.65 11.82
10/18/2022 6:45:00 PM 12.24 54.032 0.445 8.28 0.98 11.57
10/18/2022 7:00:00 PM 12.17 53.906 0.446 8.26 1.07 11.31
10/18/2022 7:15:00 PM 12.11 53.798 0.446 8.24 1.6 11.06
10/18/2022 7:30:00 PM 12.05 53.69 0.447 8.22 0.98 10.86
10/18/2022 7:45:00 PM 11.98 53.564 0.447 8.2 0.87 10.66
10/18/2022 8:00:00 PM 11.93 53.474 0.448 8.18 0.83 10.49
10/18/2022 8:15:00 PM 11.88 53.384 0.448 8.16 0.85 10.31
10/18/2022 8:30:00 PM 11.85 53.33 0.448 8.15 0.97 10.19
10/18/2022 8:45:00 PM 11.81 53.258 0.448 8.14 0.59 10.08
10/18/2022 9:00:00 PM 11.77 53.186 0.449 8.13 0.66 10.01
10/18/2022 9:15:00 PM 11.72 53.096 0.449 8.12 1.13 9.94
10/18/2022 9:30:00 PM 11.67 53.006 0.449 8.11 0.58 9.88
10/18/2022 9:45:00 PM 11.65 52.97 0.449 8.11 0.76 9.85
10/18/2022 10:00:00 PM 11.62 52.916 0.449 8.1 1.1 9.82
10/18/2022 10:15:00 PM 11.59 52.862 0.45 8.1 0.76 9.8
10/18/2022 10:30:00 PM 11.53 52.754 0.45 8.09 0.82 9.76
10/18/2022 10:45:00 PM 11.48 52.664 0.45 8.09 0.95 9.78
10/18/2022 11:00:00 PM 11.43 52.574 0.45 8.09 0.73 9.74
10/18/2022 11:15:00 PM 11.38 52.484 0.45 8.08 0.82 9.73
10/18/2022 11:30:00 PM 11.34 52.412 0.45 8.08 0.76 9.73
10/18/2022 11:45:00 PM 11.29 52.322 0.451 8.08 0.93 9.73
10/19/2022 12:00:00 AM 11.21 52.178 0.451 8.08 1.36 9.71
10/19/2022 12:15:00 AM 11.16 52.088 0.451 8.08 0.67 9.73
10/19/2022 12:30:00 AM 11.1 51.98 0.451 8.08 0.65 9.75
10/19/2022 12:45:00 AM 11.05 51.89 0.451 8.08 0.63 9.74
10/19/2022 1:00:00 AM 11 51.8 0.451 8.08 0.89 9.74
10/19/2022 1:15:00 AM 10.95 51.71 0.451 8.08 0.88 9.72
10/19/2022 1:30:00 AM 10.9 51.62 0.451 8.07 0.95 9.73
10/19/2022 1:45:00 AM 10.88 51.584 0.451 8.07 0.8 9.73
10/19/2022 2:00:00 AM 10.87 51.566 0.452 8.07 0.7 9.72
10/19/2022 2:15:00 AM 10.85 51.53 0.452 8.07 0.99 9.74
10/19/2022 2:30:00 AM 10.83 51.494 0.452 8.06 0.57 9.73
10/19/2022 2:45:00 AM 10.82 51.476 0.452 8.06 0.74 9.71
10/19/2022 3:00:00 AM 10.81 51.458 0.452 8.06 0.96 9.72
10/19/2022 3:15:00 AM 10.82 51.476 0.452 8.05 0.65 9.72
10/19/2022 3:30:00 AM 10.81 51.458 0.452 8.05 0.86 9.75
10/19/2022 3:45:00 AM 10.8 51.44 0.452 8.05 0.92 9.75
10/19/2022 4:00:00 AM 10.79 51.422 0.452 8.05 0.71 9.73
10/19/2022 4:15:00 AM 10.81 51.458 0.452 8.04 2.64 9.71
10/19/2022 4:30:00 AM 10.8 51.44 0.453 8.03 1.4 9.7
10/19/2022 4:45:00 AM 10.8 51.44 0.453 8.03 1.24 9.7
10/19/2022 5:00:00 AM 10.79 51.422 0.453 8.03 1.63 9.71
10/19/2022 5:15:00 AM 10.78 51.404 0.453 8.03 1.25 9.69
10/19/2022 5:30:00 AM 10.78 51.404 0.453 8.02 1.52 9.7
10/19/2022 5:45:00 AM 10.77 51.386 0.453 8.02 3.09 9.68
10/19/2022 6:00:00 AM 10.74 51.332 0.453 8.02 0.98 9.7
10/19/2022 6:15:00 AM 10.73 51.314 0.453 8.02 1.63 9.67
10/19/2022 6:30:00 AM 10.72 51.296 0.453 8.02 1.15 9.69
10/19/2022 6:45:00 AM 10.69 51.242 0.453 8.01 0.9 9.7
10/19/2022 7:00:00 AM 10.66 51.188 0.453 8.01 1.18 9.68
10/19/2022 7:15:00 AM 10.64 51.152 0.453 8.01 0.96 9.69
10/19/2022 7:30:00 AM 10.63 51.134 0.453 8 1.04 9.69
10/19/2022 7:45:00 AM 10.61 51.098 0.453 8.01 1.02 9.72
10/19/2022 8:00:00 AM 10.6 51.08 0.453 8.01 0.95 9.73
10/19/2022 8:15:00 AM 10.59 51.062 0.453 8.01 0.86 9.78
10/19/2022 8:30:00 AM 10.56 51.008 0.453 8.01 0.85 9.84
10/19/2022 8:45:00 AM 10.58 51.044 0.453 8.02 0.77 9.92
10/19/2022 9:00:00 AM 10.59 51.062 0.453 8.02 0.95 10.05
10/19/2022 9:15:00 AM 10.65 51.17 0.452 8.03 0.71 10.29
10/19/2022 9:30:00 AM 10.69 51.242 0.452 8.05 0.59 10.51
10/19/2022 9:45:00 AM 10.7 51.26 0.452 8.06 0.89 10.74
10/19/2022 10:00:00 AM 10.72 51.296 0.451 8.08 0.53 10.97
10/19/2022 10:15:00 AM 10.77 51.386 0.451 8.09 0.5 11.23
10/19/2022 10:30:00 AM 10.88 51.584 0.45 8.11 0.6 11.51
10/19/2022 10:45:00 AM 10.97 51.746 0.45 8.13 0.72 11.8
10/19/2022 11:00:00 AM 10.95 51.71 0.45 8.15 0.64 12.06
10/19/2022 11:15:00 AM 10.93 51.674 0.449 8.17 0.65 12.19
10/19/2022 11:30:00 AM 10.94 51.692 0.449 8.19 0.49 12.41
10/19/2022 11:45:00 AM 11.01 51.818 0.448 8.21 0.59 12.65
10/19/2022 12:00:00 PM 11.19 52.142 0.447 8.22 0.52 12.8
10/19/2022 12:15:00 PM 11.33 52.394 0.448 8.23 0.6 12.98
10/19/2022 12:30:00 PM 11.39 52.502 0.447 8.25 0.8 13.22
10/19/2022 12:45:00 PM 11.49 52.682 0.447 8.26 0.56 13.32
10/19/2022 1:00:00 PM 11.6 52.88 0.446 8.28 0.46 13.48
10/19/2022 1:15:00 PM 11.63 52.934 0.446 8.29 0.64 13.64
10/19/2022 1:30:00 PM 11.59 52.862 0.446 8.3 0.52 13.63
10/19/2022 1:45:00 PM 11.59 52.862 0.446 8.3 0.61 13.67
10/19/2022 2:00:00 PM 11.6 52.88 0.445 8.31 0.61 13.7
10/19/2022 2:15:00 PM 11.6 52.88 0.445 8.32 0.77 13.73
10/19/2022 2:30:00 PM 11.59 52.862 0.445 8.32 0.56 13.78
10/19/2022 2:45:00 PM 11.61 52.898 0.445 8.32 0.74 13.76
10/19/2022 3:00:00 PM 11.69 53.042 0.444 8.32 0.42 13.84
10/19/2022 3:15:00 PM 11.73 53.114 0.444 8.32 0.9 13.93
10/19/2022 3:30:00 PM 11.99 53.582 0.444 8.31 1.86 13.93
10/19/2022 3:45:00 PM 12.09 53.762 0.444 8.31 0.96 14.02
10/19/2022 4:00:00 PM 12.12 53.816 0.444 8.3 0.52 13.95
10/19/2022 4:15:00 PM 11.98 53.564 0.444 8.31 0.47 13.88
10/19/2022 4:30:00 PM 11.9 53.42 0.444 8.32 0.42 13.8
10/19/2022 4:45:00 PM 11.87 53.366 0.444 8.32 0.84 13.73
10/19/2022 5:00:00 PM 11.76 53.168 0.444 8.33 0.63 13.71
10/19/2022 5:15:00 PM 11.6 52.88 0.444 8.33 0.79 13.56
10/19/2022 5:30:00 PM 11.51 52.718 0.444 8.33 0.55 13.33
10/19/2022 5:45:00 PM 11.44 52.592 0.445 8.33 0.53 13.13
10/19/2022 6:00:00 PM 11.36 52.448 0.445 8.32 0.79 12.85
10/19/2022 6:15:00 PM 11.26 52.268 0.445 8.3 0.54 12.6
10/19/2022 6:30:00 PM 11.15 52.07 0.446 8.28 0.64 12.32
10/19/2022 6:45:00 PM 11.06 51.908 0.446 8.27 0.85 12.07
10/19/2022 7:00:00 PM 10.98 51.764 0.447 8.25 0.71 11.79
10/19/2022 7:15:00 PM 10.89 51.602 0.447 8.24 0.86 11.55
10/19/2022 7:30:00 PM 10.82 51.476 0.447 8.22 0.6 11.32
10/19/2022 7:45:00 PM 10.75 51.35 0.448 8.2 1.13 11.15
10/19/2022 8:00:00 PM 10.68 51.224 0.448 8.19 0.92 10.98
10/19/2022 8:15:00 PM 10.63 51.134 0.448 8.18 0.58 10.85
10/19/2022 8:30:00 PM 10.58 51.044 0.449 8.16 1.37 10.71
10/19/2022 8:45:00 PM 10.54 50.972 0.449 8.15 0.35 10.61
10/19/2022 9:00:00 PM 10.5 50.9 0.449 8.15 0.82 10.52
10/19/2022 9:15:00 PM 10.45 50.81 0.449 8.14 0.46 10.43
10/19/2022 9:30:00 PM 10.42 50.756 0.449 8.13 0.47 10.35
10/19/2022 9:45:00 PM 10.39 50.702 0.449 8.13 0.57 10.35
10/19/2022 10:00:00 PM 10.35 50.63 0.449 8.12 0.45 10.3
10/19/2022 10:15:00 PM 10.34 50.612 0.449 8.12 0.31 10.28
10/19/2022 10:30:00 PM 10.33 50.594 0.449 8.12 0.52 10.29
10/19/2022 10:45:00 PM 10.32 50.576 0.449 8.11 0.43 10.27
10/19/2022 11:00:00 PM 10.32 50.576 0.449 8.11 0.44 10.23
10/19/2022 11:15:00 PM 10.32 50.576 0.449 8.11 0.42 10.23
10/19/2022 11:30:00 PM 10.31 50.558 0.449 8.11 1.72 10.2
10/19/2022 11:45:00 PM 10.31 50.558 0.449 8.1 0.57 10.17
10/20/2022 12:00:00 AM 10.31 50.558 0.449 8.1 0.72 10.16
10/20/2022 12:15:00 AM 10.3 50.54 0.449 8.09 0.6 10.18
10/20/2022 12:30:00 AM 10.29 50.522 0.449 8.09 0.49 10.2
10/20/2022 12:45:00 AM 10.24 50.432 0.45 8.09 1.08 10.16
10/20/2022 1:00:00 AM 10.18 50.324 0.45 8.09 0.54 10.2
10/20/2022 1:15:00 AM 10.14 50.252 0.45 8.09 0.5 10.18
10/20/2022 1:30:00 AM 10.08 50.144 0.45 8.09 0.77 10.19
10/20/2022 1:45:00 AM 10.03 50.054 0.45 8.09 0.48 10.19
10/20/2022 2:00:00 AM 9.99 49.982 0.45 8.09 0.63 10.21
10/20/2022 2:15:00 AM 9.93 49.874 0.45 8.09 0.63 10.2
10/20/2022 2:30:00 AM 9.88 49.784 0.451 8.09 0.66 10.21
10/20/2022 2:45:00 AM 9.81 49.658 0.451 8.09 1.13 10.2
10/20/2022 3:00:00 AM 9.76 49.568 0.451 8.09 0.61 10.21
10/20/2022 3:15:00 AM 9.7 49.46 0.451 8.09 0.54 10.19
10/20/2022 3:30:00 AM 9.64 49.352 0.451 8.09 0.57 10.21
10/20/2022 3:45:00 AM 9.58 49.244 0.451 8.09 0.83 10.22
10/20/2022 4:00:00 AM 9.53 49.154 0.451 8.08 0.86 10.21
10/20/2022 4:15:00 AM 9.48 49.064 0.452 8.08 0.81 10.2
10/20/2022 4:30:00 AM 9.43 48.974 0.452 8.08 0.82 10.21
10/20/2022 4:45:00 AM 9.38 48.884 0.452 8.08 0.81 10.22
10/20/2022 5:00:00 AM 9.34 48.812 0.452 8.07 6.55 10.23
10/20/2022 5:15:00 AM 9.3 48.74 0.452 8.06 21.22 10.18
10/20/2022 5:30:00 AM 9.26 48.668 0.452 8.07 2.54 10.26
10/20/2022 5:45:00 AM 9.22 48.596 0.453 8.07 1.21 10.25
10/20/2022 6:00:00 AM 9.2 48.56 0.453 8.07 1.2 10.24
10/20/2022 6:15:00 AM 9.17 48.506 0.453 8.07 0.92 10.27
10/20/2022 6:30:00 AM 9.14 48.452 0.453 8.06 0.63 10.25
10/20/2022 6:45:00 AM 9.11 48.398 0.453 8.06 0.53 10.26
10/20/2022 7:00:00 AM 9.1 48.38 0.453 8.06 1.05 10.29
10/20/2022 7:15:00 AM 9.04 48.272 0.454 8.06 0.68 10.29
10/20/2022 7:30:00 AM 9.02 48.236 0.454 8.06 0.82 10.3
10/20/2022 7:45:00 AM 9 48.2 0.453 8.06 0.88 10.37
10/20/2022 8:00:00 AM 9 48.2 0.454 8.06 0.63 10.46
10/20/2022 8:15:00 AM 9.05 48.29 0.453 8.07 0.57 10.6
10/20/2022 8:30:00 AM 9.11 48.398 0.453 8.08 0.54 10.78
10/20/2022 8:45:00 AM 9.21 48.578 0.453 8.08 0.46 10.95
10/20/2022 9:00:00 AM 9.3 48.74 0.453 8.09 0.62 11.15
10/20/2022 9:15:00 AM 9.4 48.92 0.453 8.1 0.48 11.37
10/20/2022 9:30:00 AM 9.49 49.082 0.453 8.11 0.55 11.56
10/20/2022 9:45:00 AM 9.57 49.226 0.452 8.12 0.49 11.87
10/20/2022 10:00:00 AM 9.66 49.388 0.452 8.13 0.48 12.05
10/20/2022 10:15:00 AM 9.73 49.514 0.452 8.14 0.42 12.25
10/20/2022 10:30:00 AM 9.79 49.622 0.452 8.15 0.54 12.44
10/20/2022 10:45:00 AM 9.84 49.712 0.452 8.16 0.45 12.6
10/20/2022 11:00:00 AM 9.88 49.784 0.452 8.17 0.48 12.74
10/20/2022 11:15:00 AM 9.93 49.874 0.451 8.18 0.53 12.86
10/20/2022 11:30:00 AM 10 50 0.451 8.2 0.4 12.94
10/20/2022 11:45:00 AM 10.12 50.216 0.451 8.2 0.37 13.07
10/20/2022 12:00:00 PM 10.32 50.576 0.451 8.21 1.31 13.2
10/20/2022 12:15:00 PM 10.5 50.9 0.451 8.22 0.67 13.33
10/20/2022 12:30:00 PM 10.78 51.404 0.45 8.23 0.51 13.44
10/20/2022 12:45:00 PM 11.04 51.872 0.45 8.24 0.38 13.6
10/20/2022 1:00:00 PM 11.35 52.43 0.45 8.25 0.46 13.81
10/20/2022 1:15:00 PM 11.65 52.97 0.45 8.25 0.75 13.99
10/20/2022 1:30:00 PM 11.98 53.564 0.449 8.26 0.61 14.09
10/20/2022 1:45:00 PM 12.29 54.122 0.449 8.26 0.45 14.23
10/20/2022 2:00:00 PM 12.54 54.572 0.449 8.26 0.58 14.41
10/20/2022 2:15:00 PM 12.8 55.04 0.448 8.27 0.69 14.41
10/20/2022 2:30:00 PM 13.01 55.418 0.448 8.27 0.89 14.45
10/20/2022 2:45:00 PM 13.17 55.706 0.448 8.27 0.79 14.54
10/20/2022 3:00:00 PM 13.32 55.976 0.448 8.27 0.56 14.5
10/20/2022 3:15:00 PM 13.41 56.138 0.448 8.27 1.79 14.5
10/20/2022 3:30:00 PM 13.45 56.21 0.448 8.27 2.14 14.42
10/20/2022 3:45:00 PM 13.46 56.228 0.448 8.28 1.39 14.47
10/20/2022 4:00:00 PM 13.41 56.138 0.448 8.27 4.22 14.4
10/20/2022 4:15:00 PM 13.33 55.994 0.448 8.27 1 14.41
10/20/2022 4:30:00 PM 13.24 55.832 0.448 8.27 1.31 14.4
10/20/2022 4:45:00 PM 13 55.4 0.449 8.27 0.84 14.18
10/20/2022 5:00:00 PM 12.63 54.734 0.449 8.28 0.76 13.92
10/20/2022 5:15:00 PM 12.35 54.23 0.449 8.28 0.75 13.75
10/20/2022 5:30:00 PM 12.11 53.798 0.449 8.28 0.46 13.54
10/20/2022 5:45:00 PM 11.86 53.348 0.45 8.26 0.89 13.28
10/20/2022 6:00:00 PM 11.65 52.97 0.45 8.26 0.47 13.06
10/20/2022 6:15:00 PM 11.48 52.664 0.45 8.26 0.71 12.76
10/20/2022 6:30:00 PM 11.28 52.304 0.45 8.26 0.47 12.52
10/20/2022 6:45:00 PM 11.15 52.07 0.451 8.26 0.58 12.3
10/20/2022 7:00:00 PM 10.97 51.746 0.451 8.25 0.47 12.06
10/20/2022 7:15:00 PM 10.83 51.494 0.452 8.24 0.5 11.82
10/20/2022 7:30:00 PM 10.68 51.224 0.452 8.23 0.6 11.59
10/20/2022 7:45:00 PM 10.56 51.008 0.453 8.22 0.59 11.43
10/20/2022 8:00:00 PM 10.45 50.81 0.453 8.22 0.54 11.26
10/20/2022 8:15:00 PM 10.36 50.648 0.453 8.21 0.38 11.1
10/20/2022 8:30:00 PM 10.27 50.486 0.453 8.2 0.45 10.98
10/20/2022 8:45:00 PM 10.18 50.324 0.453 8.19 0.6 10.82
10/20/2022 9:00:00 PM 10.1 50.18 0.454 8.18 0.6 10.76
10/20/2022 9:15:00 PM 10.03 50.054 0.454 8.17 0.44 10.69
10/20/2022 9:30:00 PM 9.97 49.946 0.454 8.17 0.89 10.65
10/20/2022 9:45:00 PM 9.94 49.892 0.454 8.16 0.84 10.52
10/20/2022 10:00:00 PM 9.92 49.856 0.454 8.16 0.7 10.52
10/20/2022 10:15:00 PM 9.88 49.784 0.454 8.15 0.42 10.53
10/20/2022 10:30:00 PM 9.86 49.748 0.454 8.15 0.44 10.51
10/20/2022 10:45:00 PM 9.86 49.748 0.454 8.15 0.65 10.48
10/20/2022 11:00:00 PM 9.85 49.73 0.454 8.14 0.65 10.44
10/20/2022 11:15:00 PM 9.85 49.73 0.454 8.14 0.45 10.47
10/20/2022 11:30:00 PM 9.85 49.73 0.454 8.14 0.63 10.47
10/20/2022 11:45:00 PM 9.84 49.712 0.454 8.13 0.52 10.46
10/21/2022 12:00:00 AM 9.81 49.658 0.455 8.13 0.48 10.44
10/21/2022 12:15:00 AM 9.78 49.604 0.455 8.13 0.46 10.46
10/21/2022 12:30:00 AM 9.74 49.532 0.455 8.13 0.52 10.43
10/21/2022 12:45:00 AM 9.71 49.478 0.455 8.13 0.4 10.45
10/21/2022 1:00:00 AM 9.67 49.406 0.455 8.12 0.54 10.41
10/21/2022 1:15:00 AM 9.63 49.334 0.455 8.12 0.47 10.4
10/21/2022 1:30:00 AM 9.6 49.28 0.455 8.12 0.45 10.41
10/21/2022 1:45:00 AM 9.55 49.19 0.455 8.12 0.64 10.37
10/21/2022 2:00:00 AM 9.51 49.118 0.455 8.12 0.59 10.41
10/21/2022 2:15:00 AM 9.46 49.028 0.456 8.12 0.48 10.42
10/21/2022 2:30:00 AM 9.41 48.938 0.456 8.12 0.58 10.42
10/21/2022 2:45:00 AM 9.36 48.848 0.456 8.12 0.48 10.4
10/21/2022 3:00:00 AM 9.31 48.758 0.456 8.12 0.76 10.44
10/21/2022 3:15:00 AM 9.27 48.686 0.456 8.12 0.38 10.43
10/21/2022 3:30:00 AM 9.22 48.596 0.456 8.12 0.86 10.44
10/21/2022 3:45:00 AM 9.18 48.524 0.456 8.12 0.74 10.45
10/21/2022 4:00:00 AM 9.14 48.452 0.456 8.12 0.56 10.45
10/21/2022 4:15:00 AM 9.1 48.38 0.456 8.11 0.54 10.44
10/21/2022 4:30:00 AM 9.05 48.29 0.456 8.11 0.65 10.46
10/21/2022 4:45:00 AM 9.03 48.254 0.456 8.11 0.6 10.48
10/21/2022 5:00:00 AM 8.99 48.182 0.456 8.11 0.5 10.47
10/21/2022 5:15:00 AM 8.95 48.11 0.456 8.11 0.55 10.47
10/21/2022 5:30:00 AM 8.91 48.038 0.456 8.11 0.64 10.47
10/21/2022 5:45:00 AM 8.88 47.984 0.457 8.1 0.51 10.49
10/21/2022 6:00:00 AM 8.85 47.93 0.457 8.1 0.75 10.48
10/21/2022 6:15:00 AM 8.81 47.858 0.457 8.1 1.04 10.48
10/21/2022 6:30:00 AM 8.78 47.804 0.457 8.1 1.05 10.48
10/21/2022 6:45:00 AM 8.74 47.732 0.457 8.1 1 10.47
10/21/2022 7:00:00 AM 8.71 47.678 0.457 8.09 0.5 10.48
10/21/2022 7:15:00 AM 8.69 47.642 0.457 8.09 1.33 10.49
10/21/2022 7:30:00 AM 8.65 47.57 0.457 8.09 0.81 10.47
10/21/2022 7:45:00 AM 8.61 47.498 0.457 8.09 0.75 10.53
10/21/2022 8:00:00 AM 8.61 47.498 0.457 8.09 2.14 10.6
10/21/2022 8:15:00 AM 8.59 47.462 0.457 8.1 0.39 10.66
10/21/2022 8:30:00 AM 8.59 47.462 0.457 8.1 0.36 10.77
10/21/2022 8:45:00 AM 8.61 47.498 0.457 8.1 0.78 10.86
10/21/2022 9:00:00 AM 8.65 47.57 0.457 8.11 0.56 10.98
10/21/2022 9:15:00 AM 8.69 47.642 0.457 8.11 0.45 11.1
10/21/2022 9:30:00 AM 8.77 47.786 0.457 8.12 0.44 11.23
10/21/2022 9:45:00 AM 8.82 47.876 0.457 8.12 1.16 11.36
10/21/2022 10:00:00 AM 8.89 48.002 0.457 8.13 0.48 11.5
10/21/2022 10:15:00 AM 8.97 48.146 0.457 8.13 0.54 11.64
10/21/2022 10:30:00 AM 9.06 48.308 0.457 8.14 0.41 11.79
10/21/2022 10:45:00 AM 9.14 48.452 0.457 8.14 0.39 11.92
10/21/2022 11:00:00 AM 9.27 48.686 0.457 8.14 0.36 12.09
10/21/2022 11:15:00 AM 9.4 48.92 0.457 8.15 0.34 12.23
10/21/2022 11:30:00 AM 9.54 49.172 0.457 8.16 0.41 12.42
10/21/2022 11:45:00 AM 9.72 49.496 0.457 8.16 0.43 12.56
10/21/2022 12:00:00 PM 9.97 49.946 0.456 8.17 0.4 12.78
10/21/2022 12:15:00 PM 10.2 50.36 0.456 8.18 0.43 12.97
10/21/2022 12:30:00 PM 10.52 50.936 0.456 8.19 0.53 13.24
10/21/2022 12:45:00 PM 10.85 51.53 0.455 8.21 0.78 13.45
10/21/2022 1:00:00 PM 11.21 52.178 0.455 8.21 0.52 13.72
10/21/2022 1:15:00 PM 11.61 52.898 0.454 8.22 0.54 13.87
10/21/2022 1:30:00 PM 11.94 53.492 0.454 8.22 0.85 14.04
10/21/2022 1:45:00 PM 12.29 54.122 0.454 8.23 0.66 14.23
10/21/2022 2:00:00 PM 12.61 54.698 0.454 8.23 0.53 14.42
10/21/2022 2:15:00 PM 12.94 55.292 0.454 8.23 0.58 14.51
10/21/2022 2:30:00 PM 13.19 55.742 0.453 8.23 0.69 14.64
10/21/2022 2:45:00 PM 13.4 56.12 0.453 8.23 0.64 14.86
10/21/2022 3:00:00 PM 13.56 56.408 0.453 8.22 1.21 14.81
10/21/2022 3:15:00 PM 13.71 56.678 0.453 8.22 0.65 14.8
10/21/2022 3:30:00 PM 13.8 56.84 0.453 8.22 0.78 14.83
10/21/2022 3:45:00 PM 13.87 56.966 0.453 8.22 0.64 14.92
10/21/2022 4:00:00 PM 13.82 56.876 0.453 8.22 0.61 14.85
10/21/2022 4:15:00 PM 13.77 56.786 0.453 8.22 0.53 14.85
10/21/2022 4:30:00 PM 13.68 56.624 0.453 8.22 0.78 14.73
10/21/2022 4:45:00 PM 13.39 56.102 0.454 8.21 0.67 14.57
10/21/2022 5:00:00 PM 13.15 55.67 0.454 8.22 0.67 14.33
10/21/2022 5:15:00 PM 12.89 55.202 0.454 8.23 0.62 14.07
10/21/2022 5:30:00 PM 12.68 54.824 0.454 8.23 0.58 13.81
10/21/2022 5:45:00 PM 12.45 54.41 0.455 8.22 0.66 13.5
10/21/2022 6:00:00 PM 12.2 53.96 0.455 8.21 13.84 13.08
10/21/2022 6:15:00 PM 12.04 53.672 0.456 8.22 1.35 12.88
10/21/2022 6:30:00 PM 11.86 53.348 0.456 8.22 0.55 12.61
10/21/2022 6:45:00 PM 11.67 53.006 0.457 8.22 1.51 12.31
10/21/2022 7:00:00 PM 11.5 52.7 0.457 8.22 0.67 12.02
10/21/2022 7:15:00 PM 11.32 52.376 0.458 8.2 0.81 11.75
10/21/2022 7:30:00 PM 11.17 52.106 0.458 8.2 0.83 11.53
10/21/2022 7:45:00 PM 11.04 51.872 0.458 8.19 0.64 11.34
10/21/2022 8:00:00 PM 10.9 51.62 0.459 8.18 0.46 11.17
10/21/2022 8:15:00 PM 10.77 51.386 0.459 8.17 0.51 11.01
10/21/2022 8:30:00 PM 10.66 51.188 0.459 8.16 0.57 10.89
10/21/2022 8:45:00 PM 10.55 50.99 0.459 8.15 0.46 10.79
10/21/2022 9:00:00 PM 10.44 50.792 0.46 8.14 0.42 10.71
10/21/2022 9:15:00 PM 10.35 50.63 0.46 8.14 0.49 10.64
10/21/2022 9:30:00 PM 10.26 50.468 0.46 8.13 0.62 10.57
10/21/2022 9:45:00 PM 10.18 50.324 0.46 8.13 0.67 10.54
10/21/2022 10:00:00 PM 10.11 50.198 0.46 8.13 0.73 10.51
10/21/2022 10:15:00 PM 10.04 50.072 0.46 8.12 0.92 10.48
10/21/2022 10:30:00 PM 9.98 49.964 0.46 8.12 0.29 10.46
10/21/2022 10:45:00 PM 9.92 49.856 0.46 8.12 0.65 10.44
10/21/2022 11:00:00 PM 9.86 49.748 0.461 8.12 0.82 10.45
10/21/2022 11:15:00 PM 9.79 49.622 0.461 8.12 0.87 10.44
10/21/2022 11:30:00 PM 9.74 49.532 0.461 8.12 0.54 10.46
10/21/2022 11:45:00 PM 9.69 49.442 0.461 8.12 0.73 10.44
10/22/2022 12:00:00 AM 9.65 49.37 0.461 8.12 0.64 10.44
10/22/2022 12:15:00 AM 9.59 49.262 0.461 8.11 1.33 10.46
10/22/2022 12:30:00 AM 9.55 49.19 0.461 8.11 3.4 10.4
10/22/2022 12:45:00 AM 9.52 49.136 0.461 8.11 1.62 10.44
10/22/2022 1:00:00 AM 9.47 49.046 0.462 8.11 0.69 10.44
10/22/2022 1:15:00 AM 9.43 48.974 0.462 8.11 0.55 10.44
10/22/2022 1:30:00 AM 9.39 48.902 0.462 8.11 0.67 10.43
10/22/2022 1:45:00 AM 9.38 48.884 0.461 8.11 0.71 10.46
10/22/2022 2:00:00 AM 9.34 48.812 0.462 8.11 3.13 10.44
10/22/2022 2:15:00 AM 9.3 48.74 0.462 8.11 0.56 10.45
10/22/2022 2:30:00 AM 9.28 48.704 0.462 8.11 0.52 10.46
10/22/2022 2:45:00 AM 9.25 48.65 0.462 8.11 0.51 10.47
10/22/2022 3:00:00 AM 9.21 48.578 0.462 8.11 0.43 10.45
10/22/2022 3:15:00 AM 9.19 48.542 0.462 8.11 0.76 10.47
10/22/2022 3:30:00 AM 9.15 48.47 0.462 8.1 0.54 10.42
10/22/2022 3:45:00 AM 9.12 48.416 0.462 8.11 0.58 10.45
10/22/2022 4:00:00 AM 9.11 48.398 0.462 8.1 0.69 10.47
10/22/2022 4:15:00 AM 9.07 48.326 0.462 8.1 0.89 10.49
10/22/2022 4:30:00 AM 9.04 48.272 0.462 8.1 0.36 10.49
10/22/2022 4:45:00 AM 9.01 48.218 0.462 8.1 0.48 10.47
10/22/2022 5:00:00 AM 8.99 48.182 0.462 8.1 0.49 10.47
10/22/2022 5:15:00 AM 8.97 48.146 0.462 8.09 0.46 10.48
10/22/2022 5:30:00 AM 8.93 48.074 0.461 8.09 1.61 10.49
10/22/2022 5:45:00 AM 8.9 48.02 0.462 8.09 0.85 10.47
10/22/2022 6:00:00 AM 8.87 47.966 0.461 8.09 0.51 10.47
10/22/2022 6:15:00 AM 8.84 47.912 0.461 8.09 0.94 10.49
10/22/2022 6:30:00 AM 8.8 47.84 0.462 8.09 0.45 10.49
10/22/2022 6:45:00 AM 8.78 47.804 0.462 8.08 1.92 10.48
10/22/2022 7:00:00 AM 8.74 47.732 0.462 8.08 0.64 10.49
10/22/2022 7:15:00 AM 8.72 47.696 0.462 8.08 0.62 10.47
10/22/2022 7:30:00 AM 8.69 47.642 0.462 8.08 0.62 10.47
10/22/2022 7:45:00 AM 8.67 47.606 0.462 8.08 0.6 10.52
10/22/2022 8:00:00 AM 8.65 47.57 0.462 8.08 0.63 10.56
10/22/2022 8:15:00 AM 8.64 47.552 0.462 8.08 0.57 10.63
10/22/2022 8:30:00 AM 8.63 47.534 0.462 8.08 0.97 10.71
10/22/2022 8:45:00 AM 8.64 47.552 0.462 8.09 0.36 10.81
10/22/2022 9:00:00 AM 8.71 47.678 0.461 8.09 0.81 10.93
10/22/2022 9:15:00 AM 8.76 47.768 0.462 8.1 0.59 11.06
10/22/2022 9:30:00 AM 8.83 47.894 0.461 8.1 0.8 11.18
10/22/2022 9:45:00 AM 8.9 48.02 0.461 8.1 0.32 11.31
10/22/2022 10:00:00 AM 8.99 48.182 0.461 8.11 0.43 11.44
10/22/2022 10:15:00 AM 9.07 48.326 0.461 8.11 0.7 11.57
10/22/2022 10:30:00 AM 9.14 48.452 0.461 8.12 0.42 11.7
10/22/2022 10:45:00 AM 9.24 48.632 0.461 8.12 0.78 11.84
10/22/2022 11:00:00 AM 9.36 48.848 0.461 8.12 0.51 11.98
10/22/2022 11:15:00 AM 9.5 49.1 0.461 8.13 1.04 12.15
10/22/2022 11:30:00 AM 9.66 49.388 0.46 8.13 0.96 12.32
10/22/2022 11:45:00 AM 9.85 49.73 0.46 8.14 1.67 12.47
10/22/2022 12:00:00 PM 10.1 50.18 0.46 8.15 1.32 12.7
10/22/2022 12:15:00 PM 10.39 50.702 0.459 8.15 1.47 12.87
10/22/2022 12:30:00 PM 10.7 51.26 0.459 8.16 3.31 13.06
10/22/2022 12:45:00 PM 11.05 51.89 0.458 8.17 0.74 13.3
10/22/2022 1:00:00 PM 11.44 52.592 0.458 8.18 0.73 13.52
10/22/2022 1:15:00 PM 11.85 53.33 0.457 8.18 3.87 13.75
10/22/2022 1:30:00 PM 12.21 53.978 0.457 8.18 0.44 13.94
10/22/2022 1:45:00 PM 12.58 54.644 0.457 8.19 0.78 14.1
10/22/2022 2:00:00 PM 12.93 55.274 0.457 8.19 0.88 14.3
10/22/2022 2:15:00 PM 13.24 55.832 0.457 8.18 0.87 14.42
10/22/2022 2:30:00 PM 13.51 56.318 0.457 8.17 1.02 14.56
10/22/2022 2:45:00 PM 13.72 56.696 0.457 8.17 0.59 14.62
10/22/2022 3:00:00 PM 13.92 57.056 0.457 8.17 0.64 14.69
10/22/2022 3:15:00 PM 14.11 57.398 0.456 8.17 0.57 14.73
10/22/2022 3:30:00 PM 14.16 57.488 0.457 8.16 0.66 14.78
10/22/2022 3:45:00 PM 14.2 57.56 0.457 8.15 0.74 14.8
10/22/2022 4:00:00 PM 14.22 57.596 0.457 8.14 0.69 14.7
10/22/2022 4:15:00 PM 14.15 57.47 0.457 8.13 0.56 14.65
10/22/2022 4:30:00 PM 13.97 57.146 0.458 8.12 0.43 14.57
10/22/2022 4:45:00 PM 13.73 56.714 0.458 8.11 0.59 14.44
10/22/2022 5:00:00 PM 13.44 56.192 0.458 8.13 0.86 14.19
10/22/2022 5:15:00 PM 13.18 55.724 0.459 8.14 1.07 13.9
10/22/2022 5:30:00 PM 12.95 55.31 0.459 8.14 0.84 13.66
10/22/2022 5:45:00 PM 12.72 54.896 0.459 8.14 0.8 13.37
10/22/2022 6:00:00 PM 12.46 54.428 0.46 8.16 0.6 13.11
10/22/2022 6:15:00 PM 12.22 53.996 0.461 8.17 0.43 12.82
10/22/2022 6:30:00 PM 12.02 53.636 0.461 8.17 0.89 12.53
10/22/2022 6:45:00 PM 11.8 53.24 0.461 8.16 0.93 12.24
10/22/2022 7:00:00 PM 11.62 52.916 0.462 8.16 1.15 11.99
10/22/2022 7:15:00 PM 11.43 52.574 0.462 8.15 0.64 11.73
10/22/2022 7:30:00 PM 11.29 52.322 0.463 8.14 0.41 11.5
10/22/2022 7:45:00 PM 11.16 52.088 0.463 8.13 1.31 11.28
10/22/2022 8:00:00 PM 11.03 51.854 0.464 8.12 0.54 11.12
10/22/2022 8:15:00 PM 10.92 51.656 0.464 8.11 0.46 10.95
10/22/2022 8:30:00 PM 10.81 51.458 0.464 8.1 0.62 10.81
10/22/2022 8:45:00 PM 10.72 51.296 0.465 8.09 0.6 10.68
10/22/2022 9:00:00 PM 10.62 51.116 0.465 8.09 0.5 10.58
10/22/2022 9:15:00 PM 10.52 50.936 0.465 8.08 0.51 10.52
10/22/2022 9:30:00 PM 10.43 50.774 0.465 8.07 0.56 10.48
10/22/2022 9:45:00 PM 10.36 50.648 0.465 8.08 0.38 10.44
10/22/2022 10:00:00 PM 10.27 50.486 0.466 8.07 0.34 10.39
10/22/2022 10:15:00 PM 10.21 50.378 0.466 8.07 0.41 10.38
10/22/2022 10:30:00 PM 10.14 50.252 0.466 8.07 0.74 10.38
10/22/2022 10:45:00 PM 10.09 50.162 0.465 8.07 0.52 10.37
10/22/2022 11:00:00 PM 10.03 50.054 0.466 8.07 0.35 10.32
10/22/2022 11:15:00 PM 9.99 49.982 0.465 8.07 0.39 10.33
10/22/2022 11:30:00 PM 9.94 49.892 0.465 8.07 0.45 10.32
10/22/2022 11:45:00 PM 9.9 49.82 0.466 8.07 0.46 10.34
10/23/2022 12:00:00 AM 9.86 49.748 0.466 8.07 0.4 10.33
10/23/2022 12:15:00 AM 9.82 49.676 0.466 8.07 0.57 10.33
10/23/2022 12:30:00 AM 9.78 49.604 0.466 8.07 0.58 10.31
10/23/2022 12:45:00 AM 9.76 49.568 0.466 8.07 0.57 10.36
10/23/2022 1:00:00 AM 9.71 49.478 0.466 8.07 0.49 10.33
10/23/2022 1:15:00 AM 9.67 49.406 0.466 8.07 0.53 10.35
10/23/2022 1:30:00 AM 9.65 49.37 0.466 8.07 0.5 10.35
10/23/2022 1:45:00 AM 9.62 49.316 0.466 8.07 1.12 10.34
10/23/2022 2:00:00 AM 9.56 49.208 0.466 8.06 1.74 10.33
10/23/2022 2:15:00 AM 9.55 49.19 0.466 8.06 9.2 10.32
10/23/2022 2:30:00 AM 9.53 49.154 0.466 8.06 2.19 10.32
10/23/2022 2:45:00 AM 9.49 49.082 0.467 8.06 1.7 10.34
10/23/2022 3:00:00 AM 9.47 49.046 0.467 8.06 0.75 10.36
10/23/2022 3:15:00 AM 9.42 48.956 0.467 8.06 0.79 10.36
10/23/2022 3:30:00 AM 9.42 48.956 0.467 8.06 0.71 10.36
10/23/2022 3:45:00 AM 9.38 48.884 0.467 8.06 0.55 10.35
10/23/2022 4:00:00 AM 9.37 48.866 0.467 8.06 0.28 10.34
10/23/2022 4:15:00 AM 9.31 48.758 0.467 8.06 0.49 10.36
10/23/2022 4:30:00 AM 9.31 48.758 0.467 8.06 0.4 10.37
10/23/2022 4:45:00 AM 9.26 48.668 0.467 8.06 0.66 10.37
10/23/2022 5:00:00 AM 9.24 48.632 0.467 8.06 1 10.38
10/23/2022 5:15:00 AM 9.22 48.596 0.467 8.06 0.52 10.37
10/23/2022 5:30:00 AM 9.2 48.56 0.467 8.05 1.37 10.36
10/23/2022 5:45:00 AM 9.17 48.506 0.467 8.05 0.98 10.37
10/23/2022 6:00:00 AM 9.15 48.47 0.467 8.05 1.35 10.38
10/23/2022 6:15:00 AM 9.12 48.416 0.467 8.05 0.42 10.36
10/23/2022 6:30:00 AM 9.1 48.38 0.467 8.05 0.31 10.38
10/23/2022 6:45:00 AM 9.08 48.344 0.467 8.05 0.41 10.36
10/23/2022 7:00:00 AM 9.08 48.344 0.467 8.05 0.43 10.37
10/23/2022 7:15:00 AM 9.06 48.308 0.467 8.05 0.76 10.37
10/23/2022 7:30:00 AM 9.04 48.272 0.468 8.05 0.63 10.38
10/23/2022 7:45:00 AM 9.01 48.218 0.467 8.04 1.52 10.41
10/23/2022 8:00:00 AM 9.01 48.218 0.468 8.05 1.93 10.43
10/23/2022 8:15:00 AM 9.01 48.218 0.467 8.05 0.49 10.51
10/23/2022 8:30:00 AM 9.01 48.218 0.468 8.05 0.87 10.61
10/23/2022 8:45:00 AM 9.03 48.254 0.468 8.06 0.92 10.71
10/23/2022 9:00:00 AM 9.08 48.344 0.467 8.06 0.53 10.86
10/23/2022 9:15:00 AM 9.16 48.488 0.467 8.06 0.74 11.01
10/23/2022 9:30:00 AM 9.22 48.596 0.467 8.07 1.83 11.15
10/23/2022 9:45:00 AM 9.33 48.794 0.467 8.07 0.79 11.33
10/23/2022 10:00:00 AM 9.48 49.064 0.467 8.08 1.06 11.52
10/23/2022 10:15:00 AM 9.59 49.262 0.467 8.09 0.95 11.75
10/23/2022 10:30:00 AM 9.75 49.55 0.467 8.1 0.59 12.01
10/23/2022 10:45:00 AM 9.93 49.874 0.466 8.11 0.6 12.28
10/23/2022 11:00:00 AM 10.08 50.144 0.466 8.12 0.85 12.49
10/23/2022 11:15:00 AM 10.26 50.468 0.466 8.13 1 12.67
10/23/2022 11:30:00 AM 10.42 50.756 0.466 8.13 0.71 12.95
10/23/2022 11:45:00 AM 10.62 51.116 0.465 8.15 0.67 13.19
10/23/2022 12:00:00 PM 10.75 51.35 0.465 8.16 0.66 13.39
10/23/2022 12:15:00 PM 10.85 51.53 0.465 8.17 0.73 13.47
10/23/2022 12:30:00 PM 10.95 51.71 0.465 8.18 0.71 13.6
10/23/2022 12:45:00 PM 11.06 51.908 0.465 8.18 0.47 13.72
10/23/2022 1:00:00 PM 11.18 52.124 0.464 8.19 1.13 13.81
10/23/2022 1:15:00 PM 11.32 52.376 0.464 8.2 0.69 13.99
10/23/2022 1:30:00 PM 11.4 52.52 0.465 8.2 1.22 14.04
10/23/2022 1:45:00 PM 11.42 52.556 0.464 8.2 2.07 14.08
10/23/2022 2:00:00 PM 11.5 52.7 0.464 8.2 2.94 14.06
10/23/2022 2:15:00 PM 11.58 52.844 0.464 8.2 1 14.12
10/23/2022 2:30:00 PM 11.67 53.006 0.464 8.21 0.8 14.19
10/23/2022 2:45:00 PM 11.69 53.042 0.465 8.21 6.03 14.23
10/23/2022 3:00:00 PM 11.72 53.096 0.464 8.21 0.6 14.21
10/23/2022 3:15:00 PM 11.77 53.186 0.464 8.21 0.78 14.22
10/23/2022 3:30:00 PM 11.83 53.294 0.465 8.21 0.81 14.28
10/23/2022 3:45:00 PM 11.82 53.276 0.464 8.21 0.81 14.19
10/23/2022 4:00:00 PM 11.77 53.186 0.465 8.21 0.56 14.11
10/23/2022 4:15:00 PM 11.74 53.132 0.465 8.2 0.79 13.96
10/23/2022 4:30:00 PM 11.7 53.06 0.465 8.2 0.79 13.81
10/23/2022 4:45:00 PM 11.69 53.042 0.466 8.19 0.67 13.66
10/23/2022 5:00:00 PM 11.66 52.988 0.466 8.19 0.5 13.56
10/23/2022 5:15:00 PM 11.62 52.916 0.466 8.19 1.01 13.36
10/23/2022 5:30:00 PM 11.58 52.844 0.467 8.18 1.18 13.16
10/23/2022 5:45:00 PM 11.56 52.808 0.467 8.17 0.86 12.91
10/23/2022 6:00:00 PM 11.5 52.7 0.467 8.16 0.77 12.68
10/23/2022 6:15:00 PM 11.46 52.628 0.468 8.15 0.79 12.45
10/23/2022 6:30:00 PM 11.41 52.538 0.468 8.14 1.21 12.17
10/23/2022 6:45:00 PM 11.37 52.466 0.469 8.13 1.18 11.95
10/23/2022 7:00:00 PM 11.33 52.394 0.469 8.11 1.2 11.73
10/23/2022 7:15:00 PM 11.3 52.34 0.47 8.1 1.36 11.52
10/23/2022 7:30:00 PM 11.28 52.304 0.47 8.09 0.93 11.33
10/23/2022 7:45:00 PM 11.24 52.232 0.471 8.07 1.45 11.16
10/23/2022 8:00:00 PM 11.2 52.16 0.471 8.06 0.74 11
10/23/2022 8:15:00 PM 11.18 52.124 0.471 8.05 0.71 10.85
10/23/2022 8:30:00 PM 11.16 52.088 0.472 8.05 0.73 10.72
10/23/2022 8:45:00 PM 11.14 52.052 0.472 8.04 0.58 10.59
10/23/2022 9:00:00 PM 11.12 52.016 0.472 8.03 0.64 10.51
10/23/2022 9:15:00 PM 11.1 51.98 0.472 8.03 0.64 10.42
10/23/2022 9:30:00 PM 11.09 51.962 0.472 8.02 0.66 10.37
10/23/2022 9:45:00 PM 11.07 51.926 0.472 8.02 0.55 10.32
10/23/2022 10:00:00 PM 11.06 51.908 0.472 8.01 0.4 10.27
10/23/2022 10:15:00 PM 11.05 51.89 0.472 8.01 0.98 10.24
10/23/2022 10:30:00 PM 11.04 51.872 0.472 8.01 0.63 10.2
10/23/2022 10:45:00 PM 11.04 51.872 0.472 8.01 0.56 10.18
10/23/2022 11:00:00 PM 11.03 51.854 0.472 8 0.82 10.16
10/23/2022 11:15:00 PM 11.02 51.836 0.472 8 1.3 10.12
10/23/2022 11:30:00 PM 11.02 51.836 0.472 8 0.53 10.14
10/23/2022 11:45:00 PM 11.02 51.836 0.473 8 0.64 10.1
10/24/2022 12:00:00 AM 11.02 51.836 0.473 8 0.43 10.11
10/24/2022 12:15:00 AM 11.01 51.818 0.473 8 1.47 10.11
10/24/2022 12:30:00 AM 11.01 51.818 0.473 7.99 0.61 10.09
10/24/2022 12:45:00 AM 11.01 51.818 0.473 7.99 0.46 10.1
10/24/2022 1:00:00 AM 11.01 51.818 0.473 7.99 0.42 10.07
10/24/2022 1:15:00 AM 11.01 51.818 0.473 7.99 0.82 10.07
10/24/2022 1:30:00 AM 11.02 51.836 0.473 7.99 0.47 10.06
10/24/2022 1:45:00 AM 11.02 51.836 0.472 7.99 0.34 10.08
10/24/2022 2:00:00 AM 11.02 51.836 0.472 7.99 0.52 10.08
10/24/2022 2:15:00 AM 11.03 51.854 0.473 7.99 0.8 10.05
10/24/2022 2:30:00 AM 11.02 51.836 0.473 7.99 0.5 10.04
10/24/2022 2:45:00 AM 11.02 51.836 0.473 7.98 0.59 10.03
10/24/2022 3:00:00 AM 11.02 51.836 0.473 7.98 0.49 10.03
10/24/2022 3:15:00 AM 11.02 51.836 0.473 7.99 0.86 10.03
10/24/2022 3:30:00 AM 11.02 51.836 0.473 7.98 1.04 10.02
10/24/2022 3:45:00 AM 11.01 51.818 0.474 7.98 0.83 10.04
10/24/2022 4:00:00 AM 11.01 51.818 0.474 7.98 0.4 10.01
10/24/2022 4:15:00 AM 11.01 51.818 0.474 7.98 0.53 10.02
10/24/2022 4:30:00 AM 11 51.8 0.474 7.98 0.62 10.01
10/24/2022 4:45:00 AM 11 51.8 0.475 7.98 0.78 10
10/24/2022 5:00:00 AM 11 51.8 0.475 7.98 0.83 9.99
10/24/2022 5:15:00 AM 11 51.8 0.475 7.97 0.54 9.98
10/24/2022 5:30:00 AM 11.01 51.818 0.475 7.98 0.47 9.98
10/24/2022 5:45:00 AM 11 51.8 0.476 7.97 0.86 10
10/24/2022 6:00:00 AM 11 51.8 0.476 7.97 0.56 9.97
10/24/2022 6:15:00 AM 11 51.8 0.476 7.97 0.55 9.94
10/24/2022 6:30:00 AM 11 51.8 0.476 7.97 1.04 9.95
10/24/2022 6:45:00 AM 10.99 51.782 0.477 7.97 0.63 9.96
10/24/2022 7:00:00 AM 10.99 51.782 0.476 7.96 0.61 9.95
10/24/2022 7:15:00 AM 10.99 51.782 0.477 7.97 0.86 9.93
10/24/2022 7:30:00 AM 10.99 51.782 0.477 7.96 0.68 9.93
10/24/2022 7:45:00 AM 10.98 51.764 0.477 7.96 0.68 9.95
10/24/2022 8:00:00 AM 10.99 51.782 0.477 7.96 0.79 9.98
10/24/2022 8:15:00 AM 10.99 51.782 0.477 7.96 1.24 9.99
10/24/2022 8:30:00 AM 10.99 51.782 0.477 7.97 0.5 10.06
10/24/2022 8:45:00 AM 11.02 51.836 0.476 7.97 0.6 10.19
10/24/2022 9:00:00 AM 11.07 51.926 0.476 7.98 0.56 10.32
10/24/2022 9:15:00 AM 11.13 52.034 0.476 7.98 0.8 10.54
10/24/2022 9:30:00 AM 11.16 52.088 0.476 8 0.56 10.71
10/24/2022 9:45:00 AM 11.16 52.088 0.476 8 0.49 10.84
10/24/2022 10:00:00 AM 11.16 52.088 0.476 8.01 0.69 10.92
10/24/2022 10:15:00 AM 11.2 52.16 0.476 8.02 0.68 11.07
10/24/2022 10:30:00 AM 11.33 52.394 0.475 8.04 0.71 11.39
10/24/2022 10:45:00 AM 11.46 52.628 0.474 8.05 0.78 11.73
10/24/2022 11:00:00 AM 11.59 52.862 0.474 8.07 0.77 11.96
10/24/2022 11:15:00 AM 11.72 53.096 0.474 8.07 0.82 12.19
10/24/2022 11:30:00 AM 11.84 53.312 0.473 8.09 0.74 12.46
10/24/2022 11:45:00 AM 11.97 53.546 0.472 8.1 0.82 12.74
10/24/2022 12:00:00 PM 12.1 53.78 0.472 8.12 0.81 13.09
10/24/2022 12:15:00 PM 12.17 53.906 0.472 8.14 0.64 13.27
10/24/2022 12:30:00 PM 12.2 53.96 0.471 8.15 0.71 13.38
10/24/2022 12:45:00 PM 12.19 53.942 0.471 8.16 0.75 13.46
10/24/2022 1:00:00 PM 12.23 54.014 0.47 8.17 1.73 13.56
10/24/2022 1:15:00 PM 12.26 54.068 0.47 8.18 0.49 13.65
10/24/2022 1:30:00 PM 12.33 54.194 0.47 8.19 0.42 13.71
10/24/2022 1:45:00 PM 12.39 54.302 0.47 8.19 0.82 13.8
10/24/2022 2:00:00 PM 12.42 54.356 0.469 8.2 1.5 13.86
10/24/2022 2:15:00 PM 12.42 54.356 0.469 8.19 10.08 13.75
10/24/2022 2:30:00 PM 12.41 54.338 0.47 8.19 1 13.76
10/24/2022 2:45:00 PM 12.39 54.302 0.47 8.19 1.31 13.63
10/24/2022 3:00:00 PM 12.4 54.32 0.47 8.19 0.54 13.67
10/24/2022 3:15:00 PM 12.38 54.284 0.47 8.19 0.72 13.66
10/24/2022 3:30:00 PM 12.39 54.302 0.47 8.19 0.58 13.68
10/24/2022 3:45:00 PM 12.39 54.302 0.469 8.19 0.7 13.69
10/24/2022 4:00:00 PM 12.36 54.248 0.47 8.19 0.61 13.65
10/24/2022 4:15:00 PM 12.33 54.194 0.469 8.19 0.57 13.58
10/24/2022 4:30:00 PM 12.33 54.194 0.47 8.19 0.66 13.44
10/24/2022 4:45:00 PM 12.32 54.176 0.47 8.18 0.74 13.3
10/24/2022 5:00:00 PM 12.29 54.122 0.47 8.18 0.83 13.11
10/24/2022 5:15:00 PM 12.27 54.086 0.471 8.17 0.6 12.96
10/24/2022 5:30:00 PM 12.26 54.068 0.471 8.17 1.02 12.77
10/24/2022 5:45:00 PM 12.24 54.032 0.471 8.16 1.2 12.55
10/24/2022 6:00:00 PM 12.22 53.996 0.472 8.15 7.36 12.29
10/24/2022 6:15:00 PM 12.18 53.924 0.472 8.14 0.96 12.1
10/24/2022 6:30:00 PM 12.15 53.87 0.473 8.13 0.75 11.87
10/24/2022 6:45:00 PM 12.1 53.78 0.473 8.12 0.89 11.66
10/24/2022 7:00:00 PM 12.07 53.726 0.474 8.11 1.98 11.4
10/24/2022 7:15:00 PM 12.03 53.654 0.474 8.09 1.09 11.18
10/24/2022 7:30:00 PM 12.01 53.618 0.474 8.08 0.94 10.99
10/24/2022 7:45:00 PM 11.97 53.546 0.475 8.07 0.78 10.8
10/24/2022 8:00:00 PM 11.95 53.51 0.475 8.05 0.82 10.63
10/24/2022 8:15:00 PM 11.94 53.492 0.475 8.04 1.09 10.48
10/24/2022 8:30:00 PM 11.93 53.474 0.476 8.03 0.62 10.32
10/24/2022 8:45:00 PM 11.92 53.456 0.476 8.02 1.06 10.2
10/24/2022 9:00:00 PM 11.92 53.456 0.476 8.01 0.47 10.1
10/24/2022 9:15:00 PM 11.92 53.456 0.477 8 3.89 10
10/24/2022 9:30:00 PM 11.92 53.456 0.477 8 0.87 9.94
10/24/2022 9:45:00 PM 11.92 53.456 0.477 7.99 0.87 9.87
10/24/2022 10:00:00 PM 11.91 53.438 0.477 7.99 0.81 9.82
10/24/2022 10:15:00 PM 11.91 53.438 0.477 7.98 0.5 9.77
10/24/2022 10:30:00 PM 11.92 53.456 0.478 7.98 0.54 9.74
10/24/2022 10:45:00 PM 11.92 53.456 0.478 7.98 0.73 9.69
10/24/2022 11:00:00 PM 11.93 53.474 0.478 7.97 1.47 9.67
10/24/2022 11:15:00 PM 11.93 53.474 0.478 7.97 0.9 9.65
10/24/2022 11:30:00 PM 11.93 53.474 0.478 7.97 0.76 9.64
10/24/2022 11:45:00 PM 11.93 53.474 0.479 7.97 0.7 9.63
10/25/2022 12:00:00 AM 11.94 53.492 0.479 7.96 0.72 9.6
10/25/2022 12:15:00 AM 11.94 53.492 0.479 7.96 0.66 9.58
10/25/2022 12:30:00 AM 11.95 53.51 0.479 7.96 1.07 9.58
10/25/2022 12:45:00 AM 11.95 53.51 0.479 7.96 0.46 9.57
10/25/2022 1:00:00 AM 11.95 53.51 0.479 7.95 0.65 9.57
10/25/2022 1:15:00 AM 11.96 53.528 0.479 7.95 0.77 9.54
10/25/2022 1:30:00 AM 11.96 53.528 0.479 7.95 0.74 9.54
10/25/2022 1:45:00 AM 11.97 53.546 0.479 7.95 0.53 9.54
10/25/2022 2:00:00 AM 11.97 53.546 0.478 7.95 0.65 9.52
10/25/2022 2:15:00 AM 11.98 53.564 0.478 7.95 0.85 9.51
10/25/2022 2:30:00 AM 11.99 53.582 0.478 7.94 0.68 9.5
10/25/2022 2:45:00 AM 11.99 53.582 0.478 7.94 0.8 9.51
10/25/2022 3:00:00 AM 12 53.6 0.478 7.94 0.95 9.47
10/25/2022 3:15:00 AM 12 53.6 0.478 7.94 0.61 9.49
10/25/2022 3:30:00 AM 12.01 53.618 0.478 7.94 0.77 9.49
10/25/2022 3:45:00 AM 12.01 53.618 0.479 7.94 0.57 9.49
10/25/2022 4:00:00 AM 12.02 53.636 0.479 7.94 0.52 9.46
10/25/2022 4:15:00 AM 12.03 53.654 0.479 7.93 0.43 9.46
10/25/2022 4:30:00 AM 12.03 53.654 0.479 7.93 0.42 9.44
10/25/2022 4:45:00 AM 12.04 53.672 0.479 7.93 0.59 9.42
10/25/2022 5:00:00 AM 12.04 53.672 0.479 7.93 0.68 9.44
10/25/2022 5:15:00 AM 12.05 53.69 0.479 7.93 0.67 9.42
10/25/2022 5:30:00 AM 12.05 53.69 0.479 7.93 0.8 9.42
10/25/2022 5:45:00 AM 12.06 53.708 0.479 7.93 0.89 9.43
10/25/2022 6:00:00 AM 12.07 53.726 0.479 7.93 0.6 9.4
10/25/2022 6:15:00 AM 12.07 53.726 0.479 7.92 0.44 9.39
10/25/2022 6:30:00 AM 12.07 53.726 0.479 7.92 0.58 9.4
10/25/2022 6:45:00 AM 12.08 53.744 0.479 7.92 0.91 9.38
10/25/2022 7:00:00 AM 12.08 53.744 0.479 7.92 1.32 9.37
10/25/2022 7:15:00 AM 12.09 53.762 0.479 7.92 0.47 9.36
10/25/2022 7:30:00 AM 12.09 53.762 0.48 7.92 0.49 9.38
10/25/2022 7:45:00 AM 12.1 53.78 0.479 7.92 0.73 9.39
10/25/2022 8:00:00 AM 12.11 53.798 0.48 7.92 0.64 9.42
10/25/2022 8:15:00 AM 12.13 53.834 0.479 7.92 1.17 9.46
10/25/2022 8:30:00 AM 12.16 53.888 0.479 7.92 2.92 9.51
10/25/2022 8:45:00 AM 12.19 53.942 0.479 7.93 0.9 9.6
10/25/2022 9:00:00 AM 12.23 54.014 0.479 7.93 0.7 9.72
10/25/2022 9:15:00 AM 12.28 54.104 0.479 7.94 0.75 9.87
10/25/2022 9:30:00 AM 12.33 54.194 0.479 7.95 0.71 10.03
10/25/2022 9:45:00 AM 12.38 54.284 0.479 7.96 0.97 10.25
10/25/2022 10:00:00 AM 12.44 54.392 0.479 7.97 0.99 10.36
10/25/2022 10:15:00 AM 12.5 54.5 0.479 7.98 0.67 10.6
10/25/2022 10:30:00 AM 12.59 54.662 0.479 7.99 0.91 10.8
10/25/2022 10:45:00 AM 12.69 54.842 0.478 8 0.99 11.09
10/25/2022 11:00:00 AM 12.74 54.932 0.478 8.02 1.08 11.28
10/25/2022 11:15:00 AM 12.78 55.004 0.477 8.03 0.88 11.51
10/25/2022 11:30:00 AM 12.87 55.166 0.477 8.04 1.04 11.68
10/25/2022 11:45:00 AM 12.95 55.31 0.477 8.06 1.16 11.88
10/25/2022 12:00:00 PM 13.02 55.436 0.476 8.07 1.02 12.06
10/25/2022 12:15:00 PM 13.07 55.526 0.476 8.08 0.84 12.22
10/25/2022 12:30:00 PM 13.11 55.598 0.476 8.09 0.9 12.37
10/25/2022 12:45:00 PM 13.14 55.652 0.475 8.1 0.74 12.51
10/25/2022 1:00:00 PM 13.2 55.76 0.475 8.11 0.86 12.59
10/25/2022 1:15:00 PM 13.24 55.832 0.475 8.12 1.24 12.67
10/25/2022 1:30:00 PM 13.25 55.85 0.475 8.13 1.21 12.67
10/25/2022 1:45:00 PM 13.29 55.922 0.475 8.13 0.92 12.79
10/25/2022 2:00:00 PM 13.32 55.976 0.475 8.14 0.94 12.77
10/25/2022 2:15:00 PM 13.34 56.012 0.474 8.14 0.78 12.73
10/25/2022 2:30:00 PM 13.36 56.048 0.474 8.14 0.54 12.72
10/25/2022 2:45:00 PM 13.37 56.066 0.475 8.14 0.94 12.69
10/25/2022 3:00:00 PM 13.37 56.066 0.474 8.14 1.22 12.6
10/25/2022 3:15:00 PM 13.38 56.084 0.474 8.14 0.99 12.5
10/25/2022 3:30:00 PM 13.37 56.066 0.474 8.14 0.63 12.44
10/25/2022 3:45:00 PM 13.37 56.066 0.475 8.13 0.87 12.32
10/25/2022 4:00:00 PM 13.37 56.066 0.475 8.13 0.58 12.21
10/25/2022 4:15:00 PM 13.37 56.066 0.475 8.13 0.51 12.02
10/25/2022 4:30:00 PM 13.36 56.048 0.475 8.12 0.66 11.85
10/25/2022 4:45:00 PM 13.35 56.03 0.476 8.11 0.58 11.69
10/25/2022 5:00:00 PM 13.34 56.012 0.476 8.1 0.56 11.5
10/25/2022 5:15:00 PM 13.34 56.012 0.476 8.09 0.57 11.31
10/25/2022 5:30:00 PM 13.33 55.994 0.476 8.08 0.39 11.09
10/25/2022 5:45:00 PM 13.32 55.976 0.477 8.07 0.52 10.88
10/25/2022 6:00:00 PM 13.31 55.958 0.477 8.05 0.38 10.73
10/25/2022 6:15:00 PM 13.28 55.904 0.478 8.04 0.54 10.54
10/25/2022 6:30:00 PM 13.26 55.868 0.478 8.03 0.49 10.35
10/25/2022 6:45:00 PM 13.25 55.85 0.479 8.02 0.44 10.16
10/25/2022 7:00:00 PM 13.23 55.814 0.479 8.01 0.84 10.03
10/25/2022 7:15:00 PM 13.22 55.796 0.479 8 0.65 9.88
10/25/2022 7:30:00 PM 13.22 55.796 0.479 7.99 0.58 9.75
10/25/2022 7:45:00 PM 13.21 55.778 0.48 7.98 1.45 9.63
10/25/2022 8:00:00 PM 13.21 55.778 0.48 7.98 0.95 9.53
10/25/2022 8:15:00 PM 13.21 55.778 0.48 7.97 0.5 9.45
10/25/2022 8:30:00 PM 13.2 55.76 0.48 7.96 0.66 9.36
10/25/2022 8:45:00 PM 13.19 55.742 0.48 7.96 0.63 9.32
10/25/2022 9:00:00 PM 13.17 55.706 0.481 7.95 0.5 9.24
10/25/2022 9:15:00 PM 13.16 55.688 0.481 7.95 0.75 9.22
10/25/2022 9:30:00 PM 13.16 55.688 0.481 7.94 0.59 9.21
10/25/2022 9:45:00 PM 13.16 55.688 0.481 7.94 0.68 9.16
10/25/2022 10:00:00 PM 13.16 55.688 0.481 7.93 0.63 9.14
10/25/2022 10:15:00 PM 13.16 55.688 0.481 7.93 0.76 9.13
10/25/2022 10:30:00 PM 13.16 55.688 0.481 7.93 0.55 9.08
10/25/2022 10:45:00 PM 13.16 55.688 0.482 7.93 0.44 9.05
10/25/2022 11:00:00 PM 13.16 55.688 0.482 7.93 0.48 9.07
10/25/2022 11:15:00 PM 13.16 55.688 0.483 7.93 0.7 9.02
10/25/2022 11:30:00 PM 13.16 55.688 0.482 7.92 0.79 9.04
10/25/2022 11:45:00 PM 13.16 55.688 0.482 7.92 0.69 9.02
10/26/2022 12:00:00 AM 13.16 55.688 0.483 7.92 0.52 8.98
10/26/2022 12:15:00 AM 13.17 55.706 0.483 7.92 0.54 9.01
10/26/2022 12:30:00 AM 13.17 55.706 0.483 7.92 0.51 9
10/26/2022 12:45:00 AM 13.17 55.706 0.483 7.92 0.63 8.99
10/26/2022 1:00:00 AM 13.18 55.724 0.483 7.92 0.46 8.98
10/26/2022 1:15:00 AM 13.18 55.724 0.483 7.92 0.74 8.97
10/26/2022 1:30:00 AM 13.18 55.724 0.483 7.92 0.66 8.96
10/26/2022 1:45:00 AM 13.15 55.67 0.484 7.92 0.89 8.95
10/26/2022 2:00:00 AM 13.12 55.616 0.484 7.92 0.68 8.96
10/26/2022 2:15:00 AM 13.1 55.58 0.484 7.92 0.44 8.92
10/26/2022 2:30:00 AM 13.09 55.562 0.484 7.92 0.58 8.96
10/26/2022 2:45:00 AM 13.09 55.562 0.484 7.92 0.59 8.92
10/26/2022 3:00:00 AM 13.09 55.562 0.484 7.92 0.69 8.93
10/26/2022 3:15:00 AM 13.09 55.562 0.484 7.92 0.49 8.89
10/26/2022 3:30:00 AM 13.1 55.58 0.484 7.92 0.69 8.88
10/26/2022 3:45:00 AM 13.1 55.58 0.484 7.92 0.65 8.88
10/26/2022 4:00:00 AM 13.11 55.598 0.485 7.92 1.09 8.9
10/26/2022 4:15:00 AM 13.11 55.598 0.485 7.92 0.69 8.87
10/26/2022 4:30:00 AM 13.12 55.616 0.485 7.92 0.97 8.87
10/26/2022 4:45:00 AM 13.13 55.634 0.485 7.91 0.48 8.87
10/26/2022 5:00:00 AM 13.13 55.634 0.485 7.91 1.01 8.86
10/26/2022 5:15:00 AM 13.14 55.652 0.485 7.91 0.54 8.84
10/26/2022 5:30:00 AM 13.15 55.67 0.485 7.9 0.74 8.83
10/26/2022 5:45:00 AM 13.15 55.67 0.485 7.91 1.38 8.84
10/26/2022 6:00:00 AM 13.16 55.688 0.486 7.9 0.9 8.83
10/26/2022 6:15:00 AM 13.16 55.688 0.486 7.9 2.64 8.82
10/26/2022 6:30:00 AM 13.15 55.67 0.486 7.9 1.11 8.82
10/26/2022 6:45:00 AM 13.14 55.652 0.486 7.9 0.66 8.8
10/26/2022 7:00:00 AM 13.13 55.634 0.486 7.9 0.89 8.8
10/26/2022 7:15:00 AM 13.13 55.634 0.486 7.9 1.61 8.78
10/26/2022 7:30:00 AM 13.13 55.634 0.486 7.9 0.62 8.79
10/26/2022 7:45:00 AM 13.13 55.634 0.486 7.9 1.86 8.79
10/26/2022 8:00:00 AM 13.12 55.616 0.486 7.9 2.15 8.81
10/26/2022 8:15:00 AM 13.13 55.634 0.486 7.9 1.78 8.88
10/26/2022 8:30:00 AM 13.15 55.67 0.486 7.91 1.07 8.93
10/26/2022 8:45:00 AM 13.17 55.706 0.486 7.91 1.41 9
10/26/2022 9:00:00 AM 13.21 55.778 0.486 7.91 1.18 9.13
10/26/2022 9:15:00 AM 13.24 55.832 0.486 7.92 1.7 9.25
10/26/2022 9:30:00 AM 13.29 55.922 0.486 7.92 1.75 9.42
10/26/2022 9:45:00 AM 13.36 56.048 0.486 7.94 1.26 9.64
10/26/2022 10:00:00 AM 13.45 56.21 0.486 7.95 0.99 9.92
10/26/2022 10:15:00 AM 13.55 56.39 0.486 7.96 1.06 10.2
10/26/2022 10:30:00 AM 13.6 56.48 0.486 7.97 1.53 10.45
10/26/2022 10:45:00 AM 13.68 56.624 0.485 7.99 1.1 10.68
10/26/2022 11:00:00 AM 13.74 56.732 0.485 8 0.79 10.94
10/26/2022 11:15:00 AM 13.78 56.804 0.485 8.01 1.24 11.14
10/26/2022 11:30:00 AM 13.81 56.858 0.485 8.02 0.7 11.25
10/26/2022 11:45:00 AM 13.86 56.948 0.485 8.03 0.7 11.39
10/26/2022 12:00:00 PM 13.93 57.074 0.485 8.04 0.9 11.63
10/26/2022 12:15:00 PM 13.98 57.164 0.484 8.06 0.82 11.79
10/26/2022 12:30:00 PM 14.02 57.236 0.484 8.07 0.71 11.89
10/26/2022 12:45:00 PM 14.03 57.254 0.484 8.08 1.04 11.9
10/26/2022 1:00:00 PM 14.03 57.254 0.483 8.08 1.95 11.88
10/26/2022 1:15:00 PM 14.07 57.326 0.483 8.09 2.27 11.94
10/26/2022 1:30:00 PM 14.16 57.488 0.482 8.1 2.51 12.18
10/26/2022 1:45:00 PM 14.24 57.632 0.482 8.1 1.01 12.2
10/26/2022 2:00:00 PM 14.28 57.704 0.482 8.11 0.53 12.35
10/26/2022 2:15:00 PM 14.4 57.92 0.482 8.11 0.5 12.45
10/26/2022 2:30:00 PM 14.42 57.956 0.482 8.12 1.13 12.52
10/26/2022 2:45:00 PM 14.45 58.01 0.481 8.12 0.65 12.54
10/26/2022 3:00:00 PM 14.56 58.208 0.481 8.13 0.53 12.69
10/26/2022 3:15:00 PM 14.68 58.424 0.481 8.13 0.53 12.71
10/26/2022 3:30:00 PM 14.77 58.586 0.481 8.13 0.36 12.89
10/26/2022 3:45:00 PM 14.85 58.73 0.48 8.14 0.82 12.94
10/26/2022 4:00:00 PM 14.88 58.784 0.48 8.14 0.67 13
10/26/2022 4:15:00 PM 14.87 58.766 0.48 8.14 1.91 12.96
10/26/2022 4:30:00 PM 14.83 58.694 0.48 8.15 2.63 12.88
10/26/2022 4:45:00 PM 14.81 58.658 0.48 8.15 0.86 12.78
10/26/2022 5:00:00 PM 14.78 58.604 0.48 8.15 0.87 12.66
10/26/2022 5:15:00 PM 14.72 58.496 0.48 8.15 1.89 12.41
10/26/2022 5:30:00 PM 14.67 58.406 0.48 8.14 1.17 12.14
10/26/2022 5:45:00 PM 14.61 58.298 0.481 8.13 0.73 11.87
10/26/2022 6:00:00 PM 14.56 58.208 0.481 8.12 0.72 11.57
10/26/2022 6:15:00 PM 14.49 58.082 0.482 8.1 0.78 11.21
10/26/2022 6:30:00 PM 14.43 57.974 0.482 8.08 0.51 10.9
10/26/2022 6:45:00 PM 14.37 57.866 0.483 8.07 0.87 10.61
10/26/2022 7:00:00 PM 14.32 57.776 0.484 8.05 0.61 10.3
10/26/2022 7:15:00 PM 14.27 57.686 0.484 8.03 0.76 10.03
10/26/2022 7:30:00 PM 14.21 57.578 0.485 8.01 0.62 9.77
10/26/2022 7:45:00 PM 14.12 57.416 0.485 8 0.85 9.54
10/26/2022 8:00:00 PM 14.05 57.29 0.486 7.98 0.65 9.35
10/26/2022 8:15:00 PM 13.99 57.182 0.486 7.97 0.58 9.13
10/26/2022 8:30:00 PM 13.94 57.092 0.486 7.96 0.57 8.9
10/26/2022 8:45:00 PM 13.91 57.038 0.487 7.95 0.71 8.88
10/26/2022 9:00:00 PM 13.87 56.966 0.487 7.94 0.51 8.77
10/26/2022 9:15:00 PM 13.83 56.894 0.487 7.93 0.68 8.69
10/26/2022 9:30:00 PM 13.8 56.84 0.487 7.92 2.61 8.63
10/26/2022 9:45:00 PM 13.74 56.732 0.487 7.92 0.68 8.58
10/26/2022 10:00:00 PM 13.68 56.624 0.487 7.91 0.94 8.56
10/26/2022 10:15:00 PM 13.65 56.57 0.487 7.91 1.07 8.51
10/26/2022 10:30:00 PM 13.63 56.534 0.487 7.91 0.58 8.49
10/26/2022 10:45:00 PM 13.59 56.462 0.487 7.91 0.63 8.46
10/26/2022 11:00:00 PM 13.54 56.372 0.487 7.91 0.5 8.47
10/26/2022 11:15:00 PM 13.48 56.264 0.487 7.91 0.75 8.46
10/26/2022 11:30:00 PM 13.44 56.192 0.487 7.91 0.7 8.42
10/26/2022 11:45:00 PM 13.4 56.12 0.487 7.91 1.11 8.47
10/27/2022 12:00:00 AM 13.38 56.084 0.487 7.91 0.42 8.49
10/27/2022 12:15:00 AM 13.36 56.048 0.487 7.91 0.47 8.48
10/27/2022 12:30:00 AM 13.37 56.066 0.486 7.91 0.62 8.48
10/27/2022 12:45:00 AM 13.37 56.066 0.486 7.91 0.77 8.45
10/27/2022 1:00:00 AM 13.38 56.084 0.486 7.91 0.53 8.48
10/27/2022 1:15:00 AM 13.39 56.102 0.486 7.91 0.77 8.49
10/27/2022 1:30:00 AM 13.37 56.066 0.486 7.9 1.03 8.47
10/27/2022 1:45:00 AM 13.36 56.048 0.486 7.9 1.55 8.47
10/27/2022 2:00:00 AM 13.36 56.048 0.486 7.9 0.67 8.45
10/27/2022 2:15:00 AM 13.36 56.048 0.486 7.9 0.5 8.49
10/27/2022 2:30:00 AM 13.36 56.048 0.486 7.9 0.74 8.47
10/27/2022 2:45:00 AM 13.36 56.048 0.486 7.9 0.73 8.46
10/27/2022 3:00:00 AM 13.35 56.03 0.487 7.9 0.57 8.48
10/27/2022 3:15:00 AM 13.34 56.012 0.487 7.9 0.79 8.49
10/27/2022 3:30:00 AM 13.31 55.958 0.487 7.9 0.56 8.48
10/27/2022 3:45:00 AM 13.29 55.922 0.487 7.9 1.14 8.49
10/27/2022 4:00:00 AM 13.27 55.886 0.487 7.9 2.41 8.48
10/27/2022 4:15:00 AM 13.24 55.832 0.487 7.9 1.15 8.48
10/27/2022 4:30:00 AM 13.23 55.814 0.487 7.9 0.91 8.49
10/27/2022 4:45:00 AM 13.22 55.796 0.487 7.9 0.88 8.49
10/27/2022 5:00:00 AM 13.21 55.778 0.487 7.9 0.48 8.48
10/27/2022 5:15:00 AM 13.18 55.724 0.487 7.9 2.01 8.48
10/27/2022 5:30:00 AM 13.16 55.688 0.486 7.9 1.39 8.45
10/27/2022 5:45:00 AM 13.14 55.652 0.486 7.9 2.32 8.49
10/27/2022 6:00:00 AM 13.13 55.634 0.486 7.9 1.05 8.52
10/27/2022 6:15:00 AM 13.11 55.598 0.486 7.9 0.72 8.5
10/27/2022 6:30:00 AM 13.08 55.544 0.487 7.9 1.16 8.5
10/27/2022 6:45:00 AM 13.05 55.49 0.487 7.9 0.85 8.49
10/27/2022 7:00:00 AM 13.04 55.472 0.487 7.9 0.65 8.48
10/27/2022 7:15:00 AM 13.01 55.418 0.487 7.9 0.97 8.48
10/27/2022 7:30:00 AM 12.99 55.382 0.486 7.9 0.79 8.52
10/27/2022 7:45:00 AM 12.95 55.31 0.487 7.9 0.7 8.54
10/27/2022 8:00:00 AM 12.92 55.256 0.487 7.9 0.63 8.58
10/27/2022 8:15:00 AM 12.87 55.166 0.487 7.9 1.35 8.64
10/27/2022 8:30:00 AM 12.85 55.13 0.487 7.91 0.39 8.73
10/27/2022 8:45:00 AM 12.83 55.094 0.487 7.91 0.87 8.83
10/27/2022 9:00:00 AM 12.83 55.094 0.486 7.92 0.8 8.98
10/27/2022 9:15:00 AM 12.84 55.112 0.486 7.93 1.16 9.15
10/27/2022 9:30:00 AM 12.87 55.166 0.486 7.94 1.18 9.34
10/27/2022 9:45:00 AM 12.9 55.22 0.486 7.95 0.44 9.55
10/27/2022 10:00:00 AM 12.89 55.202 0.486 7.96 0.67 9.71
10/27/2022 10:15:00 AM 12.9 55.22 0.485 7.97 0.7 9.89
10/27/2022 10:30:00 AM 12.92 55.256 0.485 7.98 0.7 10.07
10/27/2022 10:45:00 AM 12.94 55.292 0.485 7.99 1.34 10.29
10/27/2022 11:00:00 AM 12.96 55.328 0.484 8.01 0.68 10.51
10/27/2022 11:15:00 AM 13.04 55.472 0.484 8.02 2.86 10.69
10/27/2022 11:30:00 AM 13.13 55.634 0.484 8.03 1.04 10.9
10/27/2022 11:45:00 AM 13.26 55.868 0.483 8.05 0.51 11.12
10/27/2022 12:00:00 PM 13.44 56.192 0.483 8.06 0.72 11.35
10/27/2022 12:15:00 PM 13.66 56.588 0.482 8.07 0.99 11.61
10/27/2022 12:30:00 PM 13.91 57.038 0.481 8.09 0.51 11.88
10/27/2022 12:45:00 PM 14.21 57.578 0.48 8.1 0.74 12.11
10/27/2022 1:00:00 PM 14.54 58.172 0.48 8.11 1 12.39
10/27/2022 1:15:00 PM 14.87 58.766 0.479 8.12 1.66 12.69
10/27/2022 1:30:00 PM 15.18 59.324 0.479 8.13 0.37 12.88
10/27/2022 1:45:00 PM 15.49 59.882 0.478 8.15 0.57 13.13
10/27/2022 2:00:00 PM 15.81 60.458 0.478 8.15 0.53 13.28
10/27/2022 2:15:00 PM 16.09 60.962 0.478 8.16 0.59 13.6
10/27/2022 2:30:00 PM 16.31 61.358 0.478 8.16 0.58 13.65
10/27/2022 2:45:00 PM 16.52 61.736 0.478 8.16 0.82 13.64
10/27/2022 3:00:00 PM 16.66 61.988 0.478 8.17 0.51 13.78
10/27/2022 3:15:00 PM 16.78 62.204 0.478 8.17 0.85 13.88
10/27/2022 3:30:00 PM 16.84 62.312 0.478 8.17 0.91 13.95
10/27/2022 3:45:00 PM 16.83 62.294 0.477 8.17 0.86 13.83
10/27/2022 4:00:00 PM 16.79 62.222 0.478 8.17 0.77 13.82
10/27/2022 4:15:00 PM 16.63 61.934 0.478 8.17 1.64 13.63
10/27/2022 4:30:00 PM 16.45 61.61 0.479 8.16 0.86 13.53
10/27/2022 4:45:00 PM 16.12 61.016 0.48 8.16 0.95 13.43
10/27/2022 5:00:00 PM 15.84 60.512 0.479 8.16 0.81 12.96
10/27/2022 5:15:00 PM 15.56 60.008 0.48 8.15 0.89 12.68
10/27/2022 5:30:00 PM 15.28 59.504 0.481 8.14 1.33 12.29
10/27/2022 5:45:00 PM 15.03 59.054 0.481 8.13 1.25 11.95
10/27/2022 6:00:00 PM 14.81 58.658 0.481 8.12 0.98 11.59
10/27/2022 6:15:00 PM 14.61 58.298 0.482 8.11 2.22 11.25
10/27/2022 6:30:00 PM 14.42 57.956 0.482 8.1 1.33 10.94
10/27/2022 6:45:00 PM 14.22 57.596 0.483 8.08 1.76 10.59
10/27/2022 7:00:00 PM 14.07 57.326 0.483 8.07 1.1 10.31
10/27/2022 7:15:00 PM 13.92 57.056 0.484 8.05 0.77 10.05
10/27/2022 7:30:00 PM 13.78 56.804 0.484 8.04 0.49 9.81
10/27/2022 7:45:00 PM 13.66 56.588 0.484 8.03 0.57 9.61
10/27/2022 8:00:00 PM 13.55 56.39 0.484 8.01 0.73 9.44
10/27/2022 8:15:00 PM 13.45 56.21 0.485 8 0.63 9.28
10/27/2022 8:30:00 PM 13.37 56.066 0.485 7.99 1.11 9.15
10/27/2022 8:45:00 PM 13.29 55.922 0.485 7.99 0.82 9.03
10/27/2022 9:00:00 PM 13.22 55.796 0.485 7.98 0.6 8.94
10/27/2022 9:15:00 PM 13.16 55.688 0.485 7.97 0.78 8.82
10/27/2022 9:30:00 PM 13.1 55.58 0.486 7.96 4.44 8.79
10/27/2022 9:45:00 PM 13.06 55.508 0.485 7.96 3.05 8.71
10/27/2022 10:00:00 PM 12.99 55.382 0.486 7.96 0.95 8.71
10/27/2022 10:15:00 PM 12.93 55.274 0.485 7.95 1.17 8.67
10/27/2022 10:30:00 PM 12.88 55.184 0.485 7.95 0.71 8.63
10/27/2022 10:45:00 PM 12.82 55.076 0.485 7.95 0.7 8.65
10/27/2022 11:00:00 PM 12.78 55.004 0.485 7.95 0.86 8.66
10/27/2022 11:15:00 PM 12.72 54.896 0.485 7.95 0.53 8.66
10/27/2022 11:30:00 PM 12.65 54.77 0.485 7.95 2.65 8.63
10/27/2022 11:45:00 PM 12.63 54.734 0.485 7.95 2.55 8.6
10/28/2022 12:00:00 AM 12.56 54.608 0.484 7.95 1.6 8.67
10/28/2022 12:15:00 AM 12.53 54.554 0.484 7.96 0.58 8.63
10/28/2022 12:30:00 AM 12.49 54.482 0.484 7.96 0.64 8.69
10/28/2022 12:45:00 AM 12.45 54.41 0.484 7.96 0.7 8.71
10/28/2022 1:00:00 AM 12.43 54.374 0.484 7.96 0.55 8.74
10/28/2022 1:15:00 AM 12.4 54.32 0.484 7.96 0.6 8.73
10/28/2022 1:30:00 AM 12.37 54.266 0.484 7.96 0.69 8.75
10/28/2022 1:45:00 AM 12.34 54.212 0.484 7.97 0.8 8.77
10/28/2022 2:00:00 AM 12.3 54.14 0.484 7.97 1.14 8.77
10/28/2022 2:15:00 AM 12.27 54.086 0.484 7.97 0.69 8.77
10/28/2022 2:30:00 AM 12.26 54.068 0.484 7.97 0.79 8.8
10/28/2022 2:45:00 AM 12.24 54.032 0.484 7.97 4.07 8.81
10/28/2022 3:00:00 AM 12.18 53.924 0.484 7.97 0.73 8.79
10/28/2022 3:15:00 AM 12.17 53.906 0.484 7.97 0.68 8.78
10/28/2022 3:30:00 AM 12.14 53.852 0.484 7.97 0.62 8.83
10/28/2022 3:45:00 AM 12.11 53.798 0.484 7.97 0.7 8.84
10/28/2022 4:00:00 AM 12.07 53.726 0.484 7.97 0.43 8.85
10/28/2022 4:15:00 AM 12.03 53.654 0.484 7.97 0.85 8.85
10/28/2022 4:30:00 AM 12.02 53.636 0.484 7.98 0.45 8.88
10/28/2022 4:45:00 AM 11.99 53.582 0.484 7.98 0.62 8.89
10/28/2022 5:00:00 AM 11.97 53.546 0.484 7.97 3.55 8.85
10/28/2022 5:15:00 AM 11.98 53.564 0.485 7.97 1.83 8.86
10/28/2022 5:30:00 AM 11.95 53.51 0.485 7.97 1.07 8.89
10/28/2022 5:45:00 AM 11.94 53.492 0.486 7.98 0.87 8.89
10/28/2022 6:00:00 AM 11.93 53.474 0.486 7.97 0.48 8.89
10/28/2022 6:15:00 AM 11.91 53.438 0.486 7.97 1.16 8.89
10/28/2022 6:30:00 AM 11.88 53.384 0.486 7.97 0.87 8.88
10/28/2022 6:45:00 AM 11.85 53.33 0.486 7.97 1.08 8.88
10/28/2022 7:00:00 AM 11.82 53.276 0.486 7.97 1.94 8.86
10/28/2022 7:15:00 AM 11.78 53.204 0.487 7.97 0.71 8.86
10/28/2022 7:30:00 AM 11.77 53.186 0.486 7.97 1.06 8.86
10/28/2022 7:45:00 AM 11.73 53.114 0.487 7.97 1.03 8.89
10/28/2022 8:00:00 AM 11.68 53.024 0.487 7.97 1.12 8.93
10/28/2022 8:15:00 AM 11.67 53.006 0.486 7.97 1.03 9.01
10/28/2022 8:30:00 AM 11.68 53.024 0.486 7.98 0.52 9.1
10/28/2022 8:45:00 AM 11.7 53.06 0.486 7.98 0.72 9.23
10/28/2022 9:00:00 AM 11.74 53.132 0.486 7.99 0.72 9.38
10/28/2022 9:15:00 AM 11.78 53.204 0.486 7.99 1.87 9.55
10/28/2022 9:30:00 AM 11.83 53.294 0.485 8 2.18 9.76
10/28/2022 9:45:00 AM 11.87 53.366 0.486 8.01 0.82 9.95
10/28/2022 10:00:00 AM 11.96 53.528 0.486 8.02 0.86 10.31
10/28/2022 10:15:00 AM 12.03 53.654 0.485 8.04 0.58 10.56
10/28/2022 10:30:00 AM 12.15 53.87 0.484 8.05 1.59 10.88
10/28/2022 10:45:00 AM 12.23 54.014 0.484 8.07 0.63 11.13
10/28/2022 11:00:00 AM 12.36 54.248 0.484 8.08 0.63 11.45
10/28/2022 11:15:00 AM 12.5 54.5 0.483 8.1 0.42 11.85
10/28/2022 11:30:00 AM 12.64 54.752 0.482 8.11 0.65 12.17
10/28/2022 11:45:00 AM 12.8 55.04 0.482 8.13 0.44 12.6
10/28/2022 12:00:00 PM 12.96 55.328 0.482 8.15 0.96 12.8
10/28/2022 12:15:00 PM 13.11 55.598 0.481 8.16 0.5 13.02
10/28/2022 12:30:00 PM 13.26 55.868 0.48 8.18 0.68 13.27
10/28/2022 12:45:00 PM 13.51 56.318 0.479 8.19 0.56 13.63
10/28/2022 1:00:00 PM 13.77 56.786 0.478 8.2 0.89 13.86
10/28/2022 1:15:00 PM 14.05 57.29 0.478 8.22 1.09 14.13
10/28/2022 1:30:00 PM 14.36 57.848 0.477 8.22 0.56 14.33
10/28/2022 1:45:00 PM 14.71 58.478 0.477 8.23 0.54 14.45
10/28/2022 2:00:00 PM 15.04 59.072 0.476 8.23 0.71 14.59
10/28/2022 2:15:00 PM 15.28 59.504 0.477 8.24 0.78 14.66
10/28/2022 2:30:00 PM 15.5 59.9 0.476 8.24 0.77 14.9
10/28/2022 2:45:00 PM 15.59 60.062 0.477 8.24 1.14 14.86
10/28/2022 3:00:00 PM 15.74 60.332 0.477 8.23 0.45 14.84
10/28/2022 3:15:00 PM 15.92 60.656 0.477 8.23 1.62 14.94
10/28/2022 3:30:00 PM 15.99 60.782 0.477 8.24 0.77 15.04
10/28/2022 3:45:00 PM 15.91 60.638 0.478 8.24 0.52 14.75
10/28/2022 4:00:00 PM 15.78 60.404 0.478 8.24 0.45 14.69
10/28/2022 4:15:00 PM 15.64 60.152 0.479 8.25 0.56 14.69
10/28/2022 4:30:00 PM 15.49 59.882 0.478 8.25 0.43 14.43
10/28/2022 4:45:00 PM 15.27 59.486 0.479 8.25 0.68 14.2
10/28/2022 5:00:00 PM 15.08 59.144 0.479 8.24 1.77 13.87
10/28/2022 5:15:00 PM 14.89 58.802 0.48 8.23 1.01 13.59
10/28/2022 5:30:00 PM 14.65 58.37 0.481 8.22 0.82 13.24
10/28/2022 5:45:00 PM 14.47 58.046 0.481 8.21 1.28 12.9
10/28/2022 6:00:00 PM 14.27 57.686 0.482 8.2 0.79 12.51
10/28/2022 6:15:00 PM 14.08 57.344 0.482 8.18 0.99 12.16
10/28/2022 6:30:00 PM 13.88 56.984 0.483 8.16 0.91 11.75
10/28/2022 6:45:00 PM 13.71 56.678 0.483 8.14 0.77 11.41
10/28/2022 7:00:00 PM 13.55 56.39 0.484 8.13 0.71 11.05
10/28/2022 7:15:00 PM 13.39 56.102 0.485 8.11 0.39 10.71
10/28/2022 7:30:00 PM 13.24 55.832 0.486 8.09 0.91 10.45
10/28/2022 7:45:00 PM 13.11 55.598 0.486 8.07 0.49 10.18
10/28/2022 8:00:00 PM 13 55.4 0.487 8.05 1.36 9.98
10/28/2022 8:15:00 PM 12.88 55.184 0.487 8.03 0.47 9.71
10/28/2022 8:30:00 PM 12.76 54.968 0.488 8.02 0.58 9.58
10/28/2022 8:45:00 PM 12.65 54.77 0.488 8.01 0.43 9.4
10/28/2022 9:00:00 PM 12.54 54.572 0.488 8 0.63 9.27
10/28/2022 9:15:00 PM 12.43 54.374 0.488 7.99 0.89 9.14
10/28/2022 9:30:00 PM 12.32 54.176 0.488 7.98 0.98 9.06
10/28/2022 9:45:00 PM 12.23 54.014 0.488 7.98 0.67 9
10/28/2022 10:00:00 PM 12.15 53.87 0.488 7.97 0.9 8.94
10/28/2022 10:15:00 PM 12.06 53.708 0.488 7.97 0.32 8.91
10/28/2022 10:30:00 PM 11.98 53.564 0.488 7.97 1.09 8.89
10/28/2022 10:45:00 PM 11.92 53.456 0.488 7.97 0.31 8.88
10/28/2022 11:00:00 PM 11.83 53.294 0.488 7.97 0.67 8.85
10/28/2022 11:15:00 PM 11.76 53.168 0.488 7.97 0.82 8.84
10/28/2022 11:30:00 PM 11.68 53.024 0.489 7.96 1.03 8.87
10/28/2022 11:45:00 PM 11.63 52.934 0.489 7.97 0.78 8.85
10/29/2022 12:00:00 AM 11.57 52.826 0.489 7.97 0.47 8.85
10/29/2022 12:15:00 AM 11.49 52.682 0.489 7.97 0.54 8.88
10/29/2022 12:30:00 AM 11.44 52.592 0.489 7.97 1.01 8.89
10/29/2022 12:45:00 AM 11.41 52.538 0.489 7.97 0.51 8.92
10/29/2022 1:00:00 AM 11.35 52.43 0.489 7.97 0.44 8.92
10/29/2022 1:15:00 AM 11.29 52.322 0.489 7.97 2.42 8.92
10/29/2022 1:30:00 AM 11.25 52.25 0.489 7.97 1.02 8.95
10/29/2022 1:45:00 AM 11.2 52.16 0.489 7.97 0.77 8.96
10/29/2022 2:00:00 AM 11.16 52.088 0.489 7.97 0.75 8.97
10/29/2022 2:15:00 AM 11.12 52.016 0.489 7.97 0.52 8.97
10/29/2022 2:30:00 AM 11.06 51.908 0.49 7.97 0.54 8.97
10/29/2022 2:45:00 AM 11.03 51.854 0.49 7.97 0.8 8.99
10/29/2022 3:00:00 AM 10.99 51.782 0.49 7.97 1.47 9
10/29/2022 3:15:00 AM 10.95 51.71 0.49 7.97 0.64 9.03
10/29/2022 3:30:00 AM 10.91 51.638 0.49 7.97 0.55 8.98
10/29/2022 3:45:00 AM 10.86 51.548 0.49 7.97 0.43 9.02
10/29/2022 4:00:00 AM 10.84 51.512 0.491 7.97 0.81 9.06
10/29/2022 4:15:00 AM 10.8 51.44 0.491 7.97 0.88 9.06
10/29/2022 4:30:00 AM 10.76 51.368 0.49 7.97 1.63 9.06
10/29/2022 4:45:00 AM 10.73 51.314 0.491 7.97 0.52 9.1
10/29/2022 5:00:00 AM 10.7 51.26 0.491 7.98 0.44 9.13
10/29/2022 5:15:00 AM 10.69 51.242 0.491 7.98 0.69 9.14
10/29/2022 5:30:00 AM 10.64 51.152 0.491 7.98 0.54 9.14
10/29/2022 5:45:00 AM 10.57 51.026 0.491 7.97 1.12 9.14
10/29/2022 6:00:00 AM 10.54 50.972 0.491 7.98 0.89 9.14
10/29/2022 6:15:00 AM 10.51 50.918 0.491 7.98 0.64 9.14
10/29/2022 6:30:00 AM 10.45 50.81 0.491 7.98 0.54 9.14
10/29/2022 6:45:00 AM 10.41 50.738 0.491 7.97 0.62 9.15
10/29/2022 7:00:00 AM 10.38 50.684 0.491 7.97 0.55 9.15
10/29/2022 7:15:00 AM 10.34 50.612 0.491 7.97 0.6 9.15
10/29/2022 7:30:00 AM 10.27 50.486 0.492 7.97 0.55 9.16
10/29/2022 7:45:00 AM 10.25 50.45 0.491 7.97 0.68 9.18
10/29/2022 8:00:00 AM 10.2 50.36 0.49 7.97 0.48 9.23
10/29/2022 8:15:00 AM 10.2 50.36 0.491 7.97 0.68 9.31
10/29/2022 8:30:00 AM 10.18 50.324 0.491 7.98 0.48 9.39
10/29/2022 8:45:00 AM 10.18 50.324 0.49 7.98 0.74 9.56
10/29/2022 9:00:00 AM 10.2 50.36 0.491 7.99 1.17 9.66
10/29/2022 9:15:00 AM 10.25 50.45 0.491 7.99 1.32 9.78
10/29/2022 9:30:00 AM 10.31 50.558 0.491 8 1.24 9.91
10/29/2022 9:45:00 AM 10.36 50.648 0.491 8 0.96 10.07
10/29/2022 10:00:00 AM 10.44 50.792 0.491 8.01 0.5 10.26
10/29/2022 10:15:00 AM 10.53 50.954 0.491 8.01 1.05 10.44
10/29/2022 10:30:00 AM 10.63 51.134 0.491 8.03 0.47 10.65
10/29/2022 10:45:00 AM 10.74 51.332 0.491 8.03 0.41 10.86
10/29/2022 11:00:00 AM 10.85 51.53 0.491 8.04 0.3 11.06
10/29/2022 11:15:00 AM 11.02 51.836 0.49 8.05 0.61 11.3
10/29/2022 11:30:00 AM 11.2 52.16 0.49 8.06 0.45 11.54
10/29/2022 11:45:00 AM 11.38 52.484 0.49 8.07 0.52 11.76
10/29/2022 12:00:00 PM 11.61 52.898 0.489 8.08 0.64 12.02
10/29/2022 12:15:00 PM 11.88 53.384 0.489 8.09 0.52 12.29
10/29/2022 12:30:00 PM 12.15 53.87 0.488 8.1 0.48 12.59
10/29/2022 12:45:00 PM 12.45 54.41 0.488 8.12 0.42 12.89
10/29/2022 1:00:00 PM 12.86 55.148 0.487 8.13 0.49 13.21
10/29/2022 1:15:00 PM 13.21 55.778 0.486 8.14 0.53 13.52
10/29/2022 1:30:00 PM 13.59 56.462 0.486 8.16 0.66 13.85
10/29/2022 1:45:00 PM 13.92 57.056 0.486 8.16 0.42 14.19
10/29/2022 2:00:00 PM 14.25 57.65 0.485 8.17 0.45 14.29
10/29/2022 2:15:00 PM 14.52 58.136 0.485 8.17 0.4 14.73
10/29/2022 2:30:00 PM 14.77 58.586 0.485 8.17 0.44 14.61
10/29/2022 2:45:00 PM 14.96 58.928 0.485 8.17 0.54 14.77
10/29/2022 3:00:00 PM 15.12 59.216 0.485 8.18 0.48 14.86
10/29/2022 3:15:00 PM 15.22 59.396 0.486 8.18 0.54 14.93
10/29/2022 3:30:00 PM 15.28 59.504 0.486 8.18 0.64 14.9
10/29/2022 3:45:00 PM 15.28 59.504 0.487 8.18 0.41 14.99
10/29/2022 4:00:00 PM 15.28 59.504 0.487 8.17 0.55 14.82
10/29/2022 4:15:00 PM 15.12 59.216 0.488 8.17 0.44 14.86
10/29/2022 4:30:00 PM 14.92 58.856 0.489 8.16 0.59 14.62
10/29/2022 4:45:00 PM 14.62 58.316 0.489 8.16 0.39 14.37
10/29/2022 5:00:00 PM 14.25 57.65 0.49 8.16 0.43 14.1
10/29/2022 5:15:00 PM 13.98 57.164 0.49 8.16 0.46 13.78
10/29/2022 5:30:00 PM 13.72 56.696 0.49 8.16 0.38 13.45
10/29/2022 5:45:00 PM 13.5 56.3 0.49 8.15 1.72 13.18
10/29/2022 6:00:00 PM 13.23 55.814 0.49 8.15 0.39 12.78
10/29/2022 6:15:00 PM 12.96 55.328 0.49 8.15 0.52 12.39
10/29/2022 6:30:00 PM 12.71 54.878 0.49 8.13 0.54 12.02
10/29/2022 6:45:00 PM 12.49 54.482 0.491 8.12 0.34 11.62
10/29/2022 7:00:00 PM 12.27 54.086 0.491 8.11 0.53 11.31
10/29/2022 7:15:00 PM 12.11 53.798 0.492 8.09 1.08 11.03
10/29/2022 7:30:00 PM 11.93 53.474 0.492 8.07 0.33 10.75
10/29/2022 7:45:00 PM 11.78 53.204 0.492 8.06 0.39 10.51
10/29/2022 8:00:00 PM 11.64 52.952 0.492 8.05 0.4 10.32
10/29/2022 8:15:00 PM 11.49 52.682 0.492 8.03 0.45 10.12
10/29/2022 8:30:00 PM 11.35 52.43 0.493 8.02 0.51 9.96
10/29/2022 8:45:00 PM 11.23 52.214 0.493 8.01 0.54 9.84
10/29/2022 9:00:00 PM 11.12 52.016 0.493 8.01 0.37 9.73
10/29/2022 9:15:00 PM 11.01 51.818 0.493 8 0.4 9.64
10/29/2022 9:30:00 PM 10.9 51.62 0.493 7.99 0.33 9.55
10/29/2022 9:45:00 PM 10.81 51.458 0.493 7.99 0.4 9.51
10/29/2022 10:00:00 PM 10.72 51.296 0.493 7.99 0.66 9.44
10/29/2022 10:15:00 PM 10.63 51.134 0.493 7.98 0.3 9.43
10/29/2022 10:30:00 PM 10.55 50.99 0.492 7.98 0.2 9.38
10/29/2022 10:45:00 PM 10.48 50.864 0.492 7.98 0.35 9.39
10/29/2022 11:00:00 PM 10.41 50.738 0.492 7.98 0.25 9.4
10/29/2022 11:15:00 PM 10.33 50.594 0.492 7.98 0.29 9.42
10/29/2022 11:30:00 PM 10.26 50.468 0.492 7.98 0.25 9.34
10/29/2022 11:45:00 PM 10.19 50.342 0.491 7.98 0.21 9.4
10/30/2022 12:00:00 AM 10.12 50.216 0.492 7.98 0.8 9.42
10/30/2022 12:15:00 AM 10.08 50.144 0.491 7.98 0.47 9.44
10/30/2022 12:30:00 AM 10.03 50.054 0.491 7.98 0.72 9.44
10/30/2022 12:45:00 AM 9.98 49.964 0.491 7.98 0.37 9.46
10/30/2022 1:00:00 AM 9.9 49.82 0.491 7.99 0.27 9.48
10/30/2022 1:15:00 AM 9.86 49.748 0.491 7.99 0.43 9.5
10/30/2022 1:30:00 AM 9.8 49.64 0.49 7.99 0.55 9.56
10/30/2022 1:45:00 AM 9.74 49.532 0.491 7.99 0.59 9.56
10/30/2022 2:00:00 AM 9.72 49.496 0.49 7.99 0.62 9.58
10/30/2022 2:15:00 AM 9.66 49.388 0.49 7.99 0.54 9.58
10/30/2022 2:30:00 AM 9.64 49.352 0.491 7.99 0.57 9.61
10/30/2022 2:45:00 AM 9.59 49.262 0.49 8 0.52 9.62
10/30/2022 3:00:00 AM 9.54 49.172 0.49 7.99 0.36 9.62
10/30/2022 3:15:00 AM 9.52 49.136 0.49 7.99 0.48 9.62
10/30/2022 3:30:00 AM 9.44 48.992 0.491 8 0.21 9.66
10/30/2022 3:45:00 AM 9.41 48.938 0.49 8 0.25 9.65
10/30/2022 4:00:00 AM 9.4 48.92 0.49 7.99 0.66 9.67
10/30/2022 4:15:00 AM 9.37 48.866 0.49 8 0.4 9.69
10/30/2022 4:30:00 AM 9.31 48.758 0.49 8 0.46 9.68
10/30/2022 4:45:00 AM 9.29 48.722 0.491 8 0.33 9.7
10/30/2022 5:00:00 AM 9.25 48.65 0.49 8 0.43 9.7
10/30/2022 5:15:00 AM 9.21 48.578 0.49 8 0.37 9.7
10/30/2022 5:30:00 AM 9.18 48.524 0.49 8 1.5 9.71
10/30/2022 5:45:00 AM 9.17 48.506 0.491 8 2.73 9.71
10/30/2022 6:00:00 AM 9.14 48.452 0.491 8 0.89 9.73
10/30/2022 6:15:00 AM 9.11 48.398 0.491 8 1.07 9.74
10/30/2022 6:30:00 AM 9.05 48.29 0.491 8 0.62 9.74
10/30/2022 6:45:00 AM 9.07 48.326 0.49 8 0.45 9.77
10/30/2022 7:00:00 AM 8.97 48.146 0.491 8 0.93 9.78
10/30/2022 7:15:00 AM 8.97 48.146 0.489 8 0.42 9.8
10/30/2022 7:30:00 AM 8.94 48.092 0.489 8 2.26 9.8
10/30/2022 7:45:00 AM 8.88 47.984 0.48 8 0.49 9.82
10/30/2022 8:00:00 AM 8.87 47.966 0.48 8.01 0.56 9.9
10/30/2022 8:15:00 AM 8.84 47.912 0.481 8.01 0.32 9.95
10/30/2022 8:30:00 AM 8.82 47.876 0.487 8.01 0.84 10.03
10/30/2022 8:45:00 AM 8.84 47.912 0.486 8.01 0.68 10.12
10/30/2022 9:00:00 AM 8.86 47.948 0.481 8.02 0.47 10.27
10/30/2022 9:15:00 AM 8.91 48.038 0.479 8.03 0.34 10.45
10/30/2022 9:30:00 AM 8.96 48.128 0.487 8.03 0.94 10.59
10/30/2022 9:45:00 AM 9.02 48.236 0.485 8.04 0.37 10.78
10/30/2022 10:00:00 AM 9.11 48.398 0.484 8.05 0.18 10.93
10/30/2022 10:15:00 AM 9.19 48.542 0.485 8.06 0.28 11.14
10/30/2022 10:30:00 AM 9.3 48.74 0.484 8.06 0.25 11.36
10/30/2022 10:45:00 AM 9.42 48.956 0.484 8.07 0.22 11.59
10/30/2022 11:00:00 AM 9.57 49.226 0.485 8.09 0.59 11.79
10/30/2022 11:15:00 AM 9.73 49.514 0.484 8.1 0.36 12.05
10/30/2022 11:30:00 AM 9.92 49.856 0.484 8.11 0.4 12.32
10/30/2022 11:45:00 AM 10.12 50.216 0.482 8.12 0.5 12.56
10/30/2022 12:00:00 PM 10.37 50.666 0.479 8.13 0.44 12.84
10/30/2022 12:15:00 PM 10.63 51.134 0.482 8.14 0.32 13.12
10/30/2022 12:30:00 PM 10.94 51.692 0.481 8.14 0.46 13.41
10/30/2022 12:45:00 PM 11.32 52.376 0.481 8.16 0.48 13.75
10/30/2022 1:00:00 PM 11.7 53.06 0.48 8.17 0.37 14.09
10/30/2022 1:15:00 PM 12.05 53.69 0.479 8.17 0.42 14.35
10/30/2022 1:30:00 PM 12.4 54.32 0.485 8.18 0.4 14.59
10/30/2022 1:45:00 PM 12.76 54.968 0.485 8.2 0.36 15.06
10/30/2022 2:00:00 PM 13.05 55.49 0.485 8.19 0.63 14.97
10/30/2022 2:15:00 PM 13.3 55.94 0.485 8.19 0.42 15.23
10/30/2022 2:30:00 PM 13.5 56.3 0.485 8.19 0.35 15.32
10/30/2022 2:45:00 PM 13.71 56.678 0.484 8.2 0.59 15.68
10/30/2022 3:00:00 PM 13.89 57.002 0.484 8.19 0.37 15.67
10/30/2022 3:15:00 PM 13.97 57.146 0.484 8.2 0.43 15.59
10/30/2022 3:30:00 PM 14.11 57.398 0.484 8.19 0.44 15.6
10/30/2022 3:45:00 PM 14.15 57.47 0.485 8.18 0.4 15.66
10/30/2022 4:00:00 PM 13.96 57.128 0.486 8.19 0.55 15.57
10/30/2022 4:15:00 PM 13.86 56.948 0.486 8.2 0.36 15.39
10/30/2022 4:30:00 PM 13.64 56.552 0.487 8.19 0.51 15.28
10/30/2022 4:45:00 PM 13.42 56.156 0.487 8.2 0.51 15.16
10/30/2022 5:00:00 PM 13.19 55.742 0.486 8.21 0.48 14.91
10/30/2022 5:15:00 PM 13 55.4 0.486 8.21 0.41 14.57
10/30/2022 5:30:00 PM 12.79 55.022 0.486 8.21 0.64 14.26
10/30/2022 5:45:00 PM 12.58 54.644 0.487 8.2 1.08 13.93
10/30/2022 6:00:00 PM 12.37 54.266 0.487 8.19 0.82 13.53
10/30/2022 6:15:00 PM 12.14 53.852 0.488 8.17 0.69 13.09
10/30/2022 6:30:00 PM 11.93 53.474 0.488 8.16 0.54 12.69
10/30/2022 6:45:00 PM 11.75 53.15 0.489 8.15 0.59 12.33
10/30/2022 7:00:00 PM 11.57 52.826 0.489 8.13 7.61 11.99
10/30/2022 7:15:00 PM 11.44 52.592 0.49 8.11 0.55 11.66
10/30/2022 7:30:00 PM 11.28 52.304 0.491 8.09 0.83 11.36
10/30/2022 7:45:00 PM 11.14 52.052 0.491 8.07 0.41 11.07
10/30/2022 8:00:00 PM 11.01 51.818 0.492 8.06 0.78 10.82
10/30/2022 8:15:00 PM 10.91 51.638 0.492 8.04 0.49 10.62
10/30/2022 8:30:00 PM 10.78 51.404 0.492 8.02 0.43 10.39
10/30/2022 8:45:00 PM 10.69 51.242 0.492 8.01 0.35 10.23
10/30/2022 9:00:00 PM 10.58 51.044 0.492 8 0.35 10.11
10/30/2022 9:15:00 PM 10.48 50.864 0.493 8 0.38 10.02
10/30/2022 9:30:00 PM 10.4 50.72 0.492 7.99 0.4 9.94
10/30/2022 9:45:00 PM 10.32 50.576 0.492 7.99 0.6 9.86
10/30/2022 10:00:00 PM 10.25 50.45 0.492 7.98 0.37 9.81
10/30/2022 10:15:00 PM 10.16 50.288 0.492 7.98 0.42 9.79
10/30/2022 10:30:00 PM 10.1 50.18 0.492 7.98 0.29 9.75
10/30/2022 10:45:00 PM 10.04 50.072 0.492 7.98 0.56 9.74
10/30/2022 11:00:00 PM 9.98 49.964 0.492 7.98 0.43 9.72
10/30/2022 11:15:00 PM 9.91 49.838 0.491 7.98 0.94 9.7
10/30/2022 11:30:00 PM 9.86 49.748 0.491 7.98 0.53 9.69
10/30/2022 11:45:00 PM 9.81 49.658 0.491 7.98 0.53 9.69
10/31/2022 12:00:00 AM 9.78 49.604 0.491 7.98 0.61 9.68
10/31/2022 12:15:00 AM 9.74 49.532 0.491 7.98 0.43 9.67
10/31/2022 12:30:00 AM 9.72 49.496 0.49 7.98 0.35 9.67
10/31/2022 12:45:00 AM 9.71 49.478 0.491 7.98 0.53 9.7
10/31/2022 1:00:00 AM 9.71 49.478 0.491 7.98 0.44 9.69
10/31/2022 1:15:00 AM 9.7 49.46 0.491 7.98 0.27 9.68
10/31/2022 1:30:00 AM 9.69 49.442 0.491 7.98 0.26 9.69
10/31/2022 1:45:00 AM 9.67 49.406 0.491 7.97 0.29 9.69
10/31/2022 2:00:00 AM 9.67 49.406 0.491 7.98 0.36 9.7
10/31/2022 2:15:00 AM 9.65 49.37 0.491 7.97 0.49 9.66
10/31/2022 2:30:00 AM 9.65 49.37 0.491 7.97 0.5 9.72
10/31/2022 2:45:00 AM 9.64 49.352 0.491 7.98 0.67 9.71
10/31/2022 3:00:00 AM 9.66 49.388 0.491 7.98 0.39 9.66
10/31/2022 3:15:00 AM 9.68 49.424 0.491 7.97 0.38 9.66
10/31/2022 3:30:00 AM 9.7 49.46 0.491 7.97 0.4 9.69
10/31/2022 3:45:00 AM 9.69 49.442 0.491 7.97 0.41 9.72
10/31/2022 4:00:00 AM 9.67 49.406 0.491 7.97 0.4 9.7
10/31/2022 4:15:00 AM 9.66 49.388 0.491 7.97 0.42 9.7
10/31/2022 4:30:00 AM 9.64 49.352 0.491 7.97 0.5 9.72
10/31/2022 4:45:00 AM 9.63 49.334 0.491 7.97 0.74 9.68
10/31/2022 5:00:00 AM 9.62 49.316 0.492 7.97 1.26 9.67
10/31/2022 5:15:00 AM 9.59 49.262 0.492 7.97 1.45 9.67
10/31/2022 5:30:00 AM 9.6 49.28 0.492 7.96 10.03 9.66
10/31/2022 5:45:00 AM 9.58 49.244 0.492 7.96 2.7 9.65
10/31/2022 6:00:00 AM 9.56 49.208 0.492 7.96 0.99 9.66
10/31/2022 6:15:00 AM 9.54 49.172 0.492 7.97 0.66 9.68
10/31/2022 6:30:00 AM 9.53 49.154 0.492 7.96 0.65 9.65
10/31/2022 6:45:00 AM 9.51 49.118 0.492 7.96 1.68 9.62
10/31/2022 7:00:00 AM 9.49 49.082 0.492 7.96 1.1 9.64
10/31/2022 7:15:00 AM 9.49 49.082 0.492 7.96 0.99 9.64
10/31/2022 7:30:00 AM 9.49 49.082 0.491 7.96 0.46 9.65
10/31/2022 7:45:00 AM 9.49 49.082 0.492 7.96 0.46 9.68
10/31/2022 8:00:00 AM 9.51 49.118 0.491 7.96 0.68 9.73
10/31/2022 8:15:00 AM 9.54 49.172 0.492 7.96 0.47 9.76
10/31/2022 8:30:00 AM 9.57 49.226 0.492 7.96 0.24 9.83
10/31/2022 8:45:00 AM 9.61 49.298 0.492 7.96 0.26 9.91
10/31/2022 9:00:00 AM 9.66 49.388 0.492 7.96 0.4 10.05
10/31/2022 9:15:00 AM 9.72 49.496 0.491 7.97 2.28 10.24
10/31/2022 9:30:00 AM 9.82 49.676 0.491 7.98 1.67 10.5
10/31/2022 9:45:00 AM 9.9 49.82 0.491 7.99 1.77 10.77
10/31/2022 10:00:00 AM 10.04 50.072 0.491 7.99 2.01 11.01
10/31/2022 10:15:00 AM 10.17 50.306 0.49 8.01 1.2 11.39
10/31/2022 10:30:00 AM 10.3 50.54 0.49 8.02 0.81 11.76
10/31/2022 10:45:00 AM 10.41 50.738 0.49 8.03 0.69 12.04
10/31/2022 11:00:00 AM 10.56 51.008 0.489 8.05 0.73 12.36
10/31/2022 11:15:00 AM 10.67 51.206 0.489 8.07 0.38 12.73
10/31/2022 11:30:00 AM 10.78 51.404 0.488 8.08 0.43 12.98
10/31/2022 11:45:00 AM 10.84 51.512 0.488 8.1 0.39 13.21
10/31/2022 12:00:00 PM 10.86 51.548 0.488 8.11 0.37 13.33
10/31/2022 12:15:00 PM 10.87 51.566 0.487 8.12 0.39 13.44
10/31/2022 12:30:00 PM 10.96 51.728 0.486 8.13 0.49 13.64
10/31/2022 12:45:00 PM 11.11 51.998 0.485 8.15 0.36 13.9
10/31/2022 1:00:00 PM 11.21 52.178 0.485 8.16 0.32 14.08
10/31/2022 1:15:00 PM 11.31 52.358 0.485 8.17 0.3 14.29
10/31/2022 1:30:00 PM 11.37 52.466 0.485 8.18 0.36 14.29
10/31/2022 1:45:00 PM 11.39 52.502 0.484 8.18 0.48 14.37
10/31/2022 2:00:00 PM 11.46 52.628 0.484 8.19 0.49 14.53
10/31/2022 2:15:00 PM 11.5 52.7 0.484 8.19 0.33 14.65
10/31/2022 2:30:00 PM 11.54 52.772 0.484 8.2 0.41 14.69
10/31/2022 2:45:00 PM 11.54 52.772 0.484 8.2 0.35 14.67
10/31/2022 3:00:00 PM 11.53 52.754 0.484 8.2 0.66 14.72
10/31/2022 3:15:00 PM 11.55 52.79 0.484 8.2 0.32 14.67
10/31/2022 3:30:00 PM 11.54 52.772 0.484 8.2 0.41 14.63
10/31/2022 3:45:00 PM 11.51 52.718 0.484 8.2 0.28 14.54
10/31/2022 4:00:00 PM 11.47 52.646 0.484 8.2 0.21 14.4
10/31/2022 4:15:00 PM 11.43 52.574 0.485 8.2 0.27 14.18
10/31/2022 4:30:00 PM 11.39 52.502 0.485 8.19 0.34 13.99
10/31/2022 4:45:00 PM 11.34 52.412 0.485 8.18 0.3 13.72
10/31/2022 5:00:00 PM 11.3 52.34 0.486 8.17 0.32 13.44
10/31/2022 5:15:00 PM 11.26 52.268 0.486 8.16 0.47 13.19
10/31/2022 5:30:00 PM 11.21 52.178 0.487 8.15 0.32 12.94
10/31/2022 5:45:00 PM 11.16 52.088 0.487 8.13 0.3 12.63
10/31/2022 6:00:00 PM 11.1 51.98 0.488 8.11 0.33 12.3
10/31/2022 6:15:00 PM 11.06 51.908 0.489 8.09 0.65 11.98
10/31/2022 6:30:00 PM 11.01 51.818 0.489 8.08 0.92 11.68
10/31/2022 6:45:00 PM 10.97 51.746 0.489 8.06 0.33 11.41
10/31/2022 7:00:00 PM 10.93 51.674 0.49 8.04 1.15 11.12
10/31/2022 7:15:00 PM 10.88 51.584 0.49 8.02 0.53 10.88
10/31/2022 7:30:00 PM 10.86 51.548 0.49 8 0.29 10.66
10/31/2022 7:45:00 PM 10.82 51.476 0.491 7.99 0.38 10.47
10/31/2022 8:00:00 PM 10.79 51.422 0.491 7.98 0.37 10.29
10/31/2022 8:15:00 PM 10.77 51.386 0.491 7.96 0.47 10.12
10/31/2022 8:30:00 PM 10.75 51.35 0.492 7.95 0.41 10.02
10/31/2022 8:45:00 PM 10.73 51.314 0.492 7.94 0.69 9.89
10/31/2022 9:00:00 PM 10.72 51.296 0.492 7.94 0.48 9.83
10/31/2022 9:15:00 PM 10.7 51.26 0.492 7.93 0.57 9.75
10/31/2022 9:30:00 PM 10.69 51.242 0.492 7.92 0.46 9.67
10/31/2022 9:45:00 PM 10.69 51.242 0.492 7.92 0.4 9.62
10/31/2022 10:00:00 PM 10.69 51.242 0.492 7.91 0.87 9.56
10/31/2022 10:15:00 PM 10.69 51.242 0.492 7.9 0.64 9.51
10/31/2022 10:30:00 PM 10.69 51.242 0.492 7.9 8.38 9.48
10/31/2022 10:45:00 PM 10.69 51.242 0.492 7.9 0.29 9.45
10/31/2022 11:00:00 PM 10.7 51.26 0.492 7.9 0.56 9.43
10/31/2022 11:15:00 PM 10.71 51.278 0.493 7.9 0.62 9.39
10/31/2022 11:30:00 PM 10.72 51.296 0.492 7.9 0.74 9.37
10/31/2022 11:45:00 PM 10.73 51.314 0.492 7.89 0.71 9.38
11/1/2022 12:00:00 AM 10.74 51.332 0.489 7.89 0.66 9.34
11/1/2022 12:15:00 AM 10.75 51.35 0.479 7.89 0.61 9.33
11/1/2022 12:30:00 AM 10.76 51.368 0.454 7.89 0.63 9.33
11/1/2022 12:45:00 AM 10.77 51.386 0.452 7.88 1.08 9.29
11/1/2022 1:00:00 AM 10.76 51.368 0.466 7.88 0.56 9.31
11/1/2022 1:15:00 AM 10.77 51.386 0.475 7.88 0.44 9.3
11/1/2022 1:30:00 AM 10.77 51.386 0.477 7.88 0.76 9.3
11/1/2022 1:45:00 AM 10.77 51.386 0.484 7.88 0.57 9.28
11/1/2022 2:00:00 AM 10.77 51.386 0.487 7.88 0.58 9.25
11/1/2022 2:15:00 AM 10.77 51.386 0.488 7.88 1.77 9.28
11/1/2022 2:30:00 AM 10.77 51.386 0.489 7.88 0.77 9.26
11/1/2022 2:45:00 AM 10.77 51.386 0.489 7.88 0.4 9.26
11/1/2022 3:00:00 AM 10.77 51.386 0.49 7.88 0.87 9.28
11/1/2022 3:15:00 AM 10.77 51.386 0.49 7.87 0.51 9.26
11/1/2022 3:30:00 AM 10.77 51.386 0.49 7.88 0.69 9.28
11/1/2022 3:45:00 AM 10.77 51.386 0.491 7.88 0.53 9.28
11/1/2022 4:00:00 AM 10.77 51.386 0.491 7.88 0.68 9.27
11/1/2022 4:15:00 AM 10.78 51.404 0.491 7.88 0.61 9.27
11/1/2022 4:30:00 AM 10.78 51.404 0.492 7.88 1.28 9.28
11/1/2022 4:45:00 AM 10.77 51.386 0.492 7.88 0.56 9.26
11/1/2022 5:00:00 AM 10.77 51.386 0.492 7.88 0.57 9.29
11/1/2022 5:15:00 AM 10.77 51.386 0.493 7.88 0.64 9.3
11/1/2022 5:30:00 AM 10.77 51.386 0.493 7.88 0.6 9.3
11/1/2022 5:45:00 AM 10.76 51.368 0.493 7.87 8.09 9.3
11/1/2022 6:00:00 AM 10.76 51.368 0.494 7.88 0.89 9.29
11/1/2022 6:15:00 AM 10.76 51.368 0.494 7.88 0.71 9.3
11/1/2022 6:30:00 AM 10.75 51.35 0.494 7.88 0.46 9.31
11/1/2022 6:45:00 AM 10.76 51.368 0.495 7.87 0.54 9.28
11/1/2022 7:00:00 AM 10.76 51.368 0.495 7.88 0.39 9.28
11/1/2022 7:15:00 AM 10.76 51.368 0.495 7.87 0.37 9.29
11/1/2022 7:30:00 AM 10.76 51.368 0.495 7.87 0.52 9.27
11/1/2022 7:45:00 AM 10.75 51.35 0.496 7.87 1.45 9.29
11/1/2022 8:00:00 AM 10.76 51.368 0.496 7.87 0.42 9.32
11/1/2022 8:15:00 AM 10.77 51.386 0.496 7.87 0.33 9.35
11/1/2022 8:30:00 AM 10.79 51.422 0.496 7.88 0.3 9.4
11/1/2022 8:45:00 AM 10.8 51.44 0.496 7.87 0.48 9.47
11/1/2022 9:00:00 AM 10.84 51.512 0.496 7.88 0.48 9.59
11/1/2022 9:15:00 AM 10.93 51.674 0.496 7.89 0.74 9.82
11/1/2022 9:30:00 AM 10.99 51.782 0.496 7.9 0.55 10.12
11/1/2022 9:45:00 AM 11.04 51.872 0.496 7.91 0.33 10.35
11/1/2022 10:00:00 AM 11.1 51.98 0.496 7.92 0.76 10.56
11/1/2022 10:15:00 AM 11.18 52.124 0.495 7.93 0.58 10.94
11/1/2022 10:30:00 AM 11.32 52.376 0.494 7.95 0.38 11.23
11/1/2022 10:45:00 AM 11.4 52.52 0.495 7.96 0.47 11.56
11/1/2022 11:00:00 AM 11.53 52.754 0.494 7.98 0.38 11.88
11/1/2022 11:15:00 AM 11.62 52.916 0.494 7.99 0.51 12.2
11/1/2022 11:30:00 AM 11.75 53.15 0.493 8.01 0.7 12.54
11/1/2022 11:45:00 AM 11.95 53.51 0.492 8.02 1.92 12.85
11/1/2022 12:00:00 PM 12.13 53.834 0.492 8.04 0.66 13.24
11/1/2022 12:15:00 PM 12.24 54.032 0.492 8.06 2.34 13.57
11/1/2022 12:30:00 PM 12.36 54.248 0.491 8.07 0.73 13.75
11/1/2022 12:45:00 PM 12.61 54.698 0.49 8.08 0.41 13.97
11/1/2022 1:00:00 PM 12.85 55.13 0.489 8.09 0.53 14.32
11/1/2022 1:15:00 PM 13 55.4 0.489 8.11 0.39 14.59
11/1/2022 1:30:00 PM 13.12 55.616 0.489 8.12 0.43 14.63
11/1/2022 1:45:00 PM 13.13 55.634 0.49 8.13 0.67 14.74
11/1/2022 2:00:00 PM 13.31 55.958 0.488 8.13 0.88 14.78
11/1/2022 2:15:00 PM 13.33 55.994 0.489 8.14 0.79 14.85
11/1/2022 2:30:00 PM 13.59 56.462 0.488 8.14 0.54 14.98
11/1/2022 2:45:00 PM 13.74 56.732 0.489 8.12 1.25 15.18
11/1/2022 3:00:00 PM 13.87 56.966 0.489 8.13 0.39 15.22
11/1/2022 3:15:00 PM 13.98 57.164 0.489 8.12 0.55 15.08
11/1/2022 3:30:00 PM 13.88 56.984 0.49 8.13 0.51 15.04
11/1/2022 3:45:00 PM 13.82 56.876 0.491 8.14 0.56 14.84
11/1/2022 4:00:00 PM 13.78 56.804 0.49 8.15 0.44 14.74
11/1/2022 4:15:00 PM 13.7 56.66 0.49 8.15 0.59 14.6
11/1/2022 4:30:00 PM 13.72 56.696 0.49 8.13 0.78 14.58
11/1/2022 4:45:00 PM 13.69 56.642 0.49 8.13 0.61 14.52
11/1/2022 5:00:00 PM 13.58 56.444 0.491 8.13 0.55 14.22
11/1/2022 5:15:00 PM 13.44 56.192 0.492 8.13 0.48 13.89
11/1/2022 5:30:00 PM 13.31 55.958 0.492 8.14 0.56 13.56
11/1/2022 5:45:00 PM 13.19 55.742 0.492 8.13 0.6 13.23
11/1/2022 6:00:00 PM 13.06 55.508 0.493 8.12 1.34 12.83
11/1/2022 6:15:00 PM 12.92 55.256 0.493 8.11 1.3 12.48
11/1/2022 6:30:00 PM 12.77 54.986 0.494 8.1 1.48 12.1
11/1/2022 6:45:00 PM 12.64 54.752 0.494 8.08 0.46 11.74
11/1/2022 7:00:00 PM 12.51 54.518 0.495 8.07 0.41 11.38
11/1/2022 7:15:00 PM 12.39 54.302 0.496 8.05 1.19 11.05
11/1/2022 7:30:00 PM 12.26 54.068 0.497 8.03 0.38 10.74
11/1/2022 7:45:00 PM 12.15 53.87 0.497 8.01 0.56 10.46
11/1/2022 8:00:00 PM 12.05 53.69 0.498 7.99 0.5 10.19
11/1/2022 8:15:00 PM 11.95 53.51 0.498 7.98 0.53 9.96
11/1/2022 8:30:00 PM 11.86 53.348 0.499 7.96 0.41 9.77
11/1/2022 8:45:00 PM 11.79 53.222 0.499 7.95 0.5 9.62
11/1/2022 9:00:00 PM 11.71 53.078 0.499 7.94 0.64 9.49
11/1/2022 9:15:00 PM 11.64 52.952 0.499 7.93 0.56 9.39
11/1/2022 9:30:00 PM 11.59 52.862 0.5 7.92 0.55 9.33
11/1/2022 9:45:00 PM 11.56 52.808 0.499 7.92 0.49 9.24
11/1/2022 10:00:00 PM 11.55 52.79 0.5 7.91 0.45 9.19
11/1/2022 10:15:00 PM 11.51 52.718 0.5 7.9 0.78 9.16
11/1/2022 10:30:00 PM 11.48 52.664 0.5 7.9 0.56 9.12
11/1/2022 10:45:00 PM 11.43 52.574 0.499 7.9 1.3 9.11
11/1/2022 11:00:00 PM 11.4 52.52 0.5 7.9 0.44 9.08
11/1/2022 11:15:00 PM 11.37 52.466 0.499 7.9 0.47 9.07
11/1/2022 11:30:00 PM 11.34 52.412 0.499 7.9 0.56 9.04
11/1/2022 11:45:00 PM 11.31 52.358 0.499 7.9 1.95 9.06
11/2/2022 12:00:00 AM 11.28 52.304 0.499 7.9 0.68 9.06
11/2/2022 12:15:00 AM 11.25 52.25 0.499 7.9 0.48 9.04
11/2/2022 12:30:00 AM 11.23 52.214 0.499 7.89 0.95 9.02
11/2/2022 12:45:00 AM 11.22 52.196 0.499 7.9 0.7 9.05
11/2/2022 1:00:00 AM 11.21 52.178 0.499 7.89 0.52 9.05
11/2/2022 1:15:00 AM 11.2 52.16 0.499 7.89 0.6 9.04
11/2/2022 1:30:00 AM 11.19 52.142 0.499 7.89 0.46 9.07
11/2/2022 1:45:00 AM 11.18 52.124 0.499 7.89 1.34 9.05
11/2/2022 2:00:00 AM 11.16 52.088 0.5 7.89 0.58 9.03
11/2/2022 2:15:00 AM 11.14 52.052 0.5 7.89 0.55 9.03
11/2/2022 2:30:00 AM 11.13 52.034 0.499 7.89 0.33 9.05
11/2/2022 2:45:00 AM 11.13 52.034 0.499 7.88 0.63 9.03
11/2/2022 3:00:00 AM 11.12 52.016 0.5 7.88 0.73 9.05
11/2/2022 3:15:00 AM 11.11 51.998 0.5 7.88 0.48 9.06
11/2/2022 3:30:00 AM 11.1 51.98 0.5 7.88 0.53 9.07
11/2/2022 3:45:00 AM 11.1 51.98 0.5 7.88 1.47 9.06
11/2/2022 4:00:00 AM 11.09 51.962 0.5 7.88 0.93 9.07
11/2/2022 4:15:00 AM 11.07 51.926 0.5 7.88 0.64 9.07
11/2/2022 4:30:00 AM 11.07 51.926 0.5 7.88 0.81 9.07
11/2/2022 4:45:00 AM 11.06 51.908 0.5 7.88 0.59 9.06
11/2/2022 5:00:00 AM 11.06 51.908 0.5 7.88 0.73 9.07
11/2/2022 5:15:00 AM 11.05 51.89 0.5 7.88 0.9 9.07
11/2/2022 5:30:00 AM 11.03 51.854 0.5 7.88 0.97 9.06
11/2/2022 5:45:00 AM 11.02 51.836 0.5 7.88 0.66 9.07
11/2/2022 6:00:00 AM 10.99 51.782 0.501 7.88 0.48 9.04
11/2/2022 6:15:00 AM 10.98 51.764 0.5 7.88 1.75 9.05
11/2/2022 6:30:00 AM 10.96 51.728 0.501 7.88 1.36 9.05
11/2/2022 6:45:00 AM 10.94 51.692 0.501 7.88 1.45 9.05
11/2/2022 7:00:00 AM 10.92 51.656 0.501 7.88 0.91 9.04
11/2/2022 7:15:00 AM 10.9 51.62 0.501 7.88 0.73 9.08
11/2/2022 7:30:00 AM 10.87 51.566 0.501 7.88 0.74 9.07
11/2/2022 7:45:00 AM 10.85 51.53 0.501 7.89 1 9.07
11/2/2022 8:00:00 AM 10.83 51.494 0.5 7.89 0.92 9.11
11/2/2022 8:15:00 AM 10.83 51.494 0.5 7.89 0.6 9.16
11/2/2022 8:30:00 AM 10.83 51.494 0.5 7.89 0.83 9.23
11/2/2022 8:45:00 AM 10.84 51.512 0.5 7.89 0.39 9.35
11/2/2022 9:00:00 AM 10.88 51.584 0.5 7.89 0.65 9.44
11/2/2022 9:15:00 AM 10.93 51.674 0.5 7.9 0.61 9.61
11/2/2022 9:30:00 AM 11.02 51.836 0.499 7.9 0.61 9.8
11/2/2022 9:45:00 AM 11.1 51.98 0.499 7.91 0.94 10.03
11/2/2022 10:00:00 AM 11.19 52.142 0.499 7.91 0.3 10.27
11/2/2022 10:15:00 AM 11.3 52.34 0.499 7.92 0.49 10.53
11/2/2022 10:30:00 AM 11.39 52.502 0.498 7.93 0.75 10.76
11/2/2022 10:45:00 AM 11.51 52.718 0.498 7.94 0.88 11.02
11/2/2022 11:00:00 AM 11.63 52.934 0.497 7.95 1.34 11.29
11/2/2022 11:15:00 AM 11.78 53.204 0.497 7.97 0.62 11.56
11/2/2022 11:30:00 AM 11.96 53.528 0.496 7.98 0.47 11.89
11/2/2022 11:45:00 AM 12.16 53.888 0.496 7.99 0.48 12.15
11/2/2022 12:00:00 PM 12.41 54.338 0.495 8.01 0.65 12.49
11/2/2022 12:15:00 PM 12.65 54.77 0.494 8.02 0.29 12.85
11/2/2022 12:30:00 PM 12.93 55.274 0.494 8.03 30.15 13.13
11/2/2022 12:45:00 PM 13.19 55.742 0.493 8.05 1.32 13.48
11/2/2022 1:00:00 PM 13.57 56.426 0.492 8.07 0.61 13.77
11/2/2022 1:15:00 PM 13.9 57.02 0.492 8.08 0.51 14.07
11/2/2022 1:30:00 PM 14.23 57.614 0.491 8.09 0.77 14.38
11/2/2022 1:45:00 PM 14.57 58.226 0.491 8.1 0.57 14.56
11/2/2022 2:00:00 PM 14.82 58.676 0.491 8.1 0.53 14.82
11/2/2022 2:15:00 PM 14.95 58.91 0.491 8.11 0.62 14.97
11/2/2022 2:30:00 PM 15.14 59.252 0.491 8.12 0.51 15.24
11/2/2022 2:45:00 PM 15.32 59.576 0.491 8.12 0.53 15.23
11/2/2022 3:00:00 PM 15.36 59.648 0.492 8.12 0.51 15.26
11/2/2022 3:15:00 PM 15.28 59.504 0.493 8.13 0.62 15.14
11/2/2022 3:30:00 PM 15.28 59.504 0.492 8.13 0.4 15.09
11/2/2022 3:45:00 PM 15.37 59.666 0.492 8.13 0.42 15.13
11/2/2022 4:00:00 PM 15.26 59.468 0.493 8.13 0.36 15.02
11/2/2022 4:15:00 PM 15.11 59.198 0.493 8.13 0.57 14.85
11/2/2022 4:30:00 PM 14.95 58.91 0.493 8.13 0.53 14.67
11/2/2022 4:45:00 PM 14.83 58.694 0.493 8.13 0.52 14.45
11/2/2022 5:00:00 PM 14.71 58.478 0.493 8.13 0.76 14.29
11/2/2022 5:15:00 PM 14.59 58.262 0.493 8.13 0.87 13.99
11/2/2022 5:30:00 PM 14.42 57.956 0.493 8.13 0.81 13.6
11/2/2022 5:45:00 PM 14.26 57.668 0.493 8.13 0.45 13.21
11/2/2022 6:00:00 PM 14.09 57.362 0.494 8.12 0.51 12.81
11/2/2022 6:15:00 PM 13.93 57.074 0.494 8.11 0.41 12.38
11/2/2022 6:30:00 PM 13.79 56.822 0.495 8.1 0.59 11.98
11/2/2022 6:45:00 PM 13.62 56.516 0.495 8.08 0.5 11.54
11/2/2022 7:00:00 PM 13.46 56.228 0.496 8.07 0.59 11.15
11/2/2022 7:15:00 PM 13.32 55.976 0.497 8.04 3.27 10.75
11/2/2022 7:30:00 PM 13.18 55.724 0.498 8.02 1.1 10.4
11/2/2022 7:45:00 PM 13.07 55.526 0.498 8 0.72 10.09
11/2/2022 8:00:00 PM 12.96 55.328 0.499 7.98 0.58 9.82
11/2/2022 8:15:00 PM 12.86 55.148 0.499 7.97 0.51 9.55
11/2/2022 8:30:00 PM 12.77 54.986 0.499 7.94 0.66 9.37
11/2/2022 8:45:00 PM 12.68 54.824 0.5 7.94 0.47 9.18
11/2/2022 9:00:00 PM 12.61 54.698 0.5 7.92 0.57 9.03
11/2/2022 9:15:00 PM 12.55 54.59 0.5 7.91 0.44 8.92
11/2/2022 9:30:00 PM 12.49 54.482 0.5 7.9 0.44 8.83
11/2/2022 9:45:00 PM 12.43 54.374 0.5 7.9 0.46 8.74
11/2/2022 10:00:00 PM 12.39 54.302 0.5 7.89 3.03 8.68
11/2/2022 10:15:00 PM 12.35 54.23 0.5 7.88 2.75 8.63
11/2/2022 10:30:00 PM 12.31 54.158 0.5 7.88 1.34 8.62
11/2/2022 10:45:00 PM 12.27 54.086 0.5 7.88 0.68 8.6
11/2/2022 11:00:00 PM 12.24 54.032 0.5 7.88 6.78 8.57
11/2/2022 11:15:00 PM 12.2 53.96 0.5 7.88 0.91 8.55
11/2/2022 11:30:00 PM 12.16 53.888 0.5 7.88 1 8.56
11/2/2022 11:45:00 PM 12.12 53.816 0.5 7.88 0.59 8.53
11/3/2022 12:00:00 AM 12.09 53.762 0.5 7.87 0.53 8.56
11/3/2022 12:15:00 AM 12.05 53.69 0.5 7.87 0.57 8.53
11/3/2022 12:30:00 AM 11.99 53.582 0.5 7.87 0.54 8.53
11/3/2022 12:45:00 AM 11.96 53.528 0.5 7.87 1.44 8.53
11/3/2022 1:00:00 AM 11.92 53.456 0.5 7.88 0.73 8.55
11/3/2022 1:15:00 AM 11.87 53.366 0.5 7.88 0.9 8.52
11/3/2022 1:30:00 AM 11.83 53.294 0.5 7.87 1.26 8.53
11/3/2022 1:45:00 AM 11.78 53.204 0.5 7.87 0.56 8.54
11/3/2022 2:00:00 AM 11.74 53.132 0.5 7.87 0.66 8.56
11/3/2022 2:15:00 AM 11.7 53.06 0.5 7.88 0.43 8.55
11/3/2022 2:30:00 AM 11.66 52.988 0.5 7.87 0.38 8.58
11/3/2022 2:45:00 AM 11.61 52.898 0.5 7.87 0.72 8.58
11/3/2022 3:00:00 AM 11.57 52.826 0.5 7.87 0.77 8.58
11/3/2022 3:15:00 AM 11.53 52.754 0.5 7.87 0.84 8.58
11/3/2022 3:30:00 AM 11.49 52.682 0.5 7.88 1.39 8.6
11/3/2022 3:45:00 AM 11.45 52.61 0.5 7.87 1.31 8.59
11/3/2022 4:00:00 AM 11.41 52.538 0.5 7.87 1.4 8.6
11/3/2022 4:15:00 AM 11.37 52.466 0.5 7.87 3.18 8.6
11/3/2022 4:30:00 AM 11.34 52.412 0.5 7.87 4.17 8.6
11/3/2022 4:45:00 AM 11.29 52.322 0.5 7.87 1.65 8.61
11/3/2022 5:00:00 AM 11.25 52.25 0.5 7.87 1.22 8.62
11/3/2022 5:15:00 AM 11.23 52.214 0.5 7.87 1.02 8.61
11/3/2022 5:30:00 AM 11.19 52.142 0.5 7.87 0.77 8.65
11/3/2022 5:45:00 AM 11.15 52.07 0.501 7.87 0.42 8.64
11/3/2022 6:00:00 AM 11.13 52.034 0.501 7.87 1.24 8.67
11/3/2022 6:15:00 AM 11.09 51.962 0.501 7.87 1.45 8.65
11/3/2022 6:30:00 AM 11.07 51.926 0.501 7.87 0.66 8.66
11/3/2022 6:45:00 AM 11.05 51.89 0.501 7.87 0.74 8.69
11/3/2022 7:00:00 AM 11.01 51.818 0.501 7.87 0.61 8.68
11/3/2022 7:15:00 AM 10.99 51.782 0.501 7.87 0.59 8.7
11/3/2022 7:30:00 AM 10.95 51.71 0.501 7.87 0.43 8.7
11/3/2022 7:45:00 AM 10.92 51.656 0.502 7.87 0.86 8.7
11/3/2022 8:00:00 AM 10.91 51.638 0.501 7.87 0.62 8.75
11/3/2022 8:15:00 AM 10.91 51.638 0.501 7.87 0.53 8.8
11/3/2022 8:30:00 AM 10.89 51.602 0.501 7.88 0.76 8.88
11/3/2022 8:45:00 AM 10.89 51.602 0.501 7.88 0.46 8.98
11/3/2022 9:00:00 AM 10.92 51.656 0.501 7.89 0.67 9.14
11/3/2022 9:15:00 AM 10.97 51.746 0.501 7.9 0.43 9.31
11/3/2022 9:30:00 AM 11.02 51.836 0.501 7.9 0.62 9.49
11/3/2022 9:45:00 AM 11.11 51.998 0.501 7.91 0.53 9.7
11/3/2022 10:00:00 AM 11.21 52.178 0.501 7.91 0.5 9.92
11/3/2022 10:15:00 AM 11.31 52.358 0.501 7.92 0.62 10.16
11/3/2022 10:30:00 AM 11.41 52.538 0.5 7.93 0.66 10.42
11/3/2022 10:45:00 AM 11.54 52.772 0.5 7.94 0.54 10.68
11/3/2022 11:00:00 AM 11.68 53.024 0.5 7.95 0.54 10.95
11/3/2022 11:15:00 AM 11.84 53.312 0.499 7.96 0.51 11.25
11/3/2022 11:30:00 AM 12.03 53.654 0.499 7.97 0.75 11.54
11/3/2022 11:45:00 AM 12.25 54.05 0.498 7.99 0.46 11.86
11/3/2022 12:00:00 PM 12.51 54.518 0.498 8 0.64 12.18
11/3/2022 12:15:00 PM 12.78 55.004 0.497 8.01 0.43 12.54
11/3/2022 12:30:00 PM 13.09 55.562 0.496 8.02 0.71 12.92
11/3/2022 12:45:00 PM 13.42 56.156 0.495 8.04 0.39 13.29
11/3/2022 1:00:00 PM 13.75 56.75 0.495 8.05 0.47 13.63
11/3/2022 1:15:00 PM 14.11 57.398 0.494 8.05 1.28 13.97
11/3/2022 1:30:00 PM 14.44 57.992 0.494 8.06 0.97 14.28
11/3/2022 1:45:00 PM 14.76 58.568 0.493 8.07 0.36 14.5
11/3/2022 2:00:00 PM 15.04 59.072 0.492 8.08 0.54 14.71
11/3/2022 2:15:00 PM 15.28 59.504 0.492 8.09 0.59 14.98
11/3/2022 2:30:00 PM 15.48 59.864 0.492 8.1 0.67 15.08
11/3/2022 2:45:00 PM 15.65 60.17 0.491 8.1 0.49 15.2
11/3/2022 3:00:00 PM 15.78 60.404 0.492 8.1 0.77 15.27
11/3/2022 3:15:00 PM 15.86 60.548 0.492 8.1 1.07 15.43
11/3/2022 3:30:00 PM 15.91 60.638 0.492 8.11 0.62 15.39
11/3/2022 3:45:00 PM 15.91 60.638 0.492 8.11 0.55 15.38
11/3/2022 4:00:00 PM 15.89 60.602 0.493 8.11 0.66 15.27
11/3/2022 4:15:00 PM 15.81 60.458 0.493 8.1 0.59 15.23
11/3/2022 4:30:00 PM 15.62 60.116 0.493 8.09 0.77 14.95
11/3/2022 4:45:00 PM 15.38 59.684 0.493 8.11 1.17 14.58
11/3/2022 5:00:00 PM 15.17 59.306 0.493 8.11 1.69 14.25
11/3/2022 5:15:00 PM 14.97 58.946 0.493 8.1 0.85 13.88
11/3/2022 5:30:00 PM 14.76 58.568 0.494 8.1 1.01 13.47
11/3/2022 5:45:00 PM 14.58 58.244 0.494 8.1 0.88 13.08
11/3/2022 6:00:00 PM 14.36 57.848 0.495 8.1 0.94 12.65
11/3/2022 6:15:00 PM 14.16 57.488 0.495 8.1 0.85 12.2
11/3/2022 6:30:00 PM 13.95 57.11 0.496 8.08 0.8 11.75
11/3/2022 6:45:00 PM 13.75 56.75 0.497 8.06 0.45 11.29
11/3/2022 7:00:00 PM 13.54 56.372 0.497 8.05 0.56 10.9
11/3/2022 7:15:00 PM 13.37 56.066 0.498 8.03 0.7 10.51
11/3/2022 7:30:00 PM 13.21 55.778 0.498 8.01 0.8 10.2
11/3/2022 7:45:00 PM 13.07 55.526 0.498 7.99 0.72 9.91
11/3/2022 8:00:00 PM 12.92 55.256 0.499 7.98 0.67 9.64
11/3/2022 8:15:00 PM 12.8 55.04 0.499 7.96 0.61 9.42
11/3/2022 8:30:00 PM 12.67 54.806 0.499 7.95 0.64 9.24
11/3/2022 8:45:00 PM 12.57 54.626 0.499 7.94 0.82 9.06
11/3/2022 9:00:00 PM 12.46 54.428 0.5 7.93 1.09 8.93
11/3/2022 9:15:00 PM 12.36 54.248 0.499 7.92 1.46 8.84
11/3/2022 9:30:00 PM 12.27 54.086 0.5 7.91 0.66 8.76
11/3/2022 9:45:00 PM 12.19 53.942 0.499 7.91 0.52 8.7
11/3/2022 10:00:00 PM 12.11 53.798 0.499 7.9 0.52 8.66
11/3/2022 10:15:00 PM 12.04 53.672 0.499 7.9 0.85 8.63
11/3/2022 10:30:00 PM 11.97 53.546 0.499 7.9 0.43 8.62
11/3/2022 10:45:00 PM 11.91 53.438 0.499 7.9 1.24 8.59
11/3/2022 11:00:00 PM 11.86 53.348 0.499 7.9 0.48 8.59
11/3/2022 11:15:00 PM 11.82 53.276 0.499 7.89 0.51 8.58
11/3/2022 11:30:00 PM 11.78 53.204 0.499 7.9 0.74 8.59
11/3/2022 11:45:00 PM 11.74 53.132 0.499 7.89 1.98 8.59
11/4/2022 12:00:00 AM 11.7 53.06 0.499 7.89 1.18 8.6
11/4/2022 12:15:00 AM 11.66 52.988 0.499 7.89 0.82 8.61
11/4/2022 12:30:00 AM 11.63 52.934 0.499 7.9 0.83 8.57
11/4/2022 12:45:00 AM 11.61 52.898 0.499 7.89 0.92 8.63
11/4/2022 1:00:00 AM 11.56 52.808 0.499 7.89 0.83 8.63
11/4/2022 1:15:00 AM 11.54 52.772 0.499 7.89 0.44 8.59
11/4/2022 1:30:00 AM 11.51 52.718 0.499 7.89 0.57 8.63
11/4/2022 1:45:00 AM 11.49 52.682 0.499 7.89 0.72 8.64
11/4/2022 2:00:00 AM 11.46 52.628 0.499 7.89 0.56 8.64
11/4/2022 2:15:00 AM 11.43 52.574 0.499 7.89 0.53 8.64
11/4/2022 2:30:00 AM 11.41 52.538 0.499 7.89 0.76 8.65
11/4/2022 2:45:00 AM 11.38 52.484 0.499 7.89 0.69 8.64
11/4/2022 3:00:00 AM 11.36 52.448 0.499 7.89 0.73 8.65
11/4/2022 3:15:00 AM 11.32 52.376 0.499 7.89 0.47 8.66
11/4/2022 3:30:00 AM 11.31 52.358 0.498 7.89 0.87 8.68
11/4/2022 3:45:00 AM 11.29 52.322 0.499 7.89 0.53 8.7
11/4/2022 4:00:00 AM 11.25 52.25 0.499 7.89 0.76 8.71
11/4/2022 4:15:00 AM 11.21 52.178 0.498 7.89 0.43 8.7
11/4/2022 4:30:00 AM 11.21 52.178 0.498 7.89 0.51 8.7
11/4/2022 4:45:00 AM 11.18 52.124 0.498 7.89 0.69 8.7
11/4/2022 5:00:00 AM 11.16 52.088 0.498 7.89 0.91 8.72
11/4/2022 5:15:00 AM 11.12 52.016 0.499 7.89 1.32 8.69
11/4/2022 5:30:00 AM 11.1 51.98 0.499 7.89 0.75 8.71
11/4/2022 5:45:00 AM 11.08 51.944 0.498 7.88 0.57 8.71
11/4/2022 6:00:00 AM 11.05 51.89 0.499 7.88 0.78 8.7
11/4/2022 6:15:00 AM 11.03 51.854 0.499 7.88 0.58 8.69
11/4/2022 6:30:00 AM 10.99 51.782 0.499 7.88 0.74 8.71
11/4/2022 6:45:00 AM 10.96 51.728 0.499 7.88 0.78 8.68
11/4/2022 7:00:00 AM 10.95 51.71 0.498 7.88 0.99 8.69
11/4/2022 7:15:00 AM 10.93 51.674 0.498 7.88 0.93 8.7
11/4/2022 7:30:00 AM 10.9 51.62 0.498 7.87 0.74 8.71
11/4/2022 7:45:00 AM 10.89 51.602 0.498 7.87 1.6 8.71
11/4/2022 8:00:00 AM 10.86 51.548 0.498 7.87 1.08 8.74
11/4/2022 8:15:00 AM 10.87 51.566 0.498 7.87 0.65 8.81
11/4/2022 8:30:00 AM 10.88 51.584 0.498 7.88 0.68 8.9
11/4/2022 8:45:00 AM 10.9 51.62 0.498 7.88 0.62 9.08
11/4/2022 9:00:00 AM 10.93 51.674 0.498 7.89 0.64 9.26
11/4/2022 9:15:00 AM 10.97 51.746 0.497 7.9 0.66 9.44
11/4/2022 9:30:00 AM 11.04 51.872 0.497 7.9 0.6 9.7
11/4/2022 9:45:00 AM 11.12 52.016 0.497 7.91 0.65 9.94
11/4/2022 10:00:00 AM 11.23 52.214 0.496 7.92 0.5 10.31
11/4/2022 10:15:00 AM 11.33 52.394 0.496 7.93 0.3 10.59
11/4/2022 10:30:00 AM 11.41 52.538 0.495 7.94 0.49 10.89
11/4/2022 10:45:00 AM 11.54 52.772 0.495 7.95 0.48 11.17
11/4/2022 11:00:00 AM 11.67 53.006 0.494 7.97 0.56 11.51
11/4/2022 11:15:00 AM 11.86 53.348 0.494 7.98 0.41 11.85
11/4/2022 11:30:00 AM 12.04 53.672 0.493 7.99 0.39 12.19
11/4/2022 11:45:00 AM 12.26 54.068 0.493 8.01 0.44 12.55
11/4/2022 12:00:00 PM 12.52 54.536 0.492 8.02 0.45 12.91
11/4/2022 12:15:00 PM 12.79 55.022 0.491 8.04 0.52 13.27
11/4/2022 12:30:00 PM 13.08 55.544 0.49 8.05 0.45 13.62
11/4/2022 12:45:00 PM 13.41 56.138 0.489 8.06 0.73 13.96
11/4/2022 1:00:00 PM 13.79 56.822 0.488 8.07 0.43 14.33
11/4/2022 1:15:00 PM 14.15 57.47 0.488 8.09 0.45 14.62
11/4/2022 1:30:00 PM 14.54 58.172 0.487 8.09 0.53 14.9
11/4/2022 1:45:00 PM 14.86 58.748 0.487 8.09 0.47 15.17
11/4/2022 2:00:00 PM 15.15 59.27 0.487 8.09 0.38 15.39
11/4/2022 2:15:00 PM 15.42 59.756 0.487 8.09 0.54 15.53
11/4/2022 2:30:00 PM 15.64 60.152 0.487 8.1 0.57 15.67
11/4/2022 2:45:00 PM 15.8 60.44 0.487 8.11 0.48 15.76
11/4/2022 3:00:00 PM 15.96 60.728 0.487 8.11 0.98 15.84
11/4/2022 3:15:00 PM 16.02 60.836 0.487 8.11 0.54 15.78
11/4/2022 3:30:00 PM 16.06 60.908 0.486 8.12 0.84 15.74
11/4/2022 3:45:00 PM 16.08 60.944 0.487 8.11 0.53 15.65
11/4/2022 4:00:00 PM 16.06 60.908 0.487 8.11 0.65 15.59
11/4/2022 4:15:00 PM 15.94 60.692 0.487 8.12 0.6 15.51
11/4/2022 4:30:00 PM 15.77 60.386 0.486 8.14 1.27 15.21
11/4/2022 4:45:00 PM 15.55 59.99 0.487 8.14 0.79 14.91
11/4/2022 5:00:00 PM 15.38 59.684 0.488 8.14 0.52 14.65
11/4/2022 5:15:00 PM 15.19 59.342 0.489 8.13 0.42 14.3
11/4/2022 5:30:00 PM 14.97 58.946 0.49 8.12 0.59 13.92
11/4/2022 5:45:00 PM 14.78 58.604 0.49 8.11 0.49 13.5
11/4/2022 6:00:00 PM 14.55 58.19 0.491 8.11 0.41 13
11/4/2022 6:15:00 PM 14.37 57.866 0.492 8.1 0.5 12.53
11/4/2022 6:30:00 PM 14.19 57.542 0.492 8.09 0.83 12.05
11/4/2022 6:45:00 PM 14.02 57.236 0.493 8.07 0.71 11.64
11/4/2022 7:00:00 PM 13.82 56.876 0.494 8.05 0.77 11.13
11/4/2022 7:15:00 PM 13.66 56.588 0.495 8.03 1.51 10.75
11/4/2022 7:30:00 PM 13.52 56.336 0.495 8.01 2.97 10.4
11/4/2022 7:45:00 PM 13.39 56.102 0.496 7.99 0.46 10.08
11/4/2022 8:00:00 PM 13.25 55.85 0.496 7.97 0.53 9.77
11/4/2022 8:15:00 PM 13.12 55.616 0.497 7.96 0.62 9.51
11/4/2022 8:30:00 PM 13 55.4 0.497 7.94 0.98 9.27
11/4/2022 8:45:00 PM 12.88 55.184 0.497 7.93 0.54 9.09
11/4/2022 9:00:00 PM 12.77 54.986 0.498 7.91 0.42 8.93
11/4/2022 9:15:00 PM 12.66 54.788 0.498 7.9 0.81 8.82
11/4/2022 9:30:00 PM 12.57 54.626 0.498 7.89 0.5 8.73
11/4/2022 9:45:00 PM 12.48 54.464 0.498 7.88 0.64 8.67
11/4/2022 10:00:00 PM 12.41 54.338 0.497 7.88 0.5 8.63
11/4/2022 10:15:00 PM 12.35 54.23 0.497 7.87 0.88 8.6
11/4/2022 10:30:00 PM 12.29 54.122 0.497 7.86 0.48 8.57
11/4/2022 10:45:00 PM 12.23 54.014 0.497 7.86 0.54 8.54
11/4/2022 11:00:00 PM 12.2 53.96 0.497 7.85 0.55 8.53
11/4/2022 11:15:00 PM 12.17 53.906 0.497 7.86 0.92 8.54
11/4/2022 11:30:00 PM 12.13 53.834 0.497 7.85 0.62 8.54
11/4/2022 11:45:00 PM 12.11 53.798 0.497 7.85 0.4 8.52
11/5/2022 12:00:00 AM 12.09 53.762 0.497 7.85 0.56 8.56
11/5/2022 12:15:00 AM 12.08 53.744 0.497 7.86 0.46 8.52
11/5/2022 12:30:00 AM 12.07 53.726 0.497 7.86 0.54 8.54
11/5/2022 12:45:00 AM 12.06 53.708 0.497 7.86 0.6 8.53
11/5/2022 1:00:00 AM 12.06 53.708 0.497 7.86 0.49 8.51
11/5/2022 1:15:00 AM 12.06 53.708 0.497 7.85 0.46 8.53
11/5/2022 1:30:00 AM 12.06 53.708 0.497 7.86 0.87 8.58
11/5/2022 1:45:00 AM 12.05 53.69 0.497 7.86 0.58 8.6
11/5/2022 2:00:00 AM 12.04 53.672 0.497 7.87 1.21 8.6
11/5/2022 2:15:00 AM 12.03 53.654 0.497 7.86 0.52 8.62
11/5/2022 2:30:00 AM 12.03 53.654 0.497 7.87 0.58 8.6
11/5/2022 2:45:00 AM 12.03 53.654 0.496 7.87 0.7 8.58
11/5/2022 3:00:00 AM 12.05 53.69 0.496 7.87 2.95 8.55
11/5/2022 3:15:00 AM 12.09 53.762 0.496 7.86 2.41 8.57
11/5/2022 3:30:00 AM 12.12 53.816 0.496 7.86 1.03 8.57
11/5/2022 3:45:00 AM 12.15 53.87 0.496 7.86 0.62 8.56
11/5/2022 4:00:00 AM 12.18 53.924 0.496 7.86 1.15 8.54
11/5/2022 4:15:00 AM 12.21 53.978 0.496 7.86 0.76 8.53
11/5/2022 4:30:00 AM 12.24 54.032 0.496 7.86 1.04 8.51
11/5/2022 4:45:00 AM 12.26 54.068 0.496 7.85 0.27 8.54
11/5/2022 5:00:00 AM 12.28 54.104 0.497 7.85 1.82 8.5
11/5/2022 5:15:00 AM 12.31 54.158 0.496 7.85 0.62 8.52
11/5/2022 5:30:00 AM 12.33 54.194 0.497 7.85 0.73 8.5
11/5/2022 5:45:00 AM 12.35 54.23 0.497 7.84 0.8 8.51
11/5/2022 6:00:00 AM 12.38 54.284 0.497 7.84 7.34 8.47
11/5/2022 6:15:00 AM 12.41 54.338 0.497 7.84 0.63 8.47
11/5/2022 6:30:00 AM 12.43 54.374 0.497 7.84 0.53 8.46
11/5/2022 6:45:00 AM 12.45 54.41 0.497 7.83 0.73 8.47
11/5/2022 7:00:00 AM 12.47 54.446 0.497 7.83 0.69 8.46
11/5/2022 7:15:00 AM 12.51 54.518 0.497 7.83 1.1 8.42
11/5/2022 7:30:00 AM 12.54 54.572 0.497 7.82 0.6 8.42
11/5/2022 7:45:00 AM 12.57 54.626 0.497 7.81 2.58 8.41
11/5/2022 8:00:00 AM 12.6 54.68 0.498 7.81 0.57 8.4
11/5/2022 8:15:00 AM 12.64 54.752 0.498 7.81 0.94 8.41
11/5/2022 8:30:00 AM 12.68 54.824 0.498 7.81 0.4 8.48
11/5/2022 8:45:00 AM 12.74 54.932 0.497 7.81 0.56 8.52
11/5/2022 9:00:00 AM 12.82 55.076 0.497 7.81 0.57 8.7
11/5/2022 9:15:00 AM 12.92 55.256 0.497 7.81 0.73 9
11/5/2022 9:30:00 AM 13.03 55.454 0.497 7.82 0.47 9.28
11/5/2022 9:45:00 AM 13.16 55.688 0.496 7.83 0.61 9.65
11/5/2022 10:00:00 AM 13.26 55.868 0.496 7.84 0.55 9.92
11/5/2022 10:15:00 AM 13.42 56.156 0.495 7.86 0.66 10.37
11/5/2022 10:30:00 AM 13.53 56.354 0.495 7.88 0.5 10.69
11/5/2022 10:45:00 AM 13.66 56.588 0.495 7.89 0.68 11.05
11/5/2022 11:00:00 AM 13.79 56.822 0.494 7.91 0.43 11.44
11/5/2022 11:15:00 AM 13.96 57.128 0.493 7.93 0.51 11.92
11/5/2022 11:30:00 AM 14.12 57.416 0.493 7.95 0.54 12.35
11/5/2022 11:45:00 AM 14.33 57.794 0.492 7.97 0.57 12.75
11/5/2022 12:00:00 PM 14.65 58.37 0.49 8.02 0.61 13.2
11/5/2022 12:15:00 PM 14.91 58.838 0.49 8.03 0.53 13.52
11/5/2022 12:30:00 PM 15.23 59.414 0.488 8.07 0.7 13.92
11/5/2022 12:45:00 PM 15.4 59.72 0.487 8.11 0.81 14.13
11/5/2022 1:00:00 PM 15.58 60.044 0.488 8.11 1.1 14.22
11/5/2022 1:15:00 PM 15.84 60.512 0.487 8.11 0.77 14.61
11/5/2022 1:30:00 PM 15.96 60.728 0.487 8.12 0.97 15
11/5/2022 1:45:00 PM 16.04 60.872 0.486 8.14 0.72 15.09
11/5/2022 2:00:00 PM 16.12 61.016 0.485 8.15 1.27 15.15
11/5/2022 2:15:00 PM 16.19 61.142 0.484 8.17 0.9 15.39
11/5/2022 2:30:00 PM 16.25 61.25 0.484 8.18 3.28 15.38
11/5/2022 2:45:00 PM 16.27 61.286 0.484 8.2 1.06 15.25
11/5/2022 3:00:00 PM 16.29 61.322 0.484 8.19 0.78 15.34
11/5/2022 3:15:00 PM 16.34 61.412 0.483 8.22 2.96 15.05
11/5/2022 3:30:00 PM 16.34 61.412 0.482 8.23 0.97 15.03
11/5/2022 3:45:00 PM 16.47 61.646 0.481 8.23 1.12 15.09
11/5/2022 4:00:00 PM 16.44 61.592 0.482 8.22 0.76 14.96
11/5/2022 4:15:00 PM 16.53 61.754 0.483 8.21 1.18 14.76
11/5/2022 4:30:00 PM 16.45 61.61 0.482 8.22 1.25 14.65
11/5/2022 4:45:00 PM 16.35 61.43 0.483 8.21 0.84 14.55
11/5/2022 5:00:00 PM 16.25 61.25 0.484 8.19 0.75 14.37
11/5/2022 5:15:00 PM 16.08 60.944 0.485 8.19 0.53 14.07
11/5/2022 5:30:00 PM 15.96 60.728 0.485 8.17 0.9 13.66
11/5/2022 5:45:00 PM 15.84 60.512 0.486 8.16 1.01 13.34
11/5/2022 6:00:00 PM 15.71 60.278 0.486 8.13 0.93 12.91
11/5/2022 6:15:00 PM 15.55 59.99 0.487 8.12 0.84 12.44
11/5/2022 6:30:00 PM 15.43 59.774 0.488 8.1 1.79 12.02
11/5/2022 6:45:00 PM 15.32 59.576 0.488 8.07 1.1 11.56
11/5/2022 7:00:00 PM 15.15 59.27 0.489 8.05 1.81 11.07
11/5/2022 7:15:00 PM 15.03 59.054 0.493 8.02 2.41 10.61
11/5/2022 7:30:00 PM 14.93 58.874 0.493 8 1.36 10.24
11/5/2022 7:45:00 PM 14.83 58.694 0.494 7.97 0.76 9.85
11/5/2022 8:00:00 PM 14.69 58.442 0.496 7.95 0.78 9.51
11/5/2022 8:15:00 PM 14.59 58.262 0.495 7.93 1.9 9.22
11/5/2022 8:30:00 PM 14.5 58.1 0.496 7.91 1.97 9
11/5/2022 8:45:00 PM 14.39 57.902 0.496 7.89 2.19 8.76
11/5/2022 9:00:00 PM 14.28 57.704 0.496 7.88 0.88 8.6
11/5/2022 9:15:00 PM 14.21 57.578 0.496 7.86 0.9 8.44
11/5/2022 9:30:00 PM 14.13 57.434 0.496 7.85 1.85 8.32
11/5/2022 9:45:00 PM 14.1 57.38 0.496 7.84 0.87 8.22
11/5/2022 10:00:00 PM 14.02 57.236 0.496 7.84 0.83 8.18
11/5/2022 10:15:00 PM 13.97 57.146 0.496 7.84 0.6 8.11
11/5/2022 10:30:00 PM 13.94 57.092 0.496 7.83 0.74 8.07
11/5/2022 10:45:00 PM 13.9 57.02 0.496 7.83 0.97 8.06
11/5/2022 11:00:00 PM 13.88 56.984 0.496 7.83 2.07 8.01
11/5/2022 11:15:00 PM 13.86 56.948 0.495 7.83 1.92 8
11/5/2022 11:30:00 PM 13.84 56.912 0.495 7.83 1.94 7.99
11/5/2022 11:45:00 PM 13.88 56.984 0.495 7.82 0.59 7.96
11/6/2022 12:00:00 AM 13.91 57.038 0.495 7.82 1.01 7.93
11/6/2022 12:15:00 AM 13.95 57.11 0.494 7.82 1.21 7.95
11/6/2022 12:30:00 AM 14 57.2 0.494 7.82 1.07 7.93
11/6/2022 12:45:00 AM 14.01 57.218 0.494 7.81 0.94 7.93
11/6/2022 1:00:00 AM 14.03 57.254 0.495 7.81 0.87 7.92
11/6/2022 1:15:00 AM 14.04 57.272 0.494 7.8 1.07 7.89
11/6/2022 1:30:00 AM 14.07 57.326 0.494 7.8 0.97 7.9
11/6/2022 1:45:00 AM 14.07 57.326 0.494 7.8 0.82 7.9
11/6/2022 2:00:00 AM 14.09 57.362 0.494 7.8 0.59 7.89
11/6/2022 2:15:00 AM 14.11 57.398 0.494 7.8 0.78 7.89
11/6/2022 2:30:00 AM 14.16 57.488 0.493 7.8 0.63 7.89
11/6/2022 2:45:00 AM 14.2 57.56 0.494 7.8 0.72 7.87
11/6/2022 3:00:00 AM 14.25 57.65 0.494 7.79 0.91 7.85
11/6/2022 3:15:00 AM 14.4 57.92 0.493 7.79 0.81 7.79
11/6/2022 3:30:00 AM 14.43 57.974 0.493 7.79 1.49 7.77
11/6/2022 3:45:00 AM 14.46 58.028 0.493 7.79 2.07 7.78
11/6/2022 4:00:00 AM 14.48 58.064 0.493 7.79 1.1 7.76
11/6/2022 4:15:00 AM 14.49 58.082 0.493 7.79 1.18 7.75
11/6/2022 4:30:00 AM 14.5 58.1 0.493 7.79 4 7.76
11/6/2022 4:45:00 AM 14.51 58.118 0.493 7.79 1.25 7.73
11/6/2022 5:00:00 AM 14.52 58.136 0.492 7.79 1.1 7.73
11/6/2022 5:15:00 AM 14.54 58.172 0.492 7.79 1.39 7.71
11/6/2022 5:30:00 AM 14.56 58.208 0.492 7.79 1.06 7.69
11/6/2022 5:45:00 AM 14.59 58.262 0.492 7.78 1.23 7.66
11/6/2022 6:00:00 AM 14.6 58.28 0.492 7.78 0.75 7.65
11/6/2022 6:15:00 AM 14.61 58.298 0.492 7.78 0.74 7.66
11/6/2022 6:30:00 AM 14.62 58.316 0.491 7.78 0.84 7.65
11/6/2022 6:45:00 AM 14.62 58.316 0.491 7.78 1.17 7.62
11/6/2022 7:00:00 AM 14.61 58.298 0.49 7.78 0.72 7.63
11/6/2022 7:15:00 AM 14.61 58.298 0.49 7.78 0.66 7.63
11/6/2022 7:30:00 AM 14.62 58.316 0.49 7.78 0.77 7.62
11/6/2022 7:45:00 AM 14.61 58.298 0.49 7.78 0.73 7.62
11/6/2022 8:00:00 AM 14.62 58.316 0.49 7.78 1.28 7.64
11/6/2022 8:15:00 AM 14.64 58.352 0.489 7.78 0.64 7.71
11/6/2022 8:30:00 AM 14.7 58.46 0.489 7.78 0.68 7.8
11/6/2022 8:45:00 AM 14.77 58.586 0.489 7.79 0.61 7.92
11/6/2022 9:00:00 AM 14.83 58.694 0.489 7.79 0.67 8.14
11/6/2022 9:15:00 AM 14.91 58.838 0.488 7.8 0.73 8.41
11/6/2022 9:30:00 AM 14.98 58.964 0.487 7.81 0.56 8.67
11/6/2022 9:45:00 AM 15.03 59.054 0.487 7.83 0.64 8.94
11/6/2022 10:00:00 AM 15.08 59.144 0.486 7.84 0.62 9.21
11/6/2022 10:15:00 AM 15.16 59.288 0.486 7.85 0.64 9.52
11/6/2022 10:30:00 AM 15.3 59.54 0.485 7.86 1.9 9.97
11/6/2022 10:45:00 AM 15.4 59.72 0.484 7.89 0.67 10.42
11/6/2022 11:00:00 AM 15.49 59.882 0.483 7.91 0.84 10.82
11/6/2022 11:15:00 AM 15.57 60.026 0.483 7.92 0.51 11.2
11/6/2022 11:30:00 AM 15.64 60.152 0.482 7.94 0.63 11.55
11/6/2022 11:45:00 AM 15.72 60.296 0.481 7.97 0.63 11.87
11/6/2022 12:00:00 PM 15.82 60.476 0.48 8 0.56 12.23
11/6/2022 12:15:00 PM 16.01 60.818 0.479 8.01 0.67 12.61
11/6/2022 12:30:00 PM 16.24 61.232 0.478 8.05 1.17 13.05
11/6/2022 12:45:00 PM 16.62 61.916 0.477 8.05 0.6 13.42
11/6/2022 1:00:00 PM 16.77 62.186 0.477 8.08 0.67 13.72
11/6/2022 1:15:00 PM 16.82 62.276 0.476 8.09 0.57 13.92
11/6/2022 1:30:00 PM 16.79 62.222 0.475 8.11 0.54 13.95
11/6/2022 1:45:00 PM 16.79 62.222 0.475 8.12 0.67 13.97
11/6/2022 2:00:00 PM 16.79 62.222 0.475 8.13 0.71 13.94
11/6/2022 2:15:00 PM 16.75 62.15 0.475 8.14 0.89 13.81
11/6/2022 2:30:00 PM 16.71 62.078 0.474 8.14 0.94 13.65
11/6/2022 2:45:00 PM 16.72 62.096 0.474 8.15 1.03 13.37
11/6/2022 3:00:00 PM 16.73 62.114 0.473 8.15 1.19 13.41
11/6/2022 3:15:00 PM 16.75 62.15 0.473 8.15 0.65 13.41
11/6/2022 3:30:00 PM 16.81 62.258 0.474 8.14 0.54 13.35
11/6/2022 3:45:00 PM 16.8 62.24 0.474 8.13 0.73 13.23
11/6/2022 4:00:00 PM 16.76 62.168 0.474 8.13 0.59 13.07
11/6/2022 4:15:00 PM 16.7 62.06 0.475 8.11 0.94 12.73
11/6/2022 4:30:00 PM 16.64 61.952 0.476 8.11 0.63 12.4
11/6/2022 4:45:00 PM 16.58 61.844 0.476 8.09 0.67 12.05
11/6/2022 5:00:00 PM 16.54 61.772 0.477 8.08 0.9 11.67
11/6/2022 5:15:00 PM 16.48 61.664 0.478 8.05 1.36 11.28
11/6/2022 5:30:00 PM 16.44 61.592 0.479 8.04 0.84 10.87
11/6/2022 5:45:00 PM 16.38 61.484 0.479 8.01 0.71 10.5
11/6/2022 6:00:00 PM 16.3 61.34 0.481 7.99 2.05 10.11
11/6/2022 6:15:00 PM 16.26 61.268 0.481 7.97 2.29 9.74
11/6/2022 6:30:00 PM 16.21 61.178 0.482 7.95 0.94 9.38
11/6/2022 6:45:00 PM 16.16 61.088 0.482 7.93 1.39 9.06
11/6/2022 7:00:00 PM 16.13 61.034 0.482 7.91 1.15 8.81
11/6/2022 7:15:00 PM 16.1 60.98 0.483 7.89 0.99 8.53
11/6/2022 7:30:00 PM 16.08 60.944 0.483 7.87 0.76 8.29
11/6/2022 7:45:00 PM 16.08 60.944 0.484 7.86 0.94 8.07
11/6/2022 8:00:00 PM 16.08 60.944 0.484 7.84 0.8 7.89
11/6/2022 8:15:00 PM 16.07 60.926 0.485 7.82 0.87 7.74
11/6/2022 8:30:00 PM 16.07 60.926 0.485 7.81 0.87 7.62
11/6/2022 8:45:00 PM 16.05 60.89 0.485 7.8 0.85 7.5
11/6/2022 9:00:00 PM 16.02 60.836 0.485 7.79 2.51 7.43
11/6/2022 9:15:00 PM 16 60.8 0.485 7.79 13 7.38
11/6/2022 9:30:00 PM 15.98 60.764 0.485 7.78 2.19 7.33
11/6/2022 9:45:00 PM 15.97 60.746 0.485 7.78 1.37 7.3
11/6/2022 10:00:00 PM 15.94 60.692 0.485 7.78 1.42 7.28
11/6/2022 10:15:00 PM 15.92 60.656 0.485 7.78 1.72 7.26
11/6/2022 10:30:00 PM 15.9 60.62 0.485 7.77 1.04 7.25
11/6/2022 10:45:00 PM 15.88 60.584 0.485 7.77 1.19 7.23
11/6/2022 11:00:00 PM 15.85 60.53 0.485 7.77 5.28 7.2
11/6/2022 11:15:00 PM 15.81 60.458 0.485 7.77 3.25 7.21
11/6/2022 11:30:00 PM 15.76 60.368 0.485 7.77 4.23 7.18
11/6/2022 11:45:00 PM 15.73 60.314 0.485 7.77 1.95 7.17
11/7/2022 12:00:00 AM 15.7 60.26 0.485 7.77 0.9 7.17
11/7/2022 12:15:00 AM 15.67 60.206 0.485 7.77 1.26 7.17
11/7/2022 12:30:00 AM 15.62 60.116 0.485 7.77 2.29 7.16
11/7/2022 12:45:00 AM 15.59 60.062 0.485 7.77 1.57 7.16
11/7/2022 1:00:00 AM 15.59 60.062 0.485 7.77 4.51 7.11
11/7/2022 1:15:00 AM 15.59 60.062 0.485 7.77 2.83 7.15
11/7/2022 1:30:00 AM 15.57 60.026 0.485 7.77 1.08 7.15
11/7/2022 1:45:00 AM 15.53 59.954 0.484 7.77 1.13 7.15
11/7/2022 2:00:00 AM 15.49 59.882 0.485 7.77 1.21 7.15
11/7/2022 2:15:00 AM 15.45 59.81 0.485 7.77 0.93 7.15
11/7/2022 2:30:00 AM 15.42 59.756 0.485 7.77 1.71 7.15
11/7/2022 2:45:00 AM 15.38 59.684 0.485 7.77 1.45 7.15
11/7/2022 3:00:00 AM 15.35 59.63 0.485 7.77 0.98 7.15
11/7/2022 3:15:00 AM 15.31 59.558 0.485 7.77 2.58 7.14
11/7/2022 3:30:00 AM 15.29 59.522 0.485 7.77 1.07 7.16
11/7/2022 3:45:00 AM 15.26 59.468 0.485 7.77 1.13 7.16
11/7/2022 4:00:00 AM 15.23 59.414 0.485 7.77 0.99 7.15
11/7/2022 4:15:00 AM 15.21 59.378 0.485 7.77 0.91 7.14
11/7/2022 4:30:00 AM 15.18 59.324 0.485 7.77 0.97 7.15
11/7/2022 4:45:00 AM 15.17 59.306 0.485 7.77 3.25 7.13
11/7/2022 5:00:00 AM 15.19 59.342 0.484 7.77 0.99 7.13
11/7/2022 5:15:00 AM 15.21 59.378 0.484 7.77 0.78 7.12
11/7/2022 5:30:00 AM 15.21 59.378 0.484 7.77 1.88 7.1
11/7/2022 5:45:00 AM 15.2 59.36 0.485 7.77 3.07 7.11
11/7/2022 6:00:00 AM 15.18 59.324 0.484 7.77 0.98 7.11
11/7/2022 6:15:00 AM 15.14 59.252 0.485 7.77 0.74 7.11
11/7/2022 6:30:00 AM 15.11 59.198 0.485 7.77 0.88 7.12
11/7/2022 6:45:00 AM 15.07 59.126 0.484 7.76 1.06 7.07
11/7/2022 7:00:00 AM 15.04 59.072 0.484 7.76 0.89 7.05
11/7/2022 7:15:00 AM 15.01 59.018 0.484 7.77 0.82 7.13
11/7/2022 7:30:00 AM 14.98 58.964 0.484 7.77 0.74 7.19
11/7/2022 7:45:00 AM 14.98 58.964 0.484 7.77 0.71 7.28
11/7/2022 8:00:00 AM 14.99 58.982 0.484 7.78 0.69 7.41
11/7/2022 8:15:00 AM 15.01 59.018 0.484 7.79 0.77 7.58
11/7/2022 8:30:00 AM 15.07 59.126 0.483 7.8 0.81 7.8
11/7/2022 8:45:00 AM 15.13 59.234 0.483 7.81 0.78 7.99
11/7/2022 9:00:00 AM 15.2 59.36 0.483 7.82 0.74 8.3
11/7/2022 9:15:00 AM 15.26 59.468 0.482 7.82 0.71 8.58
11/7/2022 9:30:00 AM 15.33 59.594 0.482 7.84 0.84 8.9
11/7/2022 9:45:00 AM 15.42 59.756 0.481 7.85 0.57 9.2
11/7/2022 10:00:00 AM 15.51 59.918 0.48 7.87 0.74 9.54
11/7/2022 10:15:00 AM 15.62 60.116 0.48 7.88 0.7 9.9
11/7/2022 10:30:00 AM 15.77 60.386 0.479 7.91 0.62 10.28
11/7/2022 10:45:00 AM 15.95 60.71 0.478 7.92 0.65 10.7
11/7/2022 11:00:00 AM 16.17 61.106 0.478 7.95 0.58 11.18
11/7/2022 11:15:00 AM 16.41 61.538 0.477 7.97 0.67 11.63
11/7/2022 11:30:00 AM 16.65 61.97 0.476 7.99 0.85 12.08
11/7/2022 11:45:00 AM 16.93 62.474 0.475 8.01 1.12 12.5
11/7/2022 12:00:00 PM 17.24 63.032 0.474 8.03 0.64 12.93
11/7/2022 12:15:00 PM 17.52 63.536 0.473 8.06 0.78 13.26
11/7/2022 12:30:00 PM 17.8 64.04 0.472 8.07 0.72 13.62
11/7/2022 12:45:00 PM 18.06 64.508 0.472 8.09 0.79 13.91
11/7/2022 1:00:00 PM 18.31 64.958 0.472 8.1 0.77 14.17
11/7/2022 1:15:00 PM 18.51 65.318 0.472 8.11 0.72 14.41
11/7/2022 1:30:00 PM 18.68 65.624 0.471 8.12 0.75 14.53
11/7/2022 1:45:00 PM 18.79 65.82201 0.471 8.13 0.7 14.66
11/7/2022 2:00:00 PM 18.87 65.966 0.471 8.14 0.75 14.74
11/7/2022 2:15:00 PM 18.93 66.074 0.471 8.15 0.91 14.76
11/7/2022 2:30:00 PM 18.93 66.074 0.471 8.15 0.71 14.73
11/7/2022 2:45:00 PM 18.91 66.038 0.471 8.16 0.7 14.7
11/7/2022 3:00:00 PM 18.82 65.876 0.471 8.15 0.73 14.56
11/7/2022 3:15:00 PM 18.66 65.588 0.471 8.14 0.72 14.36
11/7/2022 3:30:00 PM 18.43 65.174 0.472 8.13 0.83 14.12
11/7/2022 3:45:00 PM 18.12 64.616 0.473 8.14 0.87 13.73
11/7/2022 4:00:00 PM 17.93 64.274 0.473 8.14 0.68 13.33
11/7/2022 4:15:00 PM 17.69 63.842 0.474 8.13 0.65 12.95
11/7/2022 4:30:00 PM 17.48 63.464 0.474 8.11 0.79 12.45
11/7/2022 4:45:00 PM 17.23 63.014 0.476 8.1 0.64 11.93
11/7/2022 5:00:00 PM 17.03 62.654 0.476 8.08 0.97 11.43
11/7/2022 5:15:00 PM 16.85 62.33 0.477 8.06 0.73 10.92
11/7/2022 5:30:00 PM 16.64 61.952 0.478 8.04 0.89 10.4
11/7/2022 5:45:00 PM 16.47 61.646 0.479 8.02 0.7 9.89
11/7/2022 6:00:00 PM 16.27 61.286 0.48 7.99 2.3 9.52
11/7/2022 6:15:00 PM 16.11 60.998 0.481 7.97 2.89 9.12
11/7/2022 6:30:00 PM 15.95 60.71 0.481 7.95 1.54 8.76
11/7/2022 6:45:00 PM 15.83 60.494 0.481 7.93 2.01 8.46
11/7/2022 7:00:00 PM 15.71 60.278 0.481 7.91 3.91 8.2
11/7/2022 7:15:00 PM 15.61 60.098 0.481 7.89 1.01 8
11/7/2022 7:30:00 PM 15.51 59.918 0.482 7.88 0.83 7.79
11/7/2022 7:45:00 PM 15.43 59.774 0.482 7.87 0.76 7.64
11/7/2022 8:00:00 PM 15.34 59.612 0.482 7.85 0.98 7.51
11/7/2022 8:15:00 PM 15.25 59.45 0.482 7.84 0.77 7.4
11/7/2022 8:30:00 PM 15.17 59.306 0.483 7.83 0.78 7.29
11/7/2022 8:45:00 PM 15.07 59.126 0.483 7.82 1.39 7.23
11/7/2022 9:00:00 PM 14.99 58.982 0.483 7.81 3.15 7.19
11/7/2022 9:15:00 PM 14.93 58.874 0.482 7.81 0.8 7.16
11/7/2022 9:30:00 PM 14.86 58.748 0.483 7.81 0.69 7.14
11/7/2022 9:45:00 PM 14.79 58.622 0.483 7.81 0.84 7.13
11/7/2022 10:00:00 PM 14.75 58.55 0.483 7.81 0.74 7.11
11/7/2022 10:15:00 PM 14.68 58.424 0.483 7.81 0.96 7.13
11/7/2022 10:30:00 PM 14.6 58.28 0.483 7.8 0.57 7.09
11/7/2022 10:45:00 PM 14.54 58.172 0.483 7.8 1.94 7.1
11/7/2022 11:00:00 PM 14.45 58.01 0.483 7.8 1.12 7.1
11/7/2022 11:15:00 PM 14.38 57.884 0.483 7.8 2.18 7.11
11/7/2022 11:30:00 PM 14.29 57.722 0.483 7.8 1.06 7.16
11/7/2022 11:45:00 PM 14.23 57.614 0.483 7.81 1.92 7.2
11/8/2022 12:00:00 AM 14.16 57.488 0.483 7.81 0.77 7.26
11/8/2022 12:15:00 AM 14.1 57.38 0.482 7.81 0.85 7.28
11/8/2022 12:30:00 AM 14.03 57.254 0.483 7.82 0.74 7.32
11/8/2022 12:45:00 AM 13.95 57.11 0.483 7.82 0.86 7.35
11/8/2022 1:00:00 AM 13.94 57.092 0.482 7.82 1.02 7.41
11/8/2022 1:15:00 AM 13.89 57.002 0.483 7.82 1.67 7.43
11/8/2022 1:30:00 AM 13.85 56.93 0.483 7.83 1.17 7.47
11/8/2022 1:45:00 AM 13.84 56.912 0.483 7.83 1.34 7.51
11/8/2022 2:00:00 AM 13.82 56.876 0.482 7.83 0.8 7.54
11/8/2022 2:15:00 AM 13.78 56.804 0.483 7.83 0.66 7.55
11/8/2022 2:30:00 AM 13.73 56.714 0.483 7.84 1.25 7.56
11/8/2022 2:45:00 AM 13.67 56.606 0.483 7.84 2.58 7.55
11/8/2022 3:00:00 AM 13.66 56.588 0.482 7.84 3.4 7.59
11/8/2022 3:15:00 AM 13.6 56.48 0.483 7.84 2.81 7.59
11/8/2022 3:30:00 AM 13.58 56.444 0.483 7.84 1.7 7.6
11/8/2022 3:45:00 AM 13.54 56.372 0.483 7.84 1.45 7.6
11/8/2022 4:00:00 AM 13.54 56.372 0.483 7.84 2.33 7.62
11/8/2022 4:15:00 AM 13.43 56.174 0.482 7.85 2.34 7.7
11/8/2022 4:30:00 AM 13.42 56.156 0.483 7.86 1.07 7.75
11/8/2022 4:45:00 AM 13.34 56.012 0.479 7.86 1.03 7.75
11/8/2022 5:00:00 AM 13.28 55.904 0.484 7.86 1.16 7.73
11/8/2022 5:15:00 AM 13.22 55.796 0.484 7.85 1.36 7.72
11/8/2022 5:30:00 AM 13.2 55.76 0.484 7.86 0.85 7.73
11/8/2022 5:45:00 AM 13.19 55.742 0.483 7.86 0.65 7.76
11/8/2022 6:00:00 AM 13.14 55.652 0.484 7.86 0.87 7.75
11/8/2022 6:15:00 AM 13.05 55.49 0.464 7.86 0.96 7.75
11/8/2022 6:30:00 AM 13.03 55.454 0.484 7.85 0.81 7.72
11/8/2022 6:45:00 AM 13 55.4 0.483 7.85 0.94 7.72
11/8/2022 7:00:00 AM 12.96 55.328 0.484 7.85 1.2 7.76
11/8/2022 7:15:00 AM 12.97 55.346 0.484 7.85 1.98 7.79
11/8/2022 7:30:00 AM 12.95 55.31 0.484 7.86 0.83 7.88
11/8/2022 7:45:00 AM 12.98 55.364 0.483 7.86 1.44 7.99
11/8/2022 8:00:00 AM 12.99 55.382 0.483 7.87 0.75 8.17
11/8/2022 8:15:00 AM 13 55.4 0.483 7.88 0.78 8.39
11/8/2022 8:30:00 AM 13 55.4 0.476 7.89 0.73 8.58
11/8/2022 8:45:00 AM 13.05 55.49 0.475 7.92 0.73 8.93
11/8/2022 9:00:00 AM 13.05 55.49 0.476 7.93 0.54 9.2
11/8/2022 9:15:00 AM 13.13 55.634 0.476 7.94 0.71 9.47
11/8/2022 9:30:00 AM 13.23 55.814 0.476 7.95 0.55 9.74
11/8/2022 9:45:00 AM 13.32 55.976 0.475 7.97 0.61 10.1
11/8/2022 10:00:00 AM 13.43 56.174 0.473 8 0.64 10.47
11/8/2022 10:15:00 AM 13.54 56.372 0.476 8.03 0.73 10.85
11/8/2022 10:30:00 AM 13.69 56.642 0.478 8.03 0.61 11.16
11/8/2022 10:45:00 AM 13.88 56.984 0.476 8.06 0.59 11.52
11/8/2022 11:00:00 AM 14.09 57.362 0.475 8.08 0.55 11.92
11/8/2022 11:15:00 AM 14.33 57.794 0.475 8.11 0.8 12.3
11/8/2022 11:30:00 AM 14.57 58.226 0.473 8.13 1.08 12.69
11/8/2022 11:45:00 AM 14.81 58.658 0.473 8.14 0.74 13.02
11/8/2022 12:00:00 PM 15.14 59.252 0.474 8.16 0.7 13.41
11/8/2022 12:15:00 PM 15.45 59.81 0.471 8.18 1.92 13.69
11/8/2022 12:30:00 PM 15.75 60.35 0.472 8.19 1.18 13.97
11/8/2022 12:45:00 PM 15.99 60.782 0.472 8.2 2.68 14.24
11/8/2022 1:00:00 PM 16.22 61.196 0.471 8.22 1.67 14.43
11/8/2022 1:15:00 PM 16.42 61.556 0.47 8.22 0.8 14.65
11/8/2022 1:30:00 PM 16.54 61.772 0.47 8.25 0.89 14.77
11/8/2022 1:45:00 PM 16.63 61.934 0.468 8.26 1.29 14.83
11/8/2022 2:00:00 PM 16.72 62.096 0.469 8.26 0.92 14.9
11/8/2022 2:15:00 PM 16.74 62.132 0.468 8.27 1.08 14.91
11/8/2022 2:30:00 PM 16.77 62.186 0.468 8.26 0.91 14.91
11/8/2022 2:45:00 PM 16.79 62.222 0.469 8.25 0.74 14.9
11/8/2022 3:00:00 PM 16.7 62.06 0.469 8.25 0.8 14.82
11/8/2022 3:15:00 PM 16.53 61.754 0.47 8.26 0.76 14.67
11/8/2022 3:30:00 PM 16.28 61.304 0.471 8.25 1.07 14.42
11/8/2022 3:45:00 PM 16.03 60.854 0.471 8.24 0.74 14.12
11/8/2022 4:00:00 PM 15.79 60.422 0.472 8.22 0.74 13.76
11/8/2022 4:15:00 PM 15.6 60.08 0.473 8.2 0.78 13.38
11/8/2022 4:30:00 PM 15.38 59.684 0.474 8.18 0.74 12.96
11/8/2022 4:45:00 PM 15.17 59.306 0.474 8.16 0.81 12.46
11/8/2022 5:00:00 PM 14.99 58.982 0.475 8.14 1.04 12
11/8/2022 5:15:00 PM 14.78 58.604 0.476 8.12 0.54 11.49
11/8/2022 5:30:00 PM 14.6 58.28 0.477 8.09 0.88 11.03
11/8/2022 5:45:00 PM 14.43 57.974 0.478 8.07 0.74 10.61
11/8/2022 6:00:00 PM 14.28 57.704 0.478 8.04 0.78 10.18
11/8/2022 6:15:00 PM 14.12 57.416 0.479 8.01 0.71 9.81
11/8/2022 6:30:00 PM 13.99 57.182 0.48 7.99 0.86 9.48
11/8/2022 6:45:00 PM 13.85 56.93 0.48 7.97 0.75 9.2
11/8/2022 7:00:00 PM 13.73 56.714 0.48 7.95 0.83 8.91
11/8/2022 7:15:00 PM 13.62 56.516 0.481 7.93 0.76 8.67
11/8/2022 7:30:00 PM 13.51 56.318 0.481 7.91 0.87 8.49
11/8/2022 7:45:00 PM 13.43 56.174 0.48 7.9 0.74 8.34
11/8/2022 8:00:00 PM 13.35 56.03 0.48 7.9 0.69 8.21
11/8/2022 8:15:00 PM 13.28 55.904 0.48 7.89 0.65 8.11
11/8/2022 8:30:00 PM 13.22 55.796 0.48 7.88 0.89 8.08
11/8/2022 8:45:00 PM 13.17 55.706 0.48 7.88 0.65 8.02
11/8/2022 9:00:00 PM 13.13 55.634 0.48 7.87 0.84 7.97
11/8/2022 9:15:00 PM 13.08 55.544 0.48 7.87 1.91 7.91
11/8/2022 9:30:00 PM 13.03 55.454 0.48 7.87 1.36 7.9
11/8/2022 9:45:00 PM 12.98 55.364 0.48 7.87 0.54 7.9
11/8/2022 10:00:00 PM 12.93 55.274 0.48 7.87 0.67 7.91
11/8/2022 10:15:00 PM 12.91 55.238 0.48 7.87 0.61 7.89
11/8/2022 10:30:00 PM 12.86 55.148 0.48 7.87 0.56 7.88
11/8/2022 10:45:00 PM 12.81 55.058 0.479 7.87 0.66 7.9
11/8/2022 11:00:00 PM 12.78 55.004 0.479 7.87 0.66 7.92
11/8/2022 11:15:00 PM 12.72 54.896 0.479 7.87 0.65 7.93
11/8/2022 11:30:00 PM 12.68 54.824 0.479 7.87 0.54 7.93
11/8/2022 11:45:00 PM 12.65 54.77 0.479 7.87 0.58 7.98
11/9/2022 12:00:00 AM 12.59 54.662 0.479 7.87 1.01 7.98
11/9/2022 12:15:00 AM 12.58 54.644 0.478 7.88 0.69 8.02
11/9/2022 12:30:00 AM 12.53 54.554 0.479 7.88 0.8 8.04
11/9/2022 12:45:00 AM 12.5 54.5 0.478 7.88 0.59 8.03
11/9/2022 1:00:00 AM 12.45 54.41 0.478 7.88 0.72 8.04
11/9/2022 1:15:00 AM 12.42 54.356 0.478 7.88 0.66 8.07
11/9/2022 1:30:00 AM 12.39 54.302 0.478 7.89 0.63 8.09
11/9/2022 1:45:00 AM 12.33 54.194 0.478 7.89 0.53 8.1
11/9/2022 2:00:00 AM 12.29 54.122 0.478 7.89 1.16 8.11
11/9/2022 2:15:00 AM 12.24 54.032 0.478 7.89 0.67 8.1
11/9/2022 2:30:00 AM 12.18 53.924 0.478 7.89 0.72 8.1
11/9/2022 2:45:00 AM 12.14 53.852 0.478 7.89 0.7 8.12
11/9/2022 3:00:00 AM 12.07 53.726 0.478 7.88 0.96 8.1
11/9/2022 3:15:00 AM 12.01 53.618 0.478 7.89 2.03 8.11
11/9/2022 3:30:00 AM 11.96 53.528 0.478 7.89 1.08 8.12
11/9/2022 3:45:00 AM 11.89 53.402 0.478 7.89 0.59 8.15
11/9/2022 4:00:00 AM 11.85 53.33 0.478 7.89 0.75 8.17
11/9/2022 4:15:00 AM 11.79 53.222 0.478 7.89 0.55 8.17
11/9/2022 4:30:00 AM 11.72 53.096 0.477 7.89 1 8.16
11/9/2022 4:45:00 AM 11.67 53.006 0.478 7.89 5.62 8.18
11/9/2022 5:00:00 AM 11.63 52.934 0.478 7.89 3.95 8.19
11/9/2022 5:15:00 AM 11.56 52.808 0.478 7.89 3.18 8.2
11/9/2022 5:30:00 AM 11.5 52.7 0.478 7.89 1.07 8.2
11/9/2022 5:45:00 AM 11.45 52.61 0.478 7.89 0.84 8.2
11/9/2022 6:00:00 AM 11.41 52.538 0.478 7.89 1.05 8.21
11/9/2022 6:15:00 AM 11.36 52.448 0.478 7.89 0.73 8.22
11/9/2022 6:30:00 AM 11.3 52.34 0.478 7.89 1.04 8.22
11/9/2022 6:45:00 AM 11.27 52.286 0.478 7.89 0.95 8.24
11/9/2022 7:00:00 AM 11.21 52.178 0.478 7.89 0.87 8.26
11/9/2022 7:15:00 AM 11.16 52.088 0.478 7.89 1.35 8.29
11/9/2022 7:30:00 AM 11.14 52.052 0.478 7.89 0.81 8.39
11/9/2022 7:45:00 AM 11.13 52.034 0.477 7.9 0.84 8.52
11/9/2022 8:00:00 AM 11.12 52.016 0.477 7.91 0.8 8.68
11/9/2022 8:15:00 AM 11.15 52.07 0.477 7.93 0.89 8.89
11/9/2022 8:30:00 AM 11.19 52.142 0.477 7.94 0.58 9.09
11/9/2022 8:45:00 AM 11.27 52.286 0.477 7.95 0.79 9.35
11/9/2022 9:00:00 AM 11.33 52.394 0.477 7.96 0.84 9.6
11/9/2022 9:15:00 AM 11.4 52.52 0.476 7.97 0.72 9.9
11/9/2022 9:30:00 AM 11.46 52.628 0.476 7.99 1.01 10.16
11/9/2022 9:45:00 AM 11.55 52.79 0.476 8 0.78 10.45
11/9/2022 10:00:00 AM 11.65 52.97 0.475 8.02 0.5 10.76
11/9/2022 10:15:00 AM 11.75 53.15 0.475 8.04 0.57 11.11
11/9/2022 10:30:00 AM 11.92 53.456 0.474 8.05 0.9 11.42
11/9/2022 10:45:00 AM 12.11 53.798 0.473 8.07 0.6 11.81
11/9/2022 11:00:00 AM 12.31 54.158 0.473 8.09 0.66 12.19
11/9/2022 11:15:00 AM 12.59 54.662 0.472 8.12 0.78 12.62
11/9/2022 11:30:00 AM 12.85 55.13 0.471 8.13 0.5 13.04
11/9/2022 11:45:00 AM 13.11 55.598 0.47 8.15 0.76 13.42
11/9/2022 12:00:00 PM 13.43 56.174 0.47 8.17 0.66 13.8
11/9/2022 12:15:00 PM 13.73 56.714 0.469 8.19 0.62 14.18
11/9/2022 12:30:00 PM 14.06 57.308 0.468 8.2 0.71 14.49
11/9/2022 12:45:00 PM 14.33 57.794 0.467 8.21 0.63 14.77
11/9/2022 1:00:00 PM 14.59 58.262 0.467 8.22 0.84 15.01
11/9/2022 1:15:00 PM 14.81 58.658 0.466 8.23 0.81 15.2
11/9/2022 1:30:00 PM 14.98 58.964 0.466 8.25 0.55 15.34
11/9/2022 1:45:00 PM 15.11 59.198 0.465 8.25 0.7 15.44
11/9/2022 2:00:00 PM 15.2 59.36 0.465 8.26 0.79 15.53
11/9/2022 2:15:00 PM 15.26 59.468 0.465 8.26 1.66 15.54
11/9/2022 2:30:00 PM 15.28 59.504 0.465 8.27 0.8 15.55
11/9/2022 2:45:00 PM 15.25 59.45 0.465 8.27 0.75 15.52
11/9/2022 3:00:00 PM 15.17 59.306 0.465 8.26 0.66 15.51
11/9/2022 3:15:00 PM 15 59 0.465 8.26 0.69 15.38
11/9/2022 3:30:00 PM 14.78 58.604 0.465 8.26 0.78 15.2
11/9/2022 3:45:00 PM 14.49 58.082 0.466 8.26 1.28 14.88
11/9/2022 4:00:00 PM 14.25 57.65 0.467 8.25 0.86 14.5
11/9/2022 4:15:00 PM 14 57.2 0.467 8.24 0.79 14.16
11/9/2022 4:30:00 PM 13.76 56.768 0.468 8.23 0.93 13.78
11/9/2022 4:45:00 PM 13.53 56.354 0.469 8.21 0.82 13.36
11/9/2022 5:00:00 PM 13.31 55.958 0.469 8.2 0.8 12.93
11/9/2022 5:15:00 PM 13.1 55.58 0.47 8.18 1.62 12.41
11/9/2022 5:30:00 PM 12.87 55.166 0.472 8.15 0.86 11.95
11/9/2022 5:45:00 PM 12.69 54.842 0.472 8.13 0.71 11.45
11/9/2022 6:00:00 PM 12.5 54.5 0.473 8.1 0.66 11.16
11/9/2022 6:15:00 PM 12.33 54.194 0.474 8.08 0.77 10.83
11/9/2022 6:30:00 PM 12.18 53.924 0.475 8.06 0.63 10.51
11/9/2022 6:45:00 PM 12 53.6 0.475 8.04 0.96 10.18
11/9/2022 7:00:00 PM 11.86 53.348 0.475 8.02 1 9.93
11/9/2022 7:15:00 PM 11.73 53.114 0.476 8 0.74 9.72
11/9/2022 7:30:00 PM 11.6 52.88 0.476 7.99 0.9 9.5
11/9/2022 7:45:00 PM 11.48 52.664 0.477 7.97 1.07 9.35
11/9/2022 8:00:00 PM 11.37 52.466 0.477 7.96 0.78 9.22
11/9/2022 8:15:00 PM 11.28 52.304 0.476 7.95 0.84 9.12
11/9/2022 8:30:00 PM 11.19 52.142 0.476 7.95 0.61 9.05
11/9/2022 8:45:00 PM 11.11 51.998 0.477 7.94 0.67 8.96
11/9/2022 9:00:00 PM 11.03 51.854 0.477 7.94 0.57 8.94
11/9/2022 9:15:00 PM 10.97 51.746 0.477 7.93 0.45 8.91
11/9/2022 9:30:00 PM 10.89 51.602 0.477 7.93 0.49 8.86
11/9/2022 9:45:00 PM 10.83 51.494 0.477 7.93 0.55 8.86
11/9/2022 10:00:00 PM 10.76 51.368 0.477 7.93 1 8.82
11/9/2022 10:15:00 PM 10.7 51.26 0.477 7.93 0.62 8.84
11/9/2022 10:30:00 PM 10.65 51.17 0.477 7.93 0.76 8.84
11/9/2022 10:45:00 PM 10.58 51.044 0.477 7.92 0.54 8.83
11/9/2022 11:00:00 PM 10.55 50.99 0.477 7.92 0.59 8.85
11/9/2022 11:15:00 PM 10.51 50.918 0.476 7.93 0.58 8.86
11/9/2022 11:30:00 PM 10.45 50.81 0.476 7.93 0.52 8.86
11/9/2022 11:45:00 PM 10.42 50.756 0.476 7.93 0.75 8.88
11/10/2022 12:00:00 AM 10.38 50.684 0.476 7.92 0.62 8.9
11/10/2022 12:15:00 AM 10.34 50.612 0.477 7.92 0.46 8.91
11/10/2022 12:30:00 AM 10.29 50.522 0.477 7.92 0.73 8.93
11/10/2022 12:45:00 AM 10.27 50.486 0.476 7.93 0.88 8.92
11/10/2022 1:00:00 AM 10.24 50.432 0.476 7.93 0.76 8.95
11/10/2022 1:15:00 AM 10.2 50.36 0.477 7.94 0.61 8.97
11/10/2022 1:30:00 AM 10.15 50.27 0.477 7.93 0.5 8.98
11/10/2022 1:45:00 AM 10.14 50.252 0.476 7.94 0.45 8.99
11/10/2022 2:00:00 AM 10.1 50.18 0.477 7.94 0.9 9.02
11/10/2022 2:15:00 AM 10.07 50.126 0.477 7.94 0.57 9.01
11/10/2022 2:30:00 AM 10.03 50.054 0.477 7.94 0.79 9.03
11/10/2022 2:45:00 AM 10.02 50.036 0.476 7.94 0.58 9.05
11/10/2022 3:00:00 AM 9.98 49.964 0.477 7.94 0.62 9.08
11/10/2022 3:15:00 AM 9.96 49.928 0.476 7.94 0.44 9.09
11/10/2022 3:30:00 AM 9.91 49.838 0.477 7.94 0.69 9.1
11/10/2022 3:45:00 AM 9.89 49.802 0.477 7.94 1 9.1
11/10/2022 4:00:00 AM 9.86 49.748 0.477 7.94 0.47 9.08
11/10/2022 4:15:00 AM 9.83 49.694 0.477 7.94 0.78 9.09
11/10/2022 4:30:00 AM 9.81 49.658 0.477 7.94 0.57 9.05
11/10/2022 4:45:00 AM 9.8 49.64 0.476 7.94 0.58 9.12
11/10/2022 5:00:00 AM 9.75 49.55 0.476 7.94 0.56 9.15
11/10/2022 5:15:00 AM 9.71 49.478 0.476 7.94 0.47 9.13
11/10/2022 5:30:00 AM 9.71 49.478 0.476 7.95 0.77 9.15
11/10/2022 5:45:00 AM 9.66 49.388 0.477 7.95 0.82 9.17
11/10/2022 6:00:00 AM 9.64 49.352 0.476 7.95 1.13 9.18
11/10/2022 6:15:00 AM 9.6 49.28 0.477 7.95 0.61 9.2
11/10/2022 6:30:00 AM 9.57 49.226 0.476 7.94 1.75 9.18
11/10/2022 6:45:00 AM 9.54 49.172 0.477 7.95 0.9 9.18
11/10/2022 7:00:00 AM 9.53 49.154 0.476 7.95 0.65 9.17
11/10/2022 7:15:00 AM 9.5 49.1 0.477 7.95 0.68 9.24
11/10/2022 7:30:00 AM 9.49 49.082 0.476 7.95 0.79 9.34
11/10/2022 7:45:00 AM 9.49 49.082 0.477 7.96 0.68 9.47
11/10/2022 8:00:00 AM 9.51 49.118 0.477 7.97 0.52 9.63
11/10/2022 8:15:00 AM 9.56 49.208 0.476 7.98 0.6 9.83
11/10/2022 8:30:00 AM 9.59 49.262 0.476 7.99 0.66 10.04
11/10/2022 8:45:00 AM 9.66 49.388 0.476 8 0.67 10.31